<?xml version="1.0" encoding="UTF-8" standalone="no" ?>
<gpx xmlns="http://www.topografix.com/GPX/1/1" xmlns:xsi="http://www.w3.org/2001/XMLSchema-instance" xsi:schemaLocation="http://www.topografix.com/GPX/1/1 http://www.topografix.com/GPX/1/1/gpx.xsd" version="1.1" creator="VisuGPX - https://www.visugpx.com">
  <metadata>
    <name>VTT  maclas veranne malleval</name>
  </metadata>
  <trk>
    <name><![CDATA[VTT  maclas veranne malleval]]></name>
    <trkseg>
      <trkpt lat="45.29255" lon="4.73431">
        <ele>378.39999389648</ele>
        <time>2022-03-04T12:34:33Z</time>
      </trkpt>
      <trkpt lat="45.29255" lon="4.73431">
        <ele>385.39999389648</ele>
        <time>2022-03-04T12:34:34Z</time>
      </trkpt>
      <trkpt lat="45.29255" lon="4.7343">
        <ele>386.20001220703</ele>
        <time>2022-03-04T12:34:51Z</time>
      </trkpt>
      <trkpt lat="45.2925" lon="4.7341">
        <ele>386.39999389648</ele>
        <time>2022-03-04T12:34:57Z</time>
      </trkpt>
      <trkpt lat="45.29241" lon="4.73387">
        <ele>387</ele>
        <time>2022-03-04T12:35:04Z</time>
      </trkpt>
      <trkpt lat="45.29252" lon="4.73369">
        <ele>387</ele>
        <time>2022-03-04T12:35:11Z</time>
      </trkpt>
      <trkpt lat="45.29271" lon="4.73342">
        <ele>387.60000610352</ele>
        <time>2022-03-04T12:35:20Z</time>
      </trkpt>
      <trkpt lat="45.29334" lon="4.73269">
        <ele>390.39999389648</ele>
        <time>2022-03-04T12:35:45Z</time>
      </trkpt>
      <trkpt lat="45.29382" lon="4.73208">
        <ele>392.60000610352</ele>
        <time>2022-03-04T12:36:06Z</time>
      </trkpt>
      <trkpt lat="45.29405" lon="4.73178">
        <ele>394.79998779297</ele>
        <time>2022-03-04T12:36:17Z</time>
      </trkpt>
      <trkpt lat="45.29402" lon="4.73134">
        <ele>395.60000610352</ele>
        <time>2022-03-04T12:36:27Z</time>
      </trkpt>
      <trkpt lat="45.29394" lon="4.73072">
        <ele>398.60000610352</ele>
        <time>2022-03-04T12:36:40Z</time>
      </trkpt>
      <trkpt lat="45.29386" lon="4.73028">
        <ele>400.39999389648</ele>
        <time>2022-03-04T12:36:50Z</time>
      </trkpt>
      <trkpt lat="45.29402" lon="4.73023">
        <ele>401</ele>
        <time>2022-03-04T12:36:55Z</time>
      </trkpt>
      <trkpt lat="45.29406" lon="4.73025">
        <ele>401</ele>
        <time>2022-03-04T12:36:56Z</time>
      </trkpt>
      <trkpt lat="45.29425" lon="4.73025">
        <ele>401.20001220703</ele>
        <time>2022-03-04T12:37:00Z</time>
      </trkpt>
      <trkpt lat="45.29512" lon="4.73008">
        <ele>400.79998779297</ele>
        <time>2022-03-04T12:37:17Z</time>
      </trkpt>
      <trkpt lat="45.29581" lon="4.73">
        <ele>401.60000610352</ele>
        <time>2022-03-04T12:37:33Z</time>
      </trkpt>
      <trkpt lat="45.29632" lon="4.72983">
        <ele>404.20001220703</ele>
        <time>2022-03-04T12:37:48Z</time>
      </trkpt>
      <trkpt lat="45.2969" lon="4.7294">
        <ele>405.60000610352</ele>
        <time>2022-03-04T12:38:05Z</time>
      </trkpt>
      <trkpt lat="45.29749" lon="4.7289">
        <ele>407.20001220703</ele>
        <time>2022-03-04T12:38:20Z</time>
      </trkpt>
      <trkpt lat="45.29785" lon="4.7286">
        <ele>406.79998779297</ele>
        <time>2022-03-04T12:38:28Z</time>
      </trkpt>
      <trkpt lat="45.29816" lon="4.72846">
        <ele>406.60000610352</ele>
        <time>2022-03-04T12:38:34Z</time>
      </trkpt>
      <trkpt lat="45.29869" lon="4.72832">
        <ele>406.60000610352</ele>
        <time>2022-03-04T12:38:43Z</time>
      </trkpt>
      <trkpt lat="45.29955" lon="4.72788">
        <ele>406.20001220703</ele>
        <time>2022-03-04T12:39:00Z</time>
      </trkpt>
      <trkpt lat="45.29974" lon="4.72777">
        <ele>405.79998779297</ele>
        <time>2022-03-04T12:39:04Z</time>
      </trkpt>
      <trkpt lat="45.30043" lon="4.72733">
        <ele>406.20001220703</ele>
        <time>2022-03-04T12:39:20Z</time>
      </trkpt>
      <trkpt lat="45.30115" lon="4.72699">
        <ele>406.39999389648</ele>
        <time>2022-03-04T12:39:36Z</time>
      </trkpt>
      <trkpt lat="45.30179" lon="4.72695">
        <ele>408</ele>
        <time>2022-03-04T12:39:52Z</time>
      </trkpt>
      <trkpt lat="45.30183" lon="4.72695">
        <ele>408.20001220703</ele>
        <time>2022-03-04T12:39:53Z</time>
      </trkpt>
      <trkpt lat="45.30253" lon="4.72679">
        <ele>409</ele>
        <time>2022-03-04T12:40:09Z</time>
      </trkpt>
      <trkpt lat="45.30272" lon="4.72674">
        <ele>408.60000610352</ele>
        <time>2022-03-04T12:40:12Z</time>
      </trkpt>
      <trkpt lat="45.3031" lon="4.72672">
        <ele>406.20001220703</ele>
        <time>2022-03-04T12:40:18Z</time>
      </trkpt>
      <trkpt lat="45.30314" lon="4.72673">
        <ele>406</ele>
        <time>2022-03-04T12:40:19Z</time>
      </trkpt>
      <trkpt lat="45.30358" lon="4.72718">
        <ele>404</ele>
        <time>2022-03-04T12:40:29Z</time>
      </trkpt>
      <trkpt lat="45.30395" lon="4.72729">
        <ele>402</ele>
        <time>2022-03-04T12:40:35Z</time>
      </trkpt>
      <trkpt lat="45.30429" lon="4.72715">
        <ele>399</ele>
        <time>2022-03-04T12:40:39Z</time>
      </trkpt>
      <trkpt lat="45.30447" lon="4.72711">
        <ele>397</ele>
        <time>2022-03-04T12:40:41Z</time>
      </trkpt>
      <trkpt lat="45.30482" lon="4.72711">
        <ele>393.79998779297</ele>
        <time>2022-03-04T12:40:45Z</time>
      </trkpt>
      <trkpt lat="45.30548" lon="4.72726">
        <ele>390.39999389648</ele>
        <time>2022-03-04T12:40:53Z</time>
      </trkpt>
      <trkpt lat="45.30557" lon="4.72727">
        <ele>390.20001220703</ele>
        <time>2022-03-04T12:40:54Z</time>
      </trkpt>
      <trkpt lat="45.30601" lon="4.72723">
        <ele>386</ele>
        <time>2022-03-04T12:40:59Z</time>
      </trkpt>
      <trkpt lat="45.30614" lon="4.72719">
        <ele>385</ele>
        <time>2022-03-04T12:41:01Z</time>
      </trkpt>
      <trkpt lat="45.30647" lon="4.72707">
        <ele>385.20001220703</ele>
        <time>2022-03-04T12:41:10Z</time>
      </trkpt>
      <trkpt lat="45.30666" lon="4.72705">
        <ele>388.39999389648</ele>
        <time>2022-03-04T12:41:18Z</time>
      </trkpt>
      <trkpt lat="45.30673" lon="4.7271">
        <ele>388.39999389648</ele>
        <time>2022-03-04T12:41:20Z</time>
      </trkpt>
      <trkpt lat="45.30691" lon="4.72714">
        <ele>388.60000610352</ele>
        <time>2022-03-04T12:41:25Z</time>
      </trkpt>
      <trkpt lat="45.30725" lon="4.72719">
        <ele>391.20001220703</ele>
        <time>2022-03-04T12:41:41Z</time>
      </trkpt>
      <trkpt lat="45.3076" lon="4.72716">
        <ele>394</ele>
        <time>2022-03-04T12:41:57Z</time>
      </trkpt>
      <trkpt lat="45.30791" lon="4.72702">
        <ele>397</ele>
        <time>2022-03-04T12:42:12Z</time>
      </trkpt>
      <trkpt lat="45.30834" lon="4.72702">
        <ele>399</ele>
        <time>2022-03-04T12:42:26Z</time>
      </trkpt>
      <trkpt lat="45.30854" lon="4.72708">
        <ele>398.79998779297</ele>
        <time>2022-03-04T12:42:31Z</time>
      </trkpt>
      <trkpt lat="45.30924" lon="4.72736">
        <ele>397.39999389648</ele>
        <time>2022-03-04T12:42:46Z</time>
      </trkpt>
      <trkpt lat="45.31006" lon="4.72748">
        <ele>393.39999389648</ele>
        <time>2022-03-04T12:42:57Z</time>
      </trkpt>
      <trkpt lat="45.31042" lon="4.72747">
        <ele>390</ele>
        <time>2022-03-04T12:43:02Z</time>
      </trkpt>
      <trkpt lat="45.31048" lon="4.72747">
        <ele>389.79998779297</ele>
        <time>2022-03-04T12:43:03Z</time>
      </trkpt>
      <trkpt lat="45.31064" lon="4.72753">
        <ele>388</ele>
        <time>2022-03-04T12:43:06Z</time>
      </trkpt>
      <trkpt lat="45.31074" lon="4.72759">
        <ele>387.60000610352</ele>
        <time>2022-03-04T12:43:08Z</time>
      </trkpt>
      <trkpt lat="45.31136" lon="4.72774">
        <ele>387.60000610352</ele>
        <time>2022-03-04T12:43:21Z</time>
      </trkpt>
      <trkpt lat="45.31201" lon="4.72779">
        <ele>389.79998779297</ele>
        <time>2022-03-04T12:43:37Z</time>
      </trkpt>
      <trkpt lat="45.31222" lon="4.7278">
        <ele>390.20001220703</ele>
        <time>2022-03-04T12:43:43Z</time>
      </trkpt>
      <trkpt lat="45.31277" lon="4.72791">
        <ele>391.20001220703</ele>
        <time>2022-03-04T12:43:56Z</time>
      </trkpt>
      <trkpt lat="45.31433" lon="4.72808">
        <ele>390.79998779297</ele>
        <time>2022-03-04T12:44:29Z</time>
      </trkpt>
      <trkpt lat="45.31491" lon="4.72815">
        <ele>393.20001220703</ele>
        <time>2022-03-04T12:44:46Z</time>
      </trkpt>
      <trkpt lat="45.31524" lon="4.72817">
        <ele>395.20001220703</ele>
        <time>2022-03-04T12:44:57Z</time>
      </trkpt>
      <trkpt lat="45.31561" lon="4.72828">
        <ele>397.20001220703</ele>
        <time>2022-03-04T12:45:10Z</time>
      </trkpt>
      <trkpt lat="45.31627" lon="4.72834">
        <ele>400.20001220703</ele>
        <time>2022-03-04T12:45:29Z</time>
      </trkpt>
      <trkpt lat="45.31656" lon="4.7284">
        <ele>401.79998779297</ele>
        <time>2022-03-04T12:45:42Z</time>
      </trkpt>
      <trkpt lat="45.31685" lon="4.72858">
        <ele>402.79998779297</ele>
        <time>2022-03-04T12:45:52Z</time>
      </trkpt>
      <trkpt lat="45.31708" lon="4.72875">
        <ele>403.60000610352</ele>
        <time>2022-03-04T12:45:58Z</time>
      </trkpt>
      <trkpt lat="45.31727" lon="4.729">
        <ele>404</ele>
        <time>2022-03-04T12:46:03Z</time>
      </trkpt>
      <trkpt lat="45.3174" lon="4.7291">
        <ele>404</ele>
        <time>2022-03-04T12:46:06Z</time>
      </trkpt>
      <trkpt lat="45.31754" lon="4.72924">
        <ele>404.20001220703</ele>
        <time>2022-03-04T12:46:09Z</time>
      </trkpt>
      <trkpt lat="45.31768" lon="4.72961">
        <ele>404.20001220703</ele>
        <time>2022-03-04T12:46:14Z</time>
      </trkpt>
      <trkpt lat="45.31803" lon="4.73074">
        <ele>401.39999389648</ele>
        <time>2022-03-04T12:46:27Z</time>
      </trkpt>
      <trkpt lat="45.31823" lon="4.73105">
        <ele>400</ele>
        <time>2022-03-04T12:46:31Z</time>
      </trkpt>
      <trkpt lat="45.31872" lon="4.73144">
        <ele>397</ele>
        <time>2022-03-04T12:46:39Z</time>
      </trkpt>
      <trkpt lat="45.31914" lon="4.73168">
        <ele>395</ele>
        <time>2022-03-04T12:46:45Z</time>
      </trkpt>
      <trkpt lat="45.31938" lon="4.73172">
        <ele>394</ele>
        <time>2022-03-04T12:46:48Z</time>
      </trkpt>
      <trkpt lat="45.32015" lon="4.73173">
        <ele>390.20001220703</ele>
        <time>2022-03-04T12:46:58Z</time>
      </trkpt>
      <trkpt lat="45.32022" lon="4.73173">
        <ele>390</ele>
        <time>2022-03-04T12:46:59Z</time>
      </trkpt>
      <trkpt lat="45.3208" lon="4.73184">
        <ele>389.79998779297</ele>
        <time>2022-03-04T12:47:09Z</time>
      </trkpt>
      <trkpt lat="45.32153" lon="4.73234">
        <ele>390.20001220703</ele>
        <time>2022-03-04T12:47:24Z</time>
      </trkpt>
      <trkpt lat="45.32192" lon="4.73244">
        <ele>390</ele>
        <time>2022-03-04T12:47:32Z</time>
      </trkpt>
      <trkpt lat="45.32202" lon="4.73243">
        <ele>390.20001220703</ele>
        <time>2022-03-04T12:47:34Z</time>
      </trkpt>
      <trkpt lat="45.32229" lon="4.73227">
        <ele>389.60000610352</ele>
        <time>2022-03-04T12:47:40Z</time>
      </trkpt>
      <trkpt lat="45.32277" lon="4.73176">
        <ele>389</ele>
        <time>2022-03-04T12:47:55Z</time>
      </trkpt>
      <trkpt lat="45.32334" lon="4.73115">
        <ele>391.39999389648</ele>
        <time>2022-03-04T12:48:14Z</time>
      </trkpt>
      <trkpt lat="45.32348" lon="4.73118">
        <ele>391.79998779297</ele>
        <time>2022-03-04T12:48:18Z</time>
      </trkpt>
      <trkpt lat="45.32411" lon="4.73135">
        <ele>391.79998779297</ele>
        <time>2022-03-04T12:48:30Z</time>
      </trkpt>
      <trkpt lat="45.32427" lon="4.73142">
        <ele>391.60000610352</ele>
        <time>2022-03-04T12:48:33Z</time>
      </trkpt>
      <trkpt lat="45.32472" lon="4.73137">
        <ele>391.60000610352</ele>
        <time>2022-03-04T12:48:42Z</time>
      </trkpt>
      <trkpt lat="45.32502" lon="4.73117">
        <ele>391.60000610352</ele>
        <time>2022-03-04T12:48:48Z</time>
      </trkpt>
      <trkpt lat="45.32522" lon="4.73073">
        <ele>390.60000610352</ele>
        <time>2022-03-04T12:48:54Z</time>
      </trkpt>
      <trkpt lat="45.32531" lon="4.73022">
        <ele>390</ele>
        <time>2022-03-04T12:49:00Z</time>
      </trkpt>
      <trkpt lat="45.32534" lon="4.72949">
        <ele>389.60000610352</ele>
        <time>2022-03-04T12:49:09Z</time>
      </trkpt>
      <trkpt lat="45.3257" lon="4.72925">
        <ele>389</ele>
        <time>2022-03-04T12:49:16Z</time>
      </trkpt>
      <trkpt lat="45.32576" lon="4.72924">
        <ele>388.79998779297</ele>
        <time>2022-03-04T12:49:17Z</time>
      </trkpt>
      <trkpt lat="45.32607" lon="4.72922">
        <ele>387</ele>
        <time>2022-03-04T12:49:22Z</time>
      </trkpt>
      <trkpt lat="45.32642" lon="4.72907">
        <ele>384.39999389648</ele>
        <time>2022-03-04T12:49:28Z</time>
      </trkpt>
      <trkpt lat="45.32654" lon="4.729">
        <ele>384</ele>
        <time>2022-03-04T12:49:30Z</time>
      </trkpt>
      <trkpt lat="45.32678" lon="4.72896">
        <ele>380.20001220703</ele>
        <time>2022-03-04T12:49:34Z</time>
      </trkpt>
      <trkpt lat="45.32684" lon="4.72897">
        <ele>380</ele>
        <time>2022-03-04T12:49:35Z</time>
      </trkpt>
      <trkpt lat="45.32702" lon="4.72897">
        <ele>377.60000610352</ele>
        <time>2022-03-04T12:49:39Z</time>
      </trkpt>
      <trkpt lat="45.32704" lon="4.72895">
        <ele>377.39999389648</ele>
        <time>2022-03-04T12:49:40Z</time>
      </trkpt>
      <trkpt lat="45.32709" lon="4.72882">
        <ele>373.79998779297</ele>
        <time>2022-03-04T12:49:43Z</time>
      </trkpt>
      <trkpt lat="45.32711" lon="4.72863">
        <ele>371.39999389648</ele>
        <time>2022-03-04T12:49:46Z</time>
      </trkpt>
      <trkpt lat="45.32732" lon="4.72748">
        <ele>371.39999389648</ele>
        <time>2022-03-04T12:50:03Z</time>
      </trkpt>
      <trkpt lat="45.32766" lon="4.72639">
        <ele>370.79998779297</ele>
        <time>2022-03-04T12:50:16Z</time>
      </trkpt>
      <trkpt lat="45.32784" lon="4.72632">
        <ele>370.20001220703</ele>
        <time>2022-03-04T12:50:20Z</time>
      </trkpt>
      <trkpt lat="45.32844" lon="4.72634">
        <ele>366.60000610352</ele>
        <time>2022-03-04T12:50:29Z</time>
      </trkpt>
      <trkpt lat="45.32873" lon="4.72636">
        <ele>365.20001220703</ele>
        <time>2022-03-04T12:50:33Z</time>
      </trkpt>
      <trkpt lat="45.32895" lon="4.7261">
        <ele>363.60000610352</ele>
        <time>2022-03-04T12:50:37Z</time>
      </trkpt>
      <trkpt lat="45.32897" lon="4.72599">
        <ele>363.20001220703</ele>
        <time>2022-03-04T12:50:38Z</time>
      </trkpt>
      <trkpt lat="45.329" lon="4.72589">
        <ele>362.79998779297</ele>
        <time>2022-03-04T12:50:39Z</time>
      </trkpt>
      <trkpt lat="45.32914" lon="4.72556">
        <ele>361</ele>
        <time>2022-03-04T12:50:43Z</time>
      </trkpt>
      <trkpt lat="45.32917" lon="4.72548">
        <ele>360.79998779297</ele>
        <time>2022-03-04T12:50:44Z</time>
      </trkpt>
      <trkpt lat="45.32925" lon="4.72534">
        <ele>359.79998779297</ele>
        <time>2022-03-04T12:50:46Z</time>
      </trkpt>
      <trkpt lat="45.32966" lon="4.72525">
        <ele>358.20001220703</ele>
        <time>2022-03-04T12:50:53Z</time>
      </trkpt>
      <trkpt lat="45.33006" lon="4.72536">
        <ele>356</ele>
        <time>2022-03-04T12:50:59Z</time>
      </trkpt>
      <trkpt lat="45.33013" lon="4.7254">
        <ele>355.79998779297</ele>
        <time>2022-03-04T12:51:00Z</time>
      </trkpt>
      <trkpt lat="45.33072" lon="4.7255">
        <ele>353.79998779297</ele>
        <time>2022-03-04T12:51:10Z</time>
      </trkpt>
      <trkpt lat="45.33067" lon="4.72509">
        <ele>352</ele>
        <time>2022-03-04T12:51:15Z</time>
      </trkpt>
      <trkpt lat="45.33049" lon="4.72464">
        <ele>350.60000610352</ele>
        <time>2022-03-04T12:51:20Z</time>
      </trkpt>
      <trkpt lat="45.3305" lon="4.72434">
        <ele>349.39999389648</ele>
        <time>2022-03-04T12:51:24Z</time>
      </trkpt>
      <trkpt lat="45.33079" lon="4.72307">
        <ele>351.20001220703</ele>
        <time>2022-03-04T12:51:42Z</time>
      </trkpt>
      <trkpt lat="45.33065" lon="4.72254">
        <ele>354.60000610352</ele>
        <time>2022-03-04T12:51:55Z</time>
      </trkpt>
      <trkpt lat="45.33064" lon="4.72249">
        <ele>354.79998779297</ele>
        <time>2022-03-04T12:51:56Z</time>
      </trkpt>
      <trkpt lat="45.33037" lon="4.72186">
        <ele>357.39999389648</ele>
        <time>2022-03-04T12:52:12Z</time>
      </trkpt>
      <trkpt lat="45.33021" lon="4.72131">
        <ele>360.39999389648</ele>
        <time>2022-03-04T12:52:25Z</time>
      </trkpt>
      <trkpt lat="45.33012" lon="4.72088">
        <ele>363.39999389648</ele>
        <time>2022-03-04T12:52:38Z</time>
      </trkpt>
      <trkpt lat="45.32995" lon="4.72039">
        <ele>365</ele>
        <time>2022-03-04T12:52:52Z</time>
      </trkpt>
      <trkpt lat="45.32963" lon="4.71992">
        <ele>368</ele>
        <time>2022-03-04T12:53:09Z</time>
      </trkpt>
      <trkpt lat="45.32933" lon="4.71949">
        <ele>370.60000610352</ele>
        <time>2022-03-04T12:53:23Z</time>
      </trkpt>
      <trkpt lat="45.32897" lon="4.71891">
        <ele>373.20001220703</ele>
        <time>2022-03-04T12:53:39Z</time>
      </trkpt>
      <trkpt lat="45.32906" lon="4.71838">
        <ele>375</ele>
        <time>2022-03-04T12:53:50Z</time>
      </trkpt>
      <trkpt lat="45.32922" lon="4.7177">
        <ele>378</ele>
        <time>2022-03-04T12:54:04Z</time>
      </trkpt>
      <trkpt lat="45.32934" lon="4.71685">
        <ele>379.60000610352</ele>
        <time>2022-03-04T12:54:17Z</time>
      </trkpt>
      <trkpt lat="45.32923" lon="4.71621">
        <ele>379</ele>
        <time>2022-03-04T12:54:26Z</time>
      </trkpt>
      <trkpt lat="45.32909" lon="4.71592">
        <ele>378.60000610352</ele>
        <time>2022-03-04T12:54:30Z</time>
      </trkpt>
      <trkpt lat="45.32912" lon="4.71546">
        <ele>376.60000610352</ele>
        <time>2022-03-04T12:54:36Z</time>
      </trkpt>
      <trkpt lat="45.32917" lon="4.71528">
        <ele>375.79998779297</ele>
        <time>2022-03-04T12:54:38Z</time>
      </trkpt>
      <trkpt lat="45.32921" lon="4.71512">
        <ele>375.39999389648</ele>
        <time>2022-03-04T12:54:40Z</time>
      </trkpt>
      <trkpt lat="45.32942" lon="4.71474">
        <ele>376</ele>
        <time>2022-03-04T12:54:49Z</time>
      </trkpt>
      <trkpt lat="45.32963" lon="4.71456">
        <ele>378.39999389648</ele>
        <time>2022-03-04T12:54:57Z</time>
      </trkpt>
      <trkpt lat="45.33006" lon="4.71425">
        <ele>381.39999389648</ele>
        <time>2022-03-04T12:55:12Z</time>
      </trkpt>
      <trkpt lat="45.33042" lon="4.7139">
        <ele>383.79998779297</ele>
        <time>2022-03-04T12:55:24Z</time>
      </trkpt>
      <trkpt lat="45.3308" lon="4.71363">
        <ele>386.20001220703</ele>
        <time>2022-03-04T12:55:36Z</time>
      </trkpt>
      <trkpt lat="45.33135" lon="4.71338">
        <ele>389</ele>
        <time>2022-03-04T12:55:51Z</time>
      </trkpt>
      <trkpt lat="45.33146" lon="4.71332">
        <ele>389.39999389648</ele>
        <time>2022-03-04T12:55:54Z</time>
      </trkpt>
      <trkpt lat="45.33172" lon="4.71313">
        <ele>389.79998779297</ele>
        <time>2022-03-04T12:56:01Z</time>
      </trkpt>
      <trkpt lat="45.33216" lon="4.71254">
        <ele>391.39999389648</ele>
        <time>2022-03-04T12:56:15Z</time>
      </trkpt>
      <trkpt lat="45.33242" lon="4.71219">
        <ele>392</ele>
        <time>2022-03-04T12:56:25Z</time>
      </trkpt>
      <trkpt lat="45.33283" lon="4.71277">
        <ele>392.60000610352</ele>
        <time>2022-03-04T12:56:39Z</time>
      </trkpt>
      <trkpt lat="45.33381" lon="4.71407">
        <ele>389.39999389648</ele>
        <time>2022-03-04T12:57:01Z</time>
      </trkpt>
      <trkpt lat="45.33396" lon="4.71427">
        <ele>388.79998779297</ele>
        <time>2022-03-04T12:57:04Z</time>
      </trkpt>
      <trkpt lat="45.3342" lon="4.71475">
        <ele>387.60000610352</ele>
        <time>2022-03-04T12:57:10Z</time>
      </trkpt>
      <trkpt lat="45.33424" lon="4.71484">
        <ele>387.39999389648</ele>
        <time>2022-03-04T12:57:11Z</time>
      </trkpt>
      <trkpt lat="45.33462" lon="4.7156">
        <ele>385</ele>
        <time>2022-03-04T12:57:20Z</time>
      </trkpt>
      <trkpt lat="45.33551" lon="4.71708">
        <ele>381.60000610352</ele>
        <time>2022-03-04T12:57:40Z</time>
      </trkpt>
      <trkpt lat="45.33557" lon="4.7171">
        <ele>381.39999389648</ele>
        <time>2022-03-04T12:57:41Z</time>
      </trkpt>
      <trkpt lat="45.33565" lon="4.7169">
        <ele>380</ele>
        <time>2022-03-04T12:57:45Z</time>
      </trkpt>
      <trkpt lat="45.33567" lon="4.71512">
        <ele>380.60000610352</ele>
        <time>2022-03-04T12:58:09Z</time>
      </trkpt>
      <trkpt lat="45.3357" lon="4.71456">
        <ele>383.60000610352</ele>
        <time>2022-03-04T12:58:18Z</time>
      </trkpt>
      <trkpt lat="45.33573" lon="4.71435">
        <ele>384.60000610352</ele>
        <time>2022-03-04T12:58:22Z</time>
      </trkpt>
      <trkpt lat="45.33581" lon="4.71424">
        <ele>385.20001220703</ele>
        <time>2022-03-04T12:58:27Z</time>
      </trkpt>
      <trkpt lat="45.33583" lon="4.71419">
        <ele>385.20001220703</ele>
        <time>2022-03-04T12:58:28Z</time>
      </trkpt>
      <trkpt lat="45.33588" lon="4.71402">
        <ele>385.39999389648</ele>
        <time>2022-03-04T12:58:31Z</time>
      </trkpt>
      <trkpt lat="45.33595" lon="4.71384">
        <ele>385.79998779297</ele>
        <time>2022-03-04T12:58:34Z</time>
      </trkpt>
      <trkpt lat="45.33623" lon="4.71346">
        <ele>387</ele>
        <time>2022-03-04T12:58:44Z</time>
      </trkpt>
      <trkpt lat="45.33636" lon="4.71305">
        <ele>390</ele>
        <time>2022-03-04T12:58:55Z</time>
      </trkpt>
      <trkpt lat="45.33644" lon="4.71257">
        <ele>393</ele>
        <time>2022-03-04T12:59:08Z</time>
      </trkpt>
      <trkpt lat="45.33654" lon="4.71192">
        <ele>395.79998779297</ele>
        <time>2022-03-04T12:59:25Z</time>
      </trkpt>
      <trkpt lat="45.33658" lon="4.71178">
        <ele>396.60000610352</ele>
        <time>2022-03-04T12:59:29Z</time>
      </trkpt>
      <trkpt lat="45.33666" lon="4.71177">
        <ele>397.60000610352</ele>
        <time>2022-03-04T12:59:33Z</time>
      </trkpt>
      <trkpt lat="45.33717" lon="4.71198">
        <ele>398.79998779297</ele>
        <time>2022-03-04T12:59:45Z</time>
      </trkpt>
      <trkpt lat="45.33763" lon="4.71202">
        <ele>398.39999389648</ele>
        <time>2022-03-04T12:59:53Z</time>
      </trkpt>
      <trkpt lat="45.33817" lon="4.71198">
        <ele>398.79998779297</ele>
        <time>2022-03-04T13:00:05Z</time>
      </trkpt>
      <trkpt lat="45.33871" lon="4.71189">
        <ele>401.60000610352</ele>
        <time>2022-03-04T13:00:22Z</time>
      </trkpt>
      <trkpt lat="45.33901" lon="4.71195">
        <ele>403.79998779297</ele>
        <time>2022-03-04T13:00:34Z</time>
      </trkpt>
      <trkpt lat="45.33923" lon="4.71212">
        <ele>406.79998779297</ele>
        <time>2022-03-04T13:00:44Z</time>
      </trkpt>
      <trkpt lat="45.33959" lon="4.7123">
        <ele>408</ele>
        <time>2022-03-04T13:00:55Z</time>
      </trkpt>
      <trkpt lat="45.34015" lon="4.71244">
        <ele>408.79998779297</ele>
        <time>2022-03-04T13:01:08Z</time>
      </trkpt>
      <trkpt lat="45.34102" lon="4.71248">
        <ele>408.79998779297</ele>
        <time>2022-03-04T13:01:26Z</time>
      </trkpt>
      <trkpt lat="45.342" lon="4.71267">
        <ele>409.20001220703</ele>
        <time>2022-03-04T13:01:46Z</time>
      </trkpt>
      <trkpt lat="45.34279" lon="4.71259">
        <ele>408.79998779297</ele>
        <time>2022-03-04T13:02:00Z</time>
      </trkpt>
      <trkpt lat="45.34379" lon="4.71214">
        <ele>408.60000610352</ele>
        <time>2022-03-04T13:02:20Z</time>
      </trkpt>
      <trkpt lat="45.34491" lon="4.7113">
        <ele>408.20001220703</ele>
        <time>2022-03-04T13:02:43Z</time>
      </trkpt>
      <trkpt lat="45.34497" lon="4.71124">
        <ele>408</ele>
        <time>2022-03-04T13:02:44Z</time>
      </trkpt>
      <trkpt lat="45.34527" lon="4.71077">
        <ele>406.39999389648</ele>
        <time>2022-03-04T13:02:50Z</time>
      </trkpt>
      <trkpt lat="45.3454" lon="4.71064">
        <ele>405.39999389648</ele>
        <time>2022-03-04T13:02:52Z</time>
      </trkpt>
      <trkpt lat="45.34591" lon="4.71017">
        <ele>402.79998779297</ele>
        <time>2022-03-04T13:03:00Z</time>
      </trkpt>
      <trkpt lat="45.34602" lon="4.7101">
        <ele>402</ele>
        <time>2022-03-04T13:03:02Z</time>
      </trkpt>
      <trkpt lat="45.34613" lon="4.7099">
        <ele>399.79998779297</ele>
        <time>2022-03-04T13:03:06Z</time>
      </trkpt>
      <trkpt lat="45.34632" lon="4.7095">
        <ele>397.79998779297</ele>
        <time>2022-03-04T13:03:13Z</time>
      </trkpt>
      <trkpt lat="45.34652" lon="4.70837">
        <ele>394.79998779297</ele>
        <time>2022-03-04T13:03:24Z</time>
      </trkpt>
      <trkpt lat="45.34658" lon="4.70799">
        <ele>393</ele>
        <time>2022-03-04T13:03:27Z</time>
      </trkpt>
      <trkpt lat="45.34671" lon="4.7077">
        <ele>389.79998779297</ele>
        <time>2022-03-04T13:03:30Z</time>
      </trkpt>
      <trkpt lat="45.34684" lon="4.70757">
        <ele>388.39999389648</ele>
        <time>2022-03-04T13:03:32Z</time>
      </trkpt>
      <trkpt lat="45.34733" lon="4.70718">
        <ele>383.60000610352</ele>
        <time>2022-03-04T13:03:38Z</time>
      </trkpt>
      <trkpt lat="45.34767" lon="4.70685">
        <ele>379.60000610352</ele>
        <time>2022-03-04T13:03:42Z</time>
      </trkpt>
      <trkpt lat="45.34789" lon="4.70661">
        <ele>376.20001220703</ele>
        <time>2022-03-04T13:03:45Z</time>
      </trkpt>
      <trkpt lat="45.34829" lon="4.70621">
        <ele>373.20001220703</ele>
        <time>2022-03-04T13:03:51Z</time>
      </trkpt>
      <trkpt lat="45.34854" lon="4.70597">
        <ele>369.60000610352</ele>
        <time>2022-03-04T13:03:55Z</time>
      </trkpt>
      <trkpt lat="45.34874" lon="4.70575">
        <ele>365</ele>
        <time>2022-03-04T13:03:58Z</time>
      </trkpt>
      <trkpt lat="45.34925" lon="4.70522">
        <ele>360.79998779297</ele>
        <time>2022-03-04T13:04:06Z</time>
      </trkpt>
      <trkpt lat="45.34936" lon="4.70513">
        <ele>359.20001220703</ele>
        <time>2022-03-04T13:04:08Z</time>
      </trkpt>
      <trkpt lat="45.34951" lon="4.70511">
        <ele>356.20001220703</ele>
        <time>2022-03-04T13:04:11Z</time>
      </trkpt>
      <trkpt lat="45.3496" lon="4.70519">
        <ele>352.79998779297</ele>
        <time>2022-03-04T13:04:13Z</time>
      </trkpt>
      <trkpt lat="45.34967" lon="4.70538">
        <ele>350.60000610352</ele>
        <time>2022-03-04T13:04:16Z</time>
      </trkpt>
      <trkpt lat="45.34968" lon="4.70543">
        <ele>350</ele>
        <time>2022-03-04T13:04:17Z</time>
      </trkpt>
      <trkpt lat="45.34969" lon="4.70547">
        <ele>349.79998779297</ele>
        <time>2022-03-04T13:04:18Z</time>
      </trkpt>
      <trkpt lat="45.34972" lon="4.70535">
        <ele>348.39999389648</ele>
        <time>2022-03-04T13:04:22Z</time>
      </trkpt>
      <trkpt lat="45.34967" lon="4.70498">
        <ele>347.20001220703</ele>
        <time>2022-03-04T13:04:26Z</time>
      </trkpt>
      <trkpt lat="45.34955" lon="4.70462">
        <ele>345</ele>
        <time>2022-03-04T13:04:30Z</time>
      </trkpt>
      <trkpt lat="45.34968" lon="4.70458">
        <ele>342</ele>
        <time>2022-03-04T13:04:34Z</time>
      </trkpt>
      <trkpt lat="45.34972" lon="4.70465">
        <ele>340.60000610352</ele>
        <time>2022-03-04T13:04:35Z</time>
      </trkpt>
      <trkpt lat="45.34978" lon="4.70476">
        <ele>339.39999389648</ele>
        <time>2022-03-04T13:04:37Z</time>
      </trkpt>
      <trkpt lat="45.3499" lon="4.7046">
        <ele>335.79998779297</ele>
        <time>2022-03-04T13:04:42Z</time>
      </trkpt>
      <trkpt lat="45.34987" lon="4.70427">
        <ele>333.20001220703</ele>
        <time>2022-03-04T13:04:45Z</time>
      </trkpt>
      <trkpt lat="45.34984" lon="4.7037">
        <ele>330.20001220703</ele>
        <time>2022-03-04T13:04:49Z</time>
      </trkpt>
      <trkpt lat="45.34989" lon="4.70334">
        <ele>327.60000610352</ele>
        <time>2022-03-04T13:04:52Z</time>
      </trkpt>
      <trkpt lat="45.34987" lon="4.70286">
        <ele>325</ele>
        <time>2022-03-04T13:04:59Z</time>
      </trkpt>
      <trkpt lat="45.34999" lon="4.70287">
        <ele>328</ele>
        <time>2022-03-04T13:05:05Z</time>
      </trkpt>
      <trkpt lat="45.35011" lon="4.70302">
        <ele>331</ele>
        <time>2022-03-04T13:05:10Z</time>
      </trkpt>
      <trkpt lat="45.35014" lon="4.70305">
        <ele>331.20001220703</ele>
        <time>2022-03-04T13:05:11Z</time>
      </trkpt>
      <trkpt lat="45.35024" lon="4.70311">
        <ele>332</ele>
        <time>2022-03-04T13:05:14Z</time>
      </trkpt>
      <trkpt lat="45.3503" lon="4.703">
        <ele>333.39999389648</ele>
        <time>2022-03-04T13:05:18Z</time>
      </trkpt>
      <trkpt lat="45.35026" lon="4.70282">
        <ele>335.39999389648</ele>
        <time>2022-03-04T13:05:24Z</time>
      </trkpt>
      <trkpt lat="45.35027" lon="4.70238">
        <ele>338.39999389648</ele>
        <time>2022-03-04T13:05:37Z</time>
      </trkpt>
      <trkpt lat="45.35036" lon="4.70205">
        <ele>340.79998779297</ele>
        <time>2022-03-04T13:05:49Z</time>
      </trkpt>
      <trkpt lat="45.35047" lon="4.70179">
        <ele>343.79998779297</ele>
        <time>2022-03-04T13:06:00Z</time>
      </trkpt>
      <trkpt lat="45.35062" lon="4.7016">
        <ele>347</ele>
        <time>2022-03-04T13:06:11Z</time>
      </trkpt>
      <trkpt lat="45.35083" lon="4.70134">
        <ele>349.39999389648</ele>
        <time>2022-03-04T13:06:24Z</time>
      </trkpt>
      <trkpt lat="45.35111" lon="4.70105">
        <ele>352.39999389648</ele>
        <time>2022-03-04T13:06:38Z</time>
      </trkpt>
      <trkpt lat="45.35127" lon="4.70073">
        <ele>355</ele>
        <time>2022-03-04T13:06:50Z</time>
      </trkpt>
      <trkpt lat="45.35135" lon="4.70033">
        <ele>358.20001220703</ele>
        <time>2022-03-04T13:07:04Z</time>
      </trkpt>
      <trkpt lat="45.35144" lon="4.70006">
        <ele>361.79998779297</ele>
        <time>2022-03-04T13:07:13Z</time>
      </trkpt>
      <trkpt lat="45.35145" lon="4.70003">
        <ele>362</ele>
        <time>2022-03-04T13:07:14Z</time>
      </trkpt>
      <trkpt lat="45.3516" lon="4.69972">
        <ele>365</ele>
        <time>2022-03-04T13:07:26Z</time>
      </trkpt>
      <trkpt lat="45.35169" lon="4.69956">
        <ele>366.39999389648</ele>
        <time>2022-03-04T13:07:33Z</time>
      </trkpt>
      <trkpt lat="45.35174" lon="4.69944">
        <ele>368.39999389648</ele>
        <time>2022-03-04T13:07:38Z</time>
      </trkpt>
      <trkpt lat="45.35177" lon="4.69937">
        <ele>369.20001220703</ele>
        <time>2022-03-04T13:07:41Z</time>
      </trkpt>
      <trkpt lat="45.3519" lon="4.69909">
        <ele>371</ele>
        <time>2022-03-04T13:07:52Z</time>
      </trkpt>
      <trkpt lat="45.35207" lon="4.69869">
        <ele>374.20001220703</ele>
        <time>2022-03-04T13:08:06Z</time>
      </trkpt>
      <trkpt lat="45.3522" lon="4.69846">
        <ele>377.20001220703</ele>
        <time>2022-03-04T13:08:15Z</time>
      </trkpt>
      <trkpt lat="45.35235" lon="4.69822">
        <ele>380.20001220703</ele>
        <time>2022-03-04T13:08:27Z</time>
      </trkpt>
      <trkpt lat="45.3525" lon="4.69805">
        <ele>383.39999389648</ele>
        <time>2022-03-04T13:08:38Z</time>
      </trkpt>
      <trkpt lat="45.3526" lon="4.69782">
        <ele>386.39999389648</ele>
        <time>2022-03-04T13:08:50Z</time>
      </trkpt>
      <trkpt lat="45.35269" lon="4.69761">
        <ele>389.39999389648</ele>
        <time>2022-03-04T13:09:00Z</time>
      </trkpt>
      <trkpt lat="45.35273" lon="4.69714">
        <ele>390.39999389648</ele>
        <time>2022-03-04T13:09:14Z</time>
      </trkpt>
      <trkpt lat="45.35239" lon="4.69652">
        <ele>392.20001220703</ele>
        <time>2022-03-04T13:09:29Z</time>
      </trkpt>
      <trkpt lat="45.3521" lon="4.69618">
        <ele>395.20001220703</ele>
        <time>2022-03-04T13:09:43Z</time>
      </trkpt>
      <trkpt lat="45.352" lon="4.69621">
        <ele>396.79998779297</ele>
        <time>2022-03-04T13:09:47Z</time>
      </trkpt>
      <trkpt lat="45.3519" lon="4.69624">
        <ele>397.79998779297</ele>
        <time>2022-03-04T13:09:51Z</time>
      </trkpt>
      <trkpt lat="45.35173" lon="4.69612">
        <ele>400.79998779297</ele>
        <time>2022-03-04T13:09:59Z</time>
      </trkpt>
      <trkpt lat="45.35152" lon="4.69603">
        <ele>403.79998779297</ele>
        <time>2022-03-04T13:10:09Z</time>
      </trkpt>
      <trkpt lat="45.35156" lon="4.69584">
        <ele>405.39999389648</ele>
        <time>2022-03-04T13:10:18Z</time>
      </trkpt>
      <trkpt lat="45.3517" lon="4.69547">
        <ele>407.79998779297</ele>
        <time>2022-03-04T13:10:33Z</time>
      </trkpt>
      <trkpt lat="45.3519" lon="4.69523">
        <ele>409.39999389648</ele>
        <time>2022-03-04T13:10:44Z</time>
      </trkpt>
      <trkpt lat="45.35213" lon="4.6947">
        <ele>411.79998779297</ele>
        <time>2022-03-04T13:10:57Z</time>
      </trkpt>
      <trkpt lat="45.35254" lon="4.69382">
        <ele>412.20001220703</ele>
        <time>2022-03-04T13:11:13Z</time>
      </trkpt>
      <trkpt lat="45.35299" lon="4.69289">
        <ele>410.79998779297</ele>
        <time>2022-03-04T13:11:27Z</time>
      </trkpt>
      <trkpt lat="45.35339" lon="4.69156">
        <ele>410.20001220703</ele>
        <time>2022-03-04T13:11:43Z</time>
      </trkpt>
      <trkpt lat="45.3535" lon="4.69085">
        <ele>410.20001220703</ele>
        <time>2022-03-04T13:11:52Z</time>
      </trkpt>
      <trkpt lat="45.35381" lon="4.69027">
        <ele>410.79998779297</ele>
        <time>2022-03-04T13:12:01Z</time>
      </trkpt>
      <trkpt lat="45.35411" lon="4.68987">
        <ele>410.20001220703</ele>
        <time>2022-03-04T13:12:08Z</time>
      </trkpt>
      <trkpt lat="45.35448" lon="4.68935">
        <ele>408.20001220703</ele>
        <time>2022-03-04T13:12:16Z</time>
      </trkpt>
      <trkpt lat="45.35487" lon="4.68894">
        <ele>406.20001220703</ele>
        <time>2022-03-04T13:12:23Z</time>
      </trkpt>
      <trkpt lat="45.35491" lon="4.6889">
        <ele>405.20001220703</ele>
        <time>2022-03-04T13:12:24Z</time>
      </trkpt>
      <trkpt lat="45.35497" lon="4.6888">
        <ele>404.20001220703</ele>
        <time>2022-03-04T13:12:26Z</time>
      </trkpt>
      <trkpt lat="45.35499" lon="4.68866">
        <ele>403</ele>
        <time>2022-03-04T13:12:28Z</time>
      </trkpt>
      <trkpt lat="45.35522" lon="4.6872">
        <ele>402.20001220703</ele>
        <time>2022-03-04T13:12:49Z</time>
      </trkpt>
      <trkpt lat="45.35538" lon="4.68672">
        <ele>402.79998779297</ele>
        <time>2022-03-04T13:12:56Z</time>
      </trkpt>
      <trkpt lat="45.35549" lon="4.68645">
        <ele>402.79998779297</ele>
        <time>2022-03-04T13:13:00Z</time>
      </trkpt>
      <trkpt lat="45.35569" lon="4.68544">
        <ele>403.79998779297</ele>
        <time>2022-03-04T13:13:14Z</time>
      </trkpt>
      <trkpt lat="45.35568" lon="4.68529">
        <ele>403.79998779297</ele>
        <time>2022-03-04T13:13:16Z</time>
      </trkpt>
      <trkpt lat="45.35563" lon="4.68487">
        <ele>404.20001220703</ele>
        <time>2022-03-04T13:13:24Z</time>
      </trkpt>
      <trkpt lat="45.35571" lon="4.68404">
        <ele>405.20001220703</ele>
        <time>2022-03-04T13:13:37Z</time>
      </trkpt>
      <trkpt lat="45.35593" lon="4.68288">
        <ele>407.20001220703</ele>
        <time>2022-03-04T13:13:58Z</time>
      </trkpt>
      <trkpt lat="45.35605" lon="4.68232">
        <ele>409.60000610352</ele>
        <time>2022-03-04T13:14:11Z</time>
      </trkpt>
      <trkpt lat="45.35628" lon="4.68168">
        <ele>412</ele>
        <time>2022-03-04T13:14:25Z</time>
      </trkpt>
      <trkpt lat="45.35644" lon="4.68126">
        <ele>415</ele>
        <time>2022-03-04T13:14:36Z</time>
      </trkpt>
      <trkpt lat="45.35664" lon="4.68063">
        <ele>417.60000610352</ele>
        <time>2022-03-04T13:14:52Z</time>
      </trkpt>
      <trkpt lat="45.3568" lon="4.68001">
        <ele>419.60000610352</ele>
        <time>2022-03-04T13:15:09Z</time>
      </trkpt>
      <trkpt lat="45.35687" lon="4.67966">
        <ele>423.20001220703</ele>
        <time>2022-03-04T13:15:20Z</time>
      </trkpt>
      <trkpt lat="45.35702" lon="4.67908">
        <ele>425.39999389648</ele>
        <time>2022-03-04T13:15:35Z</time>
      </trkpt>
      <trkpt lat="45.35732" lon="4.67847">
        <ele>428.20001220703</ele>
        <time>2022-03-04T13:15:52Z</time>
      </trkpt>
      <trkpt lat="45.35756" lon="4.67768">
        <ele>428.79998779297</ele>
        <time>2022-03-04T13:16:10Z</time>
      </trkpt>
      <trkpt lat="45.35775" lon="4.67708">
        <ele>430.60000610352</ele>
        <time>2022-03-04T13:16:26Z</time>
      </trkpt>
      <trkpt lat="45.35781" lon="4.67695">
        <ele>431.60000610352</ele>
        <time>2022-03-04T13:16:32Z</time>
      </trkpt>
      <trkpt lat="45.35782" lon="4.67687">
        <ele>432.20001220703</ele>
        <time>2022-03-04T13:16:36Z</time>
      </trkpt>
      <trkpt lat="45.35796" lon="4.67645">
        <ele>434.20001220703</ele>
        <time>2022-03-04T13:16:50Z</time>
      </trkpt>
      <trkpt lat="45.35805" lon="4.67608">
        <ele>437.20001220703</ele>
        <time>2022-03-04T13:17:04Z</time>
      </trkpt>
      <trkpt lat="45.35821" lon="4.67566">
        <ele>439.79998779297</ele>
        <time>2022-03-04T13:17:19Z</time>
      </trkpt>
      <trkpt lat="45.3583" lon="4.67515">
        <ele>442.79998779297</ele>
        <time>2022-03-04T13:17:34Z</time>
      </trkpt>
      <trkpt lat="45.35844" lon="4.67454">
        <ele>445.60000610352</ele>
        <time>2022-03-04T13:17:52Z</time>
      </trkpt>
      <trkpt lat="45.35867" lon="4.67412">
        <ele>447.39999389648</ele>
        <time>2022-03-04T13:18:07Z</time>
      </trkpt>
      <trkpt lat="45.35888" lon="4.67386">
        <ele>450.60000610352</ele>
        <time>2022-03-04T13:18:18Z</time>
      </trkpt>
      <trkpt lat="45.3593" lon="4.67342">
        <ele>451.60000610352</ele>
        <time>2022-03-04T13:18:37Z</time>
      </trkpt>
      <trkpt lat="45.35954" lon="4.67305">
        <ele>454.60000610352</ele>
        <time>2022-03-04T13:18:52Z</time>
      </trkpt>
      <trkpt lat="45.35969" lon="4.67275">
        <ele>457.60000610352</ele>
        <time>2022-03-04T13:19:03Z</time>
      </trkpt>
      <trkpt lat="45.35985" lon="4.67242">
        <ele>459.60000610352</ele>
        <time>2022-03-04T13:19:16Z</time>
      </trkpt>
      <trkpt lat="45.36011" lon="4.67199">
        <ele>462</ele>
        <time>2022-03-04T13:19:33Z</time>
      </trkpt>
      <trkpt lat="45.36037" lon="4.67154">
        <ele>465</ele>
        <time>2022-03-04T13:19:48Z</time>
      </trkpt>
      <trkpt lat="45.36031" lon="4.67106">
        <ele>466.39999389648</ele>
        <time>2022-03-04T13:20:01Z</time>
      </trkpt>
      <trkpt lat="45.36024" lon="4.67045">
        <ele>468.20001220703</ele>
        <time>2022-03-04T13:20:14Z</time>
      </trkpt>
      <trkpt lat="45.36025" lon="4.67004">
        <ele>467.39999389648</ele>
        <time>2022-03-04T13:20:20Z</time>
      </trkpt>
      <trkpt lat="45.36027" lon="4.66956">
        <ele>466.39999389648</ele>
        <time>2022-03-04T13:20:27Z</time>
      </trkpt>
      <trkpt lat="45.36015" lon="4.66935">
        <ele>465.79998779297</ele>
        <time>2022-03-04T13:20:32Z</time>
      </trkpt>
      <trkpt lat="45.35981" lon="4.66937">
        <ele>465.39999389648</ele>
        <time>2022-03-04T13:20:43Z</time>
      </trkpt>
      <trkpt lat="45.35967" lon="4.66938">
        <ele>467.79998779297</ele>
        <time>2022-03-04T13:20:49Z</time>
      </trkpt>
      <trkpt lat="45.35945" lon="4.66933">
        <ele>468.60000610352</ele>
        <time>2022-03-04T13:20:56Z</time>
      </trkpt>
      <trkpt lat="45.35931" lon="4.66934">
        <ele>469.60000610352</ele>
        <time>2022-03-04T13:20:59Z</time>
      </trkpt>
      <trkpt lat="45.35848" lon="4.66924">
        <ele>467.39999389648</ele>
        <time>2022-03-04T13:21:14Z</time>
      </trkpt>
      <trkpt lat="45.35837" lon="4.66921">
        <ele>467</ele>
        <time>2022-03-04T13:21:16Z</time>
      </trkpt>
      <trkpt lat="45.3577" lon="4.6691">
        <ele>466.39999389648</ele>
        <time>2022-03-04T13:21:28Z</time>
      </trkpt>
      <trkpt lat="45.35721" lon="4.66908">
        <ele>463.20001220703</ele>
        <time>2022-03-04T13:21:35Z</time>
      </trkpt>
      <trkpt lat="45.35714" lon="4.66907">
        <ele>462.79998779297</ele>
        <time>2022-03-04T13:21:36Z</time>
      </trkpt>
      <trkpt lat="45.35675" lon="4.66874">
        <ele>462.20001220703</ele>
        <time>2022-03-04T13:21:43Z</time>
      </trkpt>
      <trkpt lat="45.35609" lon="4.66825">
        <ele>461.79998779297</ele>
        <time>2022-03-04T13:21:58Z</time>
      </trkpt>
      <trkpt lat="45.35581" lon="4.668">
        <ele>461.20001220703</ele>
        <time>2022-03-04T13:22:05Z</time>
      </trkpt>
      <trkpt lat="45.35577" lon="4.66793">
        <ele>460.79998779297</ele>
        <time>2022-03-04T13:22:07Z</time>
      </trkpt>
      <trkpt lat="45.35583" lon="4.66784">
        <ele>460.60000610352</ele>
        <time>2022-03-04T13:22:12Z</time>
      </trkpt>
      <trkpt lat="45.35611" lon="4.66751">
        <ele>464.39999389648</ele>
        <time>2022-03-04T13:22:29Z</time>
      </trkpt>
      <trkpt lat="45.35617" lon="4.66744">
        <ele>465.20001220703</ele>
        <time>2022-03-04T13:22:33Z</time>
      </trkpt>
      <trkpt lat="45.35634" lon="4.66722">
        <ele>467.39999389648</ele>
        <time>2022-03-04T13:22:47Z</time>
      </trkpt>
      <trkpt lat="45.35651" lon="4.667">
        <ele>469</ele>
        <time>2022-03-04T13:22:59Z</time>
      </trkpt>
      <trkpt lat="45.35664" lon="4.66681">
        <ele>472</ele>
        <time>2022-03-04T13:23:12Z</time>
      </trkpt>
      <trkpt lat="45.35676" lon="4.66663">
        <ele>475</ele>
        <time>2022-03-04T13:23:24Z</time>
      </trkpt>
      <trkpt lat="45.35682" lon="4.66657">
        <ele>475.39999389648</ele>
        <time>2022-03-04T13:23:28Z</time>
      </trkpt>
      <trkpt lat="45.35682" lon="4.66648">
        <ele>476</ele>
        <time>2022-03-04T13:23:33Z</time>
      </trkpt>
      <trkpt lat="45.35681" lon="4.66646">
        <ele>476.39999389648</ele>
        <time>2022-03-04T13:23:34Z</time>
      </trkpt>
      <trkpt lat="45.35674" lon="4.66639">
        <ele>477.20001220703</ele>
        <time>2022-03-04T13:23:39Z</time>
      </trkpt>
      <trkpt lat="45.35652" lon="4.66604">
        <ele>478.79998779297</ele>
        <time>2022-03-04T13:23:53Z</time>
      </trkpt>
      <trkpt lat="45.35648" lon="4.66593">
        <ele>478.79998779297</ele>
        <time>2022-03-04T13:23:56Z</time>
      </trkpt>
      <trkpt lat="45.35655" lon="4.6658">
        <ele>479.39999389648</ele>
        <time>2022-03-04T13:24:02Z</time>
      </trkpt>
      <trkpt lat="45.35681" lon="4.66555">
        <ele>482</ele>
        <time>2022-03-04T13:24:19Z</time>
      </trkpt>
      <trkpt lat="45.35707" lon="4.66526">
        <ele>483.60000610352</ele>
        <time>2022-03-04T13:24:38Z</time>
      </trkpt>
      <trkpt lat="45.35708" lon="4.66524">
        <ele>483.79998779297</ele>
        <time>2022-03-04T13:24:39Z</time>
      </trkpt>
      <trkpt lat="45.35701" lon="4.66509">
        <ele>485.20001220703</ele>
        <time>2022-03-04T13:24:46Z</time>
      </trkpt>
      <trkpt lat="45.35671" lon="4.66481">
        <ele>486.60000610352</ele>
        <time>2022-03-04T13:25:01Z</time>
      </trkpt>
      <trkpt lat="45.35668" lon="4.66477">
        <ele>486.60000610352</ele>
        <time>2022-03-04T13:25:03Z</time>
      </trkpt>
      <trkpt lat="45.35648" lon="4.66455">
        <ele>486.39999389648</ele>
        <time>2022-03-04T13:25:14Z</time>
      </trkpt>
      <trkpt lat="45.35645" lon="4.66452">
        <ele>486.60000610352</ele>
        <time>2022-03-04T13:25:16Z</time>
      </trkpt>
      <trkpt lat="45.35615" lon="4.66429">
        <ele>487.39999389648</ele>
        <time>2022-03-04T13:25:32Z</time>
      </trkpt>
      <trkpt lat="45.35612" lon="4.66412">
        <ele>487.79998779297</ele>
        <time>2022-03-04T13:25:37Z</time>
      </trkpt>
      <trkpt lat="45.35612" lon="4.66392">
        <ele>488.20001220703</ele>
        <time>2022-03-04T13:25:42Z</time>
      </trkpt>
      <trkpt lat="45.35613" lon="4.66352">
        <ele>488.20001220703</ele>
        <time>2022-03-04T13:25:52Z</time>
      </trkpt>
      <trkpt lat="45.35612" lon="4.66341">
        <ele>488.39999389648</ele>
        <time>2022-03-04T13:25:55Z</time>
      </trkpt>
      <trkpt lat="45.35612" lon="4.66329">
        <ele>489</ele>
        <time>2022-03-04T13:25:59Z</time>
      </trkpt>
      <trkpt lat="45.35613" lon="4.6631">
        <ele>489.60000610352</ele>
        <time>2022-03-04T13:26:05Z</time>
      </trkpt>
      <trkpt lat="45.35623" lon="4.66302">
        <ele>490</ele>
        <time>2022-03-04T13:26:10Z</time>
      </trkpt>
      <trkpt lat="45.35648" lon="4.66303">
        <ele>492.20001220703</ele>
        <time>2022-03-04T13:26:23Z</time>
      </trkpt>
      <trkpt lat="45.35677" lon="4.66316">
        <ele>492.79998779297</ele>
        <time>2022-03-04T13:26:36Z</time>
      </trkpt>
      <trkpt lat="45.35707" lon="4.66324">
        <ele>495.39999389648</ele>
        <time>2022-03-04T13:26:52Z</time>
      </trkpt>
      <trkpt lat="45.35737" lon="4.66317">
        <ele>497.60000610352</ele>
        <time>2022-03-04T13:27:06Z</time>
      </trkpt>
      <trkpt lat="45.35772" lon="4.66328">
        <ele>498</ele>
        <time>2022-03-04T13:27:21Z</time>
      </trkpt>
      <trkpt lat="45.35787" lon="4.66336">
        <ele>498</ele>
        <time>2022-03-04T13:27:27Z</time>
      </trkpt>
      <trkpt lat="45.35809" lon="4.66317">
        <ele>499.39999389648</ele>
        <time>2022-03-04T13:27:39Z</time>
      </trkpt>
      <trkpt lat="45.35822" lon="4.66304">
        <ele>500.79998779297</ele>
        <time>2022-03-04T13:27:46Z</time>
      </trkpt>
      <trkpt lat="45.35825" lon="4.66282">
        <ele>503</ele>
        <time>2022-03-04T13:27:57Z</time>
      </trkpt>
      <trkpt lat="45.3582" lon="4.66268">
        <ele>503.79998779297</ele>
        <time>2022-03-04T13:28:03Z</time>
      </trkpt>
      <trkpt lat="45.35823" lon="4.6626">
        <ele>504.79998779297</ele>
        <time>2022-03-04T13:28:06Z</time>
      </trkpt>
      <trkpt lat="45.35825" lon="4.66249">
        <ele>505.39999389648</ele>
        <time>2022-03-04T13:28:10Z</time>
      </trkpt>
      <trkpt lat="45.35827" lon="4.66242">
        <ele>505.79998779297</ele>
        <time>2022-03-04T13:28:13Z</time>
      </trkpt>
      <trkpt lat="45.35841" lon="4.66219">
        <ele>508</ele>
        <time>2022-03-04T13:28:25Z</time>
      </trkpt>
      <trkpt lat="45.35862" lon="4.66205">
        <ele>509.79998779297</ele>
        <time>2022-03-04T13:28:39Z</time>
      </trkpt>
      <trkpt lat="45.35876" lon="4.66198">
        <ele>510.60000610352</ele>
        <time>2022-03-04T13:28:48Z</time>
      </trkpt>
      <trkpt lat="45.35883" lon="4.66207">
        <ele>511.20001220703</ele>
        <time>2022-03-04T13:28:52Z</time>
      </trkpt>
      <trkpt lat="45.3592" lon="4.6625">
        <ele>512</ele>
        <time>2022-03-04T13:29:11Z</time>
      </trkpt>
      <trkpt lat="45.35931" lon="4.66268">
        <ele>512.20001220703</ele>
        <time>2022-03-04T13:29:19Z</time>
      </trkpt>
      <trkpt lat="45.35949" lon="4.66277">
        <ele>512.40002441406</ele>
        <time>2022-03-04T13:29:27Z</time>
      </trkpt>
      <trkpt lat="45.35952" lon="4.66278">
        <ele>512.40002441406</ele>
        <time>2022-03-04T13:29:29Z</time>
      </trkpt>
      <trkpt lat="45.35955" lon="4.66273">
        <ele>512.59997558594</ele>
        <time>2022-03-04T13:29:42Z</time>
      </trkpt>
      <trkpt lat="45.35979" lon="4.66256">
        <ele>513.59997558594</ele>
        <time>2022-03-04T13:30:02Z</time>
      </trkpt>
      <trkpt lat="45.35983" lon="4.66252">
        <ele>514</ele>
        <time>2022-03-04T13:30:04Z</time>
      </trkpt>
      <trkpt lat="45.35998" lon="4.66214">
        <ele>516.20001220703</ele>
        <time>2022-03-04T13:30:17Z</time>
      </trkpt>
      <trkpt lat="45.36013" lon="4.66174">
        <ele>518.59997558594</ele>
        <time>2022-03-04T13:30:31Z</time>
      </trkpt>
      <trkpt lat="45.36031" lon="4.66145">
        <ele>522</ele>
        <time>2022-03-04T13:30:44Z</time>
      </trkpt>
      <trkpt lat="45.36032" lon="4.66143">
        <ele>522.20001220703</ele>
        <time>2022-03-04T13:30:45Z</time>
      </trkpt>
      <trkpt lat="45.36034" lon="4.66115">
        <ele>524.59997558594</ele>
        <time>2022-03-04T13:30:57Z</time>
      </trkpt>
      <trkpt lat="45.36035" lon="4.66103">
        <ele>525.59997558594</ele>
        <time>2022-03-04T13:31:03Z</time>
      </trkpt>
      <trkpt lat="45.36038" lon="4.66086">
        <ele>527.20001220703</ele>
        <time>2022-03-04T13:31:11Z</time>
      </trkpt>
      <trkpt lat="45.3604" lon="4.66079">
        <ele>527.79998779297</ele>
        <time>2022-03-04T13:31:14Z</time>
      </trkpt>
      <trkpt lat="45.36037" lon="4.66058">
        <ele>529.79998779297</ele>
        <time>2022-03-04T13:31:25Z</time>
      </trkpt>
      <trkpt lat="45.36036" lon="4.66049">
        <ele>530.79998779297</ele>
        <time>2022-03-04T13:31:29Z</time>
      </trkpt>
      <trkpt lat="45.36038" lon="4.66023">
        <ele>532.40002441406</ele>
        <time>2022-03-04T13:31:40Z</time>
      </trkpt>
      <trkpt lat="45.36045" lon="4.6601">
        <ele>533.59997558594</ele>
        <time>2022-03-04T13:31:47Z</time>
      </trkpt>
      <trkpt lat="45.36058" lon="4.65998">
        <ele>535</ele>
        <time>2022-03-04T13:31:56Z</time>
      </trkpt>
      <trkpt lat="45.36059" lon="4.65984">
        <ele>536.79998779297</ele>
        <time>2022-03-04T13:32:04Z</time>
      </trkpt>
      <trkpt lat="45.36052" lon="4.65967">
        <ele>538.59997558594</ele>
        <time>2022-03-04T13:32:14Z</time>
      </trkpt>
      <trkpt lat="45.36046" lon="4.65958">
        <ele>539.59997558594</ele>
        <time>2022-03-04T13:32:20Z</time>
      </trkpt>
      <trkpt lat="45.36045" lon="4.65954">
        <ele>540.20001220703</ele>
        <time>2022-03-04T13:32:22Z</time>
      </trkpt>
      <trkpt lat="45.36043" lon="4.6595">
        <ele>540.40002441406</ele>
        <time>2022-03-04T13:32:24Z</time>
      </trkpt>
      <trkpt lat="45.36045" lon="4.65945">
        <ele>541.40002441406</ele>
        <time>2022-03-04T13:32:28Z</time>
      </trkpt>
      <trkpt lat="45.36052" lon="4.65937">
        <ele>542.79998779297</ele>
        <time>2022-03-04T13:32:34Z</time>
      </trkpt>
      <trkpt lat="45.36057" lon="4.6593">
        <ele>544.20001220703</ele>
        <time>2022-03-04T13:32:39Z</time>
      </trkpt>
      <trkpt lat="45.36072" lon="4.65914">
        <ele>545.59997558594</ele>
        <time>2022-03-04T13:32:49Z</time>
      </trkpt>
      <trkpt lat="45.36078" lon="4.65895">
        <ele>547.40002441406</ele>
        <time>2022-03-04T13:33:00Z</time>
      </trkpt>
      <trkpt lat="45.36079" lon="4.65891">
        <ele>547.59997558594</ele>
        <time>2022-03-04T13:33:02Z</time>
      </trkpt>
      <trkpt lat="45.36088" lon="4.65876">
        <ele>549.79998779297</ele>
        <time>2022-03-04T13:33:13Z</time>
      </trkpt>
      <trkpt lat="45.36099" lon="4.65864">
        <ele>551.20001220703</ele>
        <time>2022-03-04T13:33:21Z</time>
      </trkpt>
      <trkpt lat="45.36098" lon="4.65862">
        <ele>552.20001220703</ele>
        <time>2022-03-04T13:33:27Z</time>
      </trkpt>
      <trkpt lat="45.36087" lon="4.65856">
        <ele>554.20001220703</ele>
        <time>2022-03-04T13:33:35Z</time>
      </trkpt>
      <trkpt lat="45.36075" lon="4.6585">
        <ele>555.40002441406</ele>
        <time>2022-03-04T13:33:43Z</time>
      </trkpt>
      <trkpt lat="45.36064" lon="4.65843">
        <ele>555.79998779297</ele>
        <time>2022-03-04T13:33:50Z</time>
      </trkpt>
      <trkpt lat="45.36063" lon="4.65843">
        <ele>556</ele>
        <time>2022-03-04T13:33:51Z</time>
      </trkpt>
      <trkpt lat="45.36052" lon="4.65839">
        <ele>557.20001220703</ele>
        <time>2022-03-04T13:33:57Z</time>
      </trkpt>
      <trkpt lat="45.3604" lon="4.65829">
        <ele>558.40002441406</ele>
        <time>2022-03-04T13:34:04Z</time>
      </trkpt>
      <trkpt lat="45.3603" lon="4.6582">
        <ele>560.59997558594</ele>
        <time>2022-03-04T13:34:13Z</time>
      </trkpt>
      <trkpt lat="45.36018" lon="4.65804">
        <ele>563.20001220703</ele>
        <time>2022-03-04T13:34:25Z</time>
      </trkpt>
      <trkpt lat="45.36015" lon="4.658">
        <ele>564</ele>
        <time>2022-03-04T13:34:28Z</time>
      </trkpt>
      <trkpt lat="45.36006" lon="4.65783">
        <ele>566.40002441406</ele>
        <time>2022-03-04T13:34:38Z</time>
      </trkpt>
      <trkpt lat="45.35998" lon="4.65767">
        <ele>568</ele>
        <time>2022-03-04T13:34:46Z</time>
      </trkpt>
      <trkpt lat="45.35998" lon="4.65765">
        <ele>568.40002441406</ele>
        <time>2022-03-04T13:34:47Z</time>
      </trkpt>
      <trkpt lat="45.35993" lon="4.65757">
        <ele>569</ele>
        <time>2022-03-04T13:34:51Z</time>
      </trkpt>
      <trkpt lat="45.3599" lon="4.65748">
        <ele>569.59997558594</ele>
        <time>2022-03-04T13:34:56Z</time>
      </trkpt>
      <trkpt lat="45.35981" lon="4.65721">
        <ele>572</ele>
        <time>2022-03-04T13:35:12Z</time>
      </trkpt>
      <trkpt lat="45.35972" lon="4.65698">
        <ele>574.79998779297</ele>
        <time>2022-03-04T13:35:26Z</time>
      </trkpt>
      <trkpt lat="45.35962" lon="4.65671">
        <ele>576.79998779297</ele>
        <time>2022-03-04T13:35:40Z</time>
      </trkpt>
      <trkpt lat="45.35962" lon="4.65669">
        <ele>576.79998779297</ele>
        <time>2022-03-04T13:35:41Z</time>
      </trkpt>
      <trkpt lat="45.35956" lon="4.65652">
        <ele>577.79998779297</ele>
        <time>2022-03-04T13:35:50Z</time>
      </trkpt>
      <trkpt lat="45.35943" lon="4.65628">
        <ele>579</ele>
        <time>2022-03-04T13:36:03Z</time>
      </trkpt>
      <trkpt lat="45.35939" lon="4.6562">
        <ele>580</ele>
        <time>2022-03-04T13:36:08Z</time>
      </trkpt>
      <trkpt lat="45.35937" lon="4.65609">
        <ele>581</ele>
        <time>2022-03-04T13:36:14Z</time>
      </trkpt>
      <trkpt lat="45.35929" lon="4.65586">
        <ele>583.79998779297</ele>
        <time>2022-03-04T13:36:27Z</time>
      </trkpt>
      <trkpt lat="45.35927" lon="4.65583">
        <ele>584.20001220703</ele>
        <time>2022-03-04T13:36:29Z</time>
      </trkpt>
      <trkpt lat="45.35921" lon="4.65564">
        <ele>585.59997558594</ele>
        <time>2022-03-04T13:36:38Z</time>
      </trkpt>
      <trkpt lat="45.35917" lon="4.65551">
        <ele>586</ele>
        <time>2022-03-04T13:36:43Z</time>
      </trkpt>
      <trkpt lat="45.35911" lon="4.65534">
        <ele>587.40002441406</ele>
        <time>2022-03-04T13:36:51Z</time>
      </trkpt>
      <trkpt lat="45.35903" lon="4.65523">
        <ele>588.59997558594</ele>
        <time>2022-03-04T13:36:59Z</time>
      </trkpt>
      <trkpt lat="45.359" lon="4.65511">
        <ele>589.59997558594</ele>
        <time>2022-03-04T13:37:05Z</time>
      </trkpt>
      <trkpt lat="45.35895" lon="4.65499">
        <ele>591</ele>
        <time>2022-03-04T13:37:10Z</time>
      </trkpt>
      <trkpt lat="45.35886" lon="4.65478">
        <ele>592.59997558594</ele>
        <time>2022-03-04T13:37:20Z</time>
      </trkpt>
      <trkpt lat="45.35878" lon="4.65464">
        <ele>593.79998779297</ele>
        <time>2022-03-04T13:37:27Z</time>
      </trkpt>
      <trkpt lat="45.35876" lon="4.65462">
        <ele>593.79998779297</ele>
        <time>2022-03-04T13:37:28Z</time>
      </trkpt>
      <trkpt lat="45.35873" lon="4.65448">
        <ele>595.59997558594</ele>
        <time>2022-03-04T13:37:35Z</time>
      </trkpt>
      <trkpt lat="45.35872" lon="4.65446">
        <ele>595.59997558594</ele>
        <time>2022-03-04T13:37:36Z</time>
      </trkpt>
      <trkpt lat="45.35859" lon="4.6542">
        <ele>597.40002441406</ele>
        <time>2022-03-04T13:37:50Z</time>
      </trkpt>
      <trkpt lat="45.35852" lon="4.65403">
        <ele>598.40002441406</ele>
        <time>2022-03-04T13:37:57Z</time>
      </trkpt>
      <trkpt lat="45.35848" lon="4.65392">
        <ele>599</ele>
        <time>2022-03-04T13:38:01Z</time>
      </trkpt>
      <trkpt lat="45.35844" lon="4.65387">
        <ele>599.20001220703</ele>
        <time>2022-03-04T13:38:03Z</time>
      </trkpt>
      <trkpt lat="45.35841" lon="4.65376">
        <ele>599.59997558594</ele>
        <time>2022-03-04T13:38:07Z</time>
      </trkpt>
      <trkpt lat="45.35834" lon="4.65351">
        <ele>600</ele>
        <time>2022-03-04T13:38:14Z</time>
      </trkpt>
      <trkpt lat="45.35827" lon="4.65331">
        <ele>600.20001220703</ele>
        <time>2022-03-04T13:38:21Z</time>
      </trkpt>
      <trkpt lat="45.35817" lon="4.65294">
        <ele>602.20001220703</ele>
        <time>2022-03-04T13:38:36Z</time>
      </trkpt>
      <trkpt lat="45.35805" lon="4.6526">
        <ele>604.20001220703</ele>
        <time>2022-03-04T13:38:51Z</time>
      </trkpt>
      <trkpt lat="45.35804" lon="4.65239">
        <ele>605.20001220703</ele>
        <time>2022-03-04T13:39:00Z</time>
      </trkpt>
      <trkpt lat="45.35806" lon="4.65235">
        <ele>605.40002441406</ele>
        <time>2022-03-04T13:39:02Z</time>
      </trkpt>
      <trkpt lat="45.35811" lon="4.65221">
        <ele>606.20001220703</ele>
        <time>2022-03-04T13:39:08Z</time>
      </trkpt>
      <trkpt lat="45.35808" lon="4.65207">
        <ele>607</ele>
        <time>2022-03-04T13:39:14Z</time>
      </trkpt>
      <trkpt lat="45.35801" lon="4.65186">
        <ele>610</ele>
        <time>2022-03-04T13:39:24Z</time>
      </trkpt>
      <trkpt lat="45.35796" lon="4.65177">
        <ele>611</ele>
        <time>2022-03-04T13:39:29Z</time>
      </trkpt>
      <trkpt lat="45.35795" lon="4.65173">
        <ele>613</ele>
        <time>2022-03-04T13:39:38Z</time>
      </trkpt>
      <trkpt lat="45.35789" lon="4.65167">
        <ele>613.79998779297</ele>
        <time>2022-03-04T13:39:55Z</time>
      </trkpt>
      <trkpt lat="45.35772" lon="4.65144">
        <ele>616</ele>
        <time>2022-03-04T13:40:09Z</time>
      </trkpt>
      <trkpt lat="45.35767" lon="4.65128">
        <ele>618.40002441406</ele>
        <time>2022-03-04T13:40:18Z</time>
      </trkpt>
      <trkpt lat="45.35765" lon="4.65113">
        <ele>620.20001220703</ele>
        <time>2022-03-04T13:40:26Z</time>
      </trkpt>
      <trkpt lat="45.35763" lon="4.65106">
        <ele>621</ele>
        <time>2022-03-04T13:40:30Z</time>
      </trkpt>
      <trkpt lat="45.35762" lon="4.6509">
        <ele>622.59997558594</ele>
        <time>2022-03-04T13:40:38Z</time>
      </trkpt>
      <trkpt lat="45.35763" lon="4.6508">
        <ele>623.79998779297</ele>
        <time>2022-03-04T13:40:43Z</time>
      </trkpt>
      <trkpt lat="45.35761" lon="4.65074">
        <ele>624.40002441406</ele>
        <time>2022-03-04T13:40:47Z</time>
      </trkpt>
      <trkpt lat="45.35758" lon="4.65064">
        <ele>625.59997558594</ele>
        <time>2022-03-04T13:40:53Z</time>
      </trkpt>
      <trkpt lat="45.35753" lon="4.65043">
        <ele>627.79998779297</ele>
        <time>2022-03-04T13:41:04Z</time>
      </trkpt>
      <trkpt lat="45.35752" lon="4.65029">
        <ele>629.79998779297</ele>
        <time>2022-03-04T13:41:12Z</time>
      </trkpt>
      <trkpt lat="45.3575" lon="4.65024">
        <ele>630.40002441406</ele>
        <time>2022-03-04T13:41:15Z</time>
      </trkpt>
      <trkpt lat="45.35749" lon="4.65016">
        <ele>631.59997558594</ele>
        <time>2022-03-04T13:41:20Z</time>
      </trkpt>
      <trkpt lat="45.35743" lon="4.64993">
        <ele>633.79998779297</ele>
        <time>2022-03-04T13:41:33Z</time>
      </trkpt>
      <trkpt lat="45.35745" lon="4.64984">
        <ele>634.40002441406</ele>
        <time>2022-03-04T13:41:38Z</time>
      </trkpt>
      <trkpt lat="45.35743" lon="4.64959">
        <ele>635.79998779297</ele>
        <time>2022-03-04T13:41:52Z</time>
      </trkpt>
      <trkpt lat="45.35746" lon="4.64932">
        <ele>637</ele>
        <time>2022-03-04T13:42:07Z</time>
      </trkpt>
      <trkpt lat="45.35751" lon="4.6489">
        <ele>638.20001220703</ele>
        <time>2022-03-04T13:42:28Z</time>
      </trkpt>
      <trkpt lat="45.35741" lon="4.64833">
        <ele>640.59997558594</ele>
        <time>2022-03-04T13:42:50Z</time>
      </trkpt>
      <trkpt lat="45.35723" lon="4.64796">
        <ele>642</ele>
        <time>2022-03-04T13:43:04Z</time>
      </trkpt>
      <trkpt lat="45.35701" lon="4.6475">
        <ele>641.79998779297</ele>
        <time>2022-03-04T13:43:19Z</time>
      </trkpt>
      <trkpt lat="45.35685" lon="4.64723">
        <ele>642.20001220703</ele>
        <time>2022-03-04T13:43:30Z</time>
      </trkpt>
      <trkpt lat="45.35664" lon="4.64697">
        <ele>643.20001220703</ele>
        <time>2022-03-04T13:43:44Z</time>
      </trkpt>
      <trkpt lat="45.35637" lon="4.64642">
        <ele>645</ele>
        <time>2022-03-04T13:44:07Z</time>
      </trkpt>
      <trkpt lat="45.3563" lon="4.64608">
        <ele>648</ele>
        <time>2022-03-04T13:44:22Z</time>
      </trkpt>
      <trkpt lat="45.35616" lon="4.6457">
        <ele>650</ele>
        <time>2022-03-04T13:44:38Z</time>
      </trkpt>
      <trkpt lat="45.35604" lon="4.64537">
        <ele>651</ele>
        <time>2022-03-04T13:44:51Z</time>
      </trkpt>
      <trkpt lat="45.35588" lon="4.64469">
        <ele>651.40002441406</ele>
        <time>2022-03-04T13:45:13Z</time>
      </trkpt>
      <trkpt lat="45.35591" lon="4.64369">
        <ele>651.79998779297</ele>
        <time>2022-03-04T13:45:34Z</time>
      </trkpt>
      <trkpt lat="45.35596" lon="4.64229">
        <ele>652.40002441406</ele>
        <time>2022-03-04T13:46:03Z</time>
      </trkpt>
      <trkpt lat="45.35605" lon="4.64178">
        <ele>653.20001220703</ele>
        <time>2022-03-04T13:46:17Z</time>
      </trkpt>
      <trkpt lat="45.35608" lon="4.64147">
        <ele>654.20001220703</ele>
        <time>2022-03-04T13:46:28Z</time>
      </trkpt>
      <trkpt lat="45.3562" lon="4.64096">
        <ele>657</ele>
        <time>2022-03-04T13:46:48Z</time>
      </trkpt>
      <trkpt lat="45.35623" lon="4.64088">
        <ele>657.59997558594</ele>
        <time>2022-03-04T13:46:52Z</time>
      </trkpt>
      <trkpt lat="45.35636" lon="4.64064">
        <ele>659.79998779297</ele>
        <time>2022-03-04T13:47:05Z</time>
      </trkpt>
      <trkpt lat="45.3564" lon="4.64062">
        <ele>660.59997558594</ele>
        <time>2022-03-04T13:47:09Z</time>
      </trkpt>
      <trkpt lat="45.35648" lon="4.6407">
        <ele>661</ele>
        <time>2022-03-04T13:47:17Z</time>
      </trkpt>
      <trkpt lat="45.35675" lon="4.64082">
        <ele>660.79998779297</ele>
        <time>2022-03-04T13:47:32Z</time>
      </trkpt>
      <trkpt lat="45.35702" lon="4.64102">
        <ele>658.59997558594</ele>
        <time>2022-03-04T13:47:47Z</time>
      </trkpt>
      <trkpt lat="45.35714" lon="4.64112">
        <ele>656.59997558594</ele>
        <time>2022-03-04T13:47:51Z</time>
      </trkpt>
      <trkpt lat="45.35745" lon="4.64145">
        <ele>653.40002441406</ele>
        <time>2022-03-04T13:47:59Z</time>
      </trkpt>
      <trkpt lat="45.35747" lon="4.64154">
        <ele>652.40002441406</ele>
        <time>2022-03-04T13:48:01Z</time>
      </trkpt>
      <trkpt lat="45.35748" lon="4.64157">
        <ele>652.20001220703</ele>
        <time>2022-03-04T13:48:02Z</time>
      </trkpt>
      <trkpt lat="45.3575" lon="4.6416">
        <ele>651.79998779297</ele>
        <time>2022-03-04T13:48:03Z</time>
      </trkpt>
      <trkpt lat="45.35757" lon="4.64168">
        <ele>650.40002441406</ele>
        <time>2022-03-04T13:48:07Z</time>
      </trkpt>
      <trkpt lat="45.35769" lon="4.64172">
        <ele>648.79998779297</ele>
        <time>2022-03-04T13:48:11Z</time>
      </trkpt>
      <trkpt lat="45.35774" lon="4.64171">
        <ele>647.20001220703</ele>
        <time>2022-03-04T13:48:13Z</time>
      </trkpt>
      <trkpt lat="45.35788" lon="4.64175">
        <ele>644.40002441406</ele>
        <time>2022-03-04T13:48:18Z</time>
      </trkpt>
      <trkpt lat="45.35804" lon="4.64187">
        <ele>643.40002441406</ele>
        <time>2022-03-04T13:48:22Z</time>
      </trkpt>
      <trkpt lat="45.35811" lon="4.64195">
        <ele>642.79998779297</ele>
        <time>2022-03-04T13:48:24Z</time>
      </trkpt>
      <trkpt lat="45.35829" lon="4.64219">
        <ele>640.20001220703</ele>
        <time>2022-03-04T13:48:29Z</time>
      </trkpt>
      <trkpt lat="45.35872" lon="4.6426">
        <ele>637.40002441406</ele>
        <time>2022-03-04T13:48:38Z</time>
      </trkpt>
      <trkpt lat="45.35883" lon="4.64279">
        <ele>636.59997558594</ele>
        <time>2022-03-04T13:48:44Z</time>
      </trkpt>
      <trkpt lat="45.35889" lon="4.6428">
        <ele>636.59997558594</ele>
        <time>2022-03-04T13:48:46Z</time>
      </trkpt>
      <trkpt lat="45.35891" lon="4.6428">
        <ele>636.59997558594</ele>
        <time>2022-03-04T13:48:47Z</time>
      </trkpt>
      <trkpt lat="45.35913" lon="4.64284">
        <ele>637</ele>
        <time>2022-03-04T13:48:53Z</time>
      </trkpt>
      <trkpt lat="45.35916" lon="4.64285">
        <ele>637.20001220703</ele>
        <time>2022-03-04T13:48:54Z</time>
      </trkpt>
      <trkpt lat="45.35929" lon="4.64293">
        <ele>638</ele>
        <time>2022-03-04T13:49:00Z</time>
      </trkpt>
      <trkpt lat="45.35934" lon="4.64301">
        <ele>638.59997558594</ele>
        <time>2022-03-04T13:49:04Z</time>
      </trkpt>
      <trkpt lat="45.35937" lon="4.64305">
        <ele>639.20001220703</ele>
        <time>2022-03-04T13:49:07Z</time>
      </trkpt>
      <trkpt lat="45.3594" lon="4.64313">
        <ele>639.79998779297</ele>
        <time>2022-03-04T13:49:11Z</time>
      </trkpt>
      <trkpt lat="45.35964" lon="4.64335">
        <ele>641.20001220703</ele>
        <time>2022-03-04T13:49:24Z</time>
      </trkpt>
      <trkpt lat="45.35992" lon="4.64354">
        <ele>643.20001220703</ele>
        <time>2022-03-04T13:49:36Z</time>
      </trkpt>
      <trkpt lat="45.35997" lon="4.64358">
        <ele>643.40002441406</ele>
        <time>2022-03-04T13:49:38Z</time>
      </trkpt>
      <trkpt lat="45.36015" lon="4.64378">
        <ele>644.20001220703</ele>
        <time>2022-03-04T13:49:48Z</time>
      </trkpt>
      <trkpt lat="45.36034" lon="4.64399">
        <ele>643.59997558594</ele>
        <time>2022-03-04T13:49:59Z</time>
      </trkpt>
      <trkpt lat="45.36051" lon="4.64414">
        <ele>643.20001220703</ele>
        <time>2022-03-04T13:50:10Z</time>
      </trkpt>
      <trkpt lat="45.36085" lon="4.64463">
        <ele>641.20001220703</ele>
        <time>2022-03-04T13:50:22Z</time>
      </trkpt>
      <trkpt lat="45.36092" lon="4.64494">
        <ele>639</ele>
        <time>2022-03-04T13:50:36Z</time>
      </trkpt>
      <trkpt lat="45.36088" lon="4.64512">
        <ele>635.79998779297</ele>
        <time>2022-03-04T13:50:43Z</time>
      </trkpt>
      <trkpt lat="45.36086" lon="4.64517">
        <ele>635</ele>
        <time>2022-03-04T13:50:45Z</time>
      </trkpt>
      <trkpt lat="45.36086" lon="4.64523">
        <ele>633.20001220703</ele>
        <time>2022-03-04T13:50:49Z</time>
      </trkpt>
      <trkpt lat="45.3609" lon="4.64525">
        <ele>631</ele>
        <time>2022-03-04T13:50:55Z</time>
      </trkpt>
      <trkpt lat="45.36089" lon="4.64521">
        <ele>630.40002441406</ele>
        <time>2022-03-04T13:51:08Z</time>
      </trkpt>
      <trkpt lat="45.36088" lon="4.64522">
        <ele>630.79998779297</ele>
        <time>2022-03-04T13:51:56Z</time>
      </trkpt>
      <trkpt lat="45.36083" lon="4.64531">
        <ele>630.20001220703</ele>
        <time>2022-03-04T13:52:12Z</time>
      </trkpt>
      <trkpt lat="45.36076" lon="4.64566">
        <ele>627.79998779297</ele>
        <time>2022-03-04T13:52:24Z</time>
      </trkpt>
      <trkpt lat="45.3608" lon="4.64596">
        <ele>624.59997558594</ele>
        <time>2022-03-04T13:52:30Z</time>
      </trkpt>
      <trkpt lat="45.36081" lon="4.64615">
        <ele>622.40002441406</ele>
        <time>2022-03-04T13:52:35Z</time>
      </trkpt>
      <trkpt lat="45.36081" lon="4.64635">
        <ele>620.20001220703</ele>
        <time>2022-03-04T13:52:42Z</time>
      </trkpt>
      <trkpt lat="45.36089" lon="4.64638">
        <ele>618.40002441406</ele>
        <time>2022-03-04T13:52:49Z</time>
      </trkpt>
      <trkpt lat="45.3609" lon="4.64638">
        <ele>618.59997558594</ele>
        <time>2022-03-04T13:53:24Z</time>
      </trkpt>
      <trkpt lat="45.36098" lon="4.64655">
        <ele>618.20001220703</ele>
        <time>2022-03-04T13:53:28Z</time>
      </trkpt>
      <trkpt lat="45.36114" lon="4.64693">
        <ele>617.20001220703</ele>
        <time>2022-03-04T13:53:34Z</time>
      </trkpt>
      <trkpt lat="45.36117" lon="4.64699">
        <ele>616.79998779297</ele>
        <time>2022-03-04T13:53:35Z</time>
      </trkpt>
      <trkpt lat="45.36123" lon="4.64734">
        <ele>614.79998779297</ele>
        <time>2022-03-04T13:53:41Z</time>
      </trkpt>
      <trkpt lat="45.36124" lon="4.64743">
        <ele>613.20001220703</ele>
        <time>2022-03-04T13:53:46Z</time>
      </trkpt>
      <trkpt lat="45.36124" lon="4.64748">
        <ele>613</ele>
        <time>2022-03-04T13:53:48Z</time>
      </trkpt>
      <trkpt lat="45.36122" lon="4.64763">
        <ele>612.59997558594</ele>
        <time>2022-03-04T13:53:51Z</time>
      </trkpt>
      <trkpt lat="45.36129" lon="4.64793">
        <ele>611.59997558594</ele>
        <time>2022-03-04T13:53:57Z</time>
      </trkpt>
      <trkpt lat="45.36133" lon="4.64793">
        <ele>611</ele>
        <time>2022-03-04T13:53:59Z</time>
      </trkpt>
      <trkpt lat="45.36167" lon="4.64785">
        <ele>611.20001220703</ele>
        <time>2022-03-04T13:54:11Z</time>
      </trkpt>
      <trkpt lat="45.36181" lon="4.64776">
        <ele>610.79998779297</ele>
        <time>2022-03-04T13:54:15Z</time>
      </trkpt>
      <trkpt lat="45.36218" lon="4.64743">
        <ele>609.79998779297</ele>
        <time>2022-03-04T13:54:24Z</time>
      </trkpt>
      <trkpt lat="45.3622" lon="4.64739">
        <ele>609.79998779297</ele>
        <time>2022-03-04T13:54:25Z</time>
      </trkpt>
      <trkpt lat="45.36229" lon="4.64726">
        <ele>609.40002441406</ele>
        <time>2022-03-04T13:54:28Z</time>
      </trkpt>
      <trkpt lat="45.3624" lon="4.64693">
        <ele>609.20001220703</ele>
        <time>2022-03-04T13:54:35Z</time>
      </trkpt>
      <trkpt lat="45.36245" lon="4.64681">
        <ele>609.20001220703</ele>
        <time>2022-03-04T13:54:38Z</time>
      </trkpt>
      <trkpt lat="45.36263" lon="4.64645">
        <ele>611</ele>
        <time>2022-03-04T13:54:51Z</time>
      </trkpt>
      <trkpt lat="45.36284" lon="4.6461">
        <ele>612.59997558594</ele>
        <time>2022-03-04T13:55:02Z</time>
      </trkpt>
      <trkpt lat="45.363" lon="4.64613">
        <ele>611.59997558594</ele>
        <time>2022-03-04T13:55:08Z</time>
      </trkpt>
      <trkpt lat="45.363" lon="4.6462">
        <ele>611.59997558594</ele>
        <time>2022-03-04T13:55:10Z</time>
      </trkpt>
      <trkpt lat="45.36299" lon="4.64631">
        <ele>611.40002441406</ele>
        <time>2022-03-04T13:55:13Z</time>
      </trkpt>
      <trkpt lat="45.36298" lon="4.64654">
        <ele>611.59997558594</ele>
        <time>2022-03-04T13:55:18Z</time>
      </trkpt>
      <trkpt lat="45.36291" lon="4.64682">
        <ele>611.40002441406</ele>
        <time>2022-03-04T13:55:23Z</time>
      </trkpt>
      <trkpt lat="45.36288" lon="4.64704">
        <ele>610.79998779297</ele>
        <time>2022-03-04T13:55:27Z</time>
      </trkpt>
      <trkpt lat="45.36277" lon="4.64747">
        <ele>607.59997558594</ele>
        <time>2022-03-04T13:55:32Z</time>
      </trkpt>
      <trkpt lat="45.36277" lon="4.64754">
        <ele>607</ele>
        <time>2022-03-04T13:55:33Z</time>
      </trkpt>
      <trkpt lat="45.36278" lon="4.64773">
        <ele>605.40002441406</ele>
        <time>2022-03-04T13:55:36Z</time>
      </trkpt>
      <trkpt lat="45.36282" lon="4.64798">
        <ele>603.40002441406</ele>
        <time>2022-03-04T13:55:40Z</time>
      </trkpt>
      <trkpt lat="45.36281" lon="4.64821">
        <ele>603</ele>
        <time>2022-03-04T13:55:43Z</time>
      </trkpt>
      <trkpt lat="45.36283" lon="4.64856">
        <ele>602.20001220703</ele>
        <time>2022-03-04T13:55:47Z</time>
      </trkpt>
      <trkpt lat="45.36278" lon="4.64915">
        <ele>600.40002441406</ele>
        <time>2022-03-04T13:55:53Z</time>
      </trkpt>
      <trkpt lat="45.36267" lon="4.64971">
        <ele>597.40002441406</ele>
        <time>2022-03-04T13:55:59Z</time>
      </trkpt>
      <trkpt lat="45.36255" lon="4.6501">
        <ele>593.79998779297</ele>
        <time>2022-03-04T13:56:04Z</time>
      </trkpt>
      <trkpt lat="45.36252" lon="4.65018">
        <ele>593.20001220703</ele>
        <time>2022-03-04T13:56:05Z</time>
      </trkpt>
      <trkpt lat="45.36233" lon="4.65072">
        <ele>589.79998779297</ele>
        <time>2022-03-04T13:56:11Z</time>
      </trkpt>
      <trkpt lat="45.36225" lon="4.65089">
        <ele>585.59997558594</ele>
        <time>2022-03-04T13:56:15Z</time>
      </trkpt>
      <trkpt lat="45.36219" lon="4.65107">
        <ele>582.40002441406</ele>
        <time>2022-03-04T13:56:19Z</time>
      </trkpt>
      <trkpt lat="45.36191" lon="4.65174">
        <ele>579.20001220703</ele>
        <time>2022-03-04T13:56:26Z</time>
      </trkpt>
      <trkpt lat="45.36183" lon="4.65198">
        <ele>577.59997558594</ele>
        <time>2022-03-04T13:56:28Z</time>
      </trkpt>
      <trkpt lat="45.36175" lon="4.6526">
        <ele>574.40002441406</ele>
        <time>2022-03-04T13:56:33Z</time>
      </trkpt>
      <trkpt lat="45.36176" lon="4.65301">
        <ele>570</ele>
        <time>2022-03-04T13:56:38Z</time>
      </trkpt>
      <trkpt lat="45.36177" lon="4.65319">
        <ele>567.79998779297</ele>
        <time>2022-03-04T13:56:41Z</time>
      </trkpt>
      <trkpt lat="45.3618" lon="4.65351">
        <ele>566.40002441406</ele>
        <time>2022-03-04T13:56:45Z</time>
      </trkpt>
      <trkpt lat="45.3618" lon="4.65389">
        <ele>564.59997558594</ele>
        <time>2022-03-04T13:56:49Z</time>
      </trkpt>
      <trkpt lat="45.36184" lon="4.65422">
        <ele>563.20001220703</ele>
        <time>2022-03-04T13:56:52Z</time>
      </trkpt>
      <trkpt lat="45.36193" lon="4.65506">
        <ele>560.20001220703</ele>
        <time>2022-03-04T13:56:59Z</time>
      </trkpt>
      <trkpt lat="45.36204" lon="4.65552">
        <ele>557.20001220703</ele>
        <time>2022-03-04T13:57:03Z</time>
      </trkpt>
      <trkpt lat="45.36209" lon="4.65563">
        <ele>557</ele>
        <time>2022-03-04T13:57:04Z</time>
      </trkpt>
      <trkpt lat="45.36238" lon="4.65616">
        <ele>554.40002441406</ele>
        <time>2022-03-04T13:57:09Z</time>
      </trkpt>
      <trkpt lat="45.36257" lon="4.65647">
        <ele>552</ele>
        <time>2022-03-04T13:57:12Z</time>
      </trkpt>
      <trkpt lat="45.36271" lon="4.65664">
        <ele>549</ele>
        <time>2022-03-04T13:57:14Z</time>
      </trkpt>
      <trkpt lat="45.36298" lon="4.65695">
        <ele>546.40002441406</ele>
        <time>2022-03-04T13:57:18Z</time>
      </trkpt>
      <trkpt lat="45.36327" lon="4.65738">
        <ele>543.79998779297</ele>
        <time>2022-03-04T13:57:23Z</time>
      </trkpt>
      <trkpt lat="45.36335" lon="4.65755">
        <ele>542.79998779297</ele>
        <time>2022-03-04T13:57:25Z</time>
      </trkpt>
      <trkpt lat="45.36338" lon="4.65793">
        <ele>539.59997558594</ele>
        <time>2022-03-04T13:57:29Z</time>
      </trkpt>
      <trkpt lat="45.36333" lon="4.65814">
        <ele>538.59997558594</ele>
        <time>2022-03-04T13:57:31Z</time>
      </trkpt>
      <trkpt lat="45.36316" lon="4.65866">
        <ele>535.40002441406</ele>
        <time>2022-03-04T13:57:37Z</time>
      </trkpt>
      <trkpt lat="45.36315" lon="4.65871">
        <ele>534.40002441406</ele>
        <time>2022-03-04T13:57:38Z</time>
      </trkpt>
      <trkpt lat="45.36316" lon="4.65876">
        <ele>534.20001220703</ele>
        <time>2022-03-04T13:57:39Z</time>
      </trkpt>
      <trkpt lat="45.36323" lon="4.65883">
        <ele>533.40002441406</ele>
        <time>2022-03-04T13:57:42Z</time>
      </trkpt>
      <trkpt lat="45.36354" lon="4.65902">
        <ele>535.79998779297</ele>
        <time>2022-03-04T13:57:59Z</time>
      </trkpt>
      <trkpt lat="45.36376" lon="4.65917">
        <ele>539</ele>
        <time>2022-03-04T13:58:13Z</time>
      </trkpt>
      <trkpt lat="45.36378" lon="4.65918">
        <ele>539.20001220703</ele>
        <time>2022-03-04T13:58:14Z</time>
      </trkpt>
      <trkpt lat="45.36411" lon="4.65931">
        <ele>541</ele>
        <time>2022-03-04T13:58:29Z</time>
      </trkpt>
      <trkpt lat="45.36452" lon="4.6595">
        <ele>542</ele>
        <time>2022-03-04T13:58:45Z</time>
      </trkpt>
      <trkpt lat="45.3648" lon="4.65959">
        <ele>542.40002441406</ele>
        <time>2022-03-04T13:59:01Z</time>
      </trkpt>
      <trkpt lat="45.36523" lon="4.66009">
        <ele>542.79998779297</ele>
        <time>2022-03-04T13:59:20Z</time>
      </trkpt>
      <trkpt lat="45.36531" lon="4.66024">
        <ele>542.79998779297</ele>
        <time>2022-03-04T13:59:25Z</time>
      </trkpt>
      <trkpt lat="45.36553" lon="4.66035">
        <ele>543.20001220703</ele>
        <time>2022-03-04T13:59:35Z</time>
      </trkpt>
      <trkpt lat="45.36587" lon="4.66077">
        <ele>546.20001220703</ele>
        <time>2022-03-04T13:59:52Z</time>
      </trkpt>
      <trkpt lat="45.36611" lon="4.66103">
        <ele>549.40002441406</ele>
        <time>2022-03-04T14:00:06Z</time>
      </trkpt>
      <trkpt lat="45.36635" lon="4.66111">
        <ele>552.20001220703</ele>
        <time>2022-03-04T14:00:21Z</time>
      </trkpt>
      <trkpt lat="45.36656" lon="4.66096">
        <ele>555.20001220703</ele>
        <time>2022-03-04T14:00:34Z</time>
      </trkpt>
      <trkpt lat="45.3667" lon="4.66091">
        <ele>556.59997558594</ele>
        <time>2022-03-04T14:00:41Z</time>
      </trkpt>
      <trkpt lat="45.36675" lon="4.66101">
        <ele>557</ele>
        <time>2022-03-04T14:00:45Z</time>
      </trkpt>
      <trkpt lat="45.36688" lon="4.66146">
        <ele>558.79998779297</ele>
        <time>2022-03-04T14:00:58Z</time>
      </trkpt>
      <trkpt lat="45.36706" lon="4.66178">
        <ele>559.79998779297</ele>
        <time>2022-03-04T14:01:10Z</time>
      </trkpt>
      <trkpt lat="45.3673" lon="4.66204">
        <ele>561.79998779297</ele>
        <time>2022-03-04T14:01:23Z</time>
      </trkpt>
      <trkpt lat="45.36749" lon="4.66222">
        <ele>564.79998779297</ele>
        <time>2022-03-04T14:01:34Z</time>
      </trkpt>
      <trkpt lat="45.36752" lon="4.66226">
        <ele>565.20001220703</ele>
        <time>2022-03-04T14:01:36Z</time>
      </trkpt>
      <trkpt lat="45.36754" lon="4.66261">
        <ele>566.79998779297</ele>
        <time>2022-03-04T14:01:45Z</time>
      </trkpt>
      <trkpt lat="45.3677" lon="4.66309">
        <ele>568.40002441406</ele>
        <time>2022-03-04T14:01:58Z</time>
      </trkpt>
      <trkpt lat="45.36789" lon="4.66334">
        <ele>570.20001220703</ele>
        <time>2022-03-04T14:02:08Z</time>
      </trkpt>
      <trkpt lat="45.36797" lon="4.66337">
        <ele>571</ele>
        <time>2022-03-04T14:02:12Z</time>
      </trkpt>
      <trkpt lat="45.36811" lon="4.66333">
        <ele>572.20001220703</ele>
        <time>2022-03-04T14:02:19Z</time>
      </trkpt>
      <trkpt lat="45.36834" lon="4.66301">
        <ele>574</ele>
        <time>2022-03-04T14:02:31Z</time>
      </trkpt>
      <trkpt lat="45.36842" lon="4.66294">
        <ele>574.40002441406</ele>
        <time>2022-03-04T14:02:36Z</time>
      </trkpt>
      <trkpt lat="45.36846" lon="4.66286">
        <ele>574.40002441406</ele>
        <time>2022-03-04T14:02:38Z</time>
      </trkpt>
      <trkpt lat="45.36864" lon="4.66259">
        <ele>575.20001220703</ele>
        <time>2022-03-04T14:02:45Z</time>
      </trkpt>
      <trkpt lat="45.36883" lon="4.66225">
        <ele>576.40002441406</ele>
        <time>2022-03-04T14:02:55Z</time>
      </trkpt>
      <trkpt lat="45.36901" lon="4.66199">
        <ele>577.79998779297</ele>
        <time>2022-03-04T14:03:04Z</time>
      </trkpt>
      <trkpt lat="45.36921" lon="4.66192">
        <ele>579</ele>
        <time>2022-03-04T14:03:13Z</time>
      </trkpt>
      <trkpt lat="45.36932" lon="4.66224">
        <ele>582</ele>
        <time>2022-03-04T14:03:23Z</time>
      </trkpt>
      <trkpt lat="45.36936" lon="4.66245">
        <ele>582.79998779297</ele>
        <time>2022-03-04T14:03:29Z</time>
      </trkpt>
      <trkpt lat="45.36946" lon="4.6629">
        <ele>584.79998779297</ele>
        <time>2022-03-04T14:03:39Z</time>
      </trkpt>
      <trkpt lat="45.36958" lon="4.66344">
        <ele>584.79998779297</ele>
        <time>2022-03-04T14:03:50Z</time>
      </trkpt>
      <trkpt lat="45.36961" lon="4.66356">
        <ele>584.59997558594</ele>
        <time>2022-03-04T14:03:52Z</time>
      </trkpt>
      <trkpt lat="45.36979" lon="4.66409">
        <ele>581.79998779297</ele>
        <time>2022-03-04T14:04:01Z</time>
      </trkpt>
      <trkpt lat="45.3701" lon="4.66482">
        <ele>579.40002441406</ele>
        <time>2022-03-04T14:04:12Z</time>
      </trkpt>
      <trkpt lat="45.37038" lon="4.66523">
        <ele>578.40002441406</ele>
        <time>2022-03-04T14:04:22Z</time>
      </trkpt>
      <trkpt lat="45.37089" lon="4.66603">
        <ele>580.79998779297</ele>
        <time>2022-03-04T14:04:44Z</time>
      </trkpt>
      <trkpt lat="45.37107" lon="4.66659">
        <ele>584</ele>
        <time>2022-03-04T14:04:59Z</time>
      </trkpt>
      <trkpt lat="45.37122" lon="4.66708">
        <ele>586.20001220703</ele>
        <time>2022-03-04T14:05:11Z</time>
      </trkpt>
      <trkpt lat="45.37151" lon="4.66759">
        <ele>588.20001220703</ele>
        <time>2022-03-04T14:05:26Z</time>
      </trkpt>
      <trkpt lat="45.3718" lon="4.66797">
        <ele>589</ele>
        <time>2022-03-04T14:05:39Z</time>
      </trkpt>
      <trkpt lat="45.372" lon="4.66831">
        <ele>591</ele>
        <time>2022-03-04T14:05:51Z</time>
      </trkpt>
      <trkpt lat="45.37219" lon="4.6688">
        <ele>592.40002441406</ele>
        <time>2022-03-04T14:06:06Z</time>
      </trkpt>
      <trkpt lat="45.37241" lon="4.66944">
        <ele>594.20001220703</ele>
        <time>2022-03-04T14:06:20Z</time>
      </trkpt>
      <trkpt lat="45.37262" lon="4.66975">
        <ele>596.79998779297</ele>
        <time>2022-03-04T14:06:33Z</time>
      </trkpt>
      <trkpt lat="45.37291" lon="4.6701">
        <ele>598.40002441406</ele>
        <time>2022-03-04T14:06:46Z</time>
      </trkpt>
      <trkpt lat="45.37311" lon="4.67026">
        <ele>600.79998779297</ele>
        <time>2022-03-04T14:06:58Z</time>
      </trkpt>
      <trkpt lat="45.37331" lon="4.67035">
        <ele>602.20001220703</ele>
        <time>2022-03-04T14:07:08Z</time>
      </trkpt>
      <trkpt lat="45.37357" lon="4.67059">
        <ele>604.20001220703</ele>
        <time>2022-03-04T14:07:21Z</time>
      </trkpt>
      <trkpt lat="45.37365" lon="4.67067">
        <ele>603.20001220703</ele>
        <time>2022-03-04T14:07:41Z</time>
      </trkpt>
      <trkpt lat="45.37388" lon="4.67081">
        <ele>601.40002441406</ele>
        <time>2022-03-04T14:09:25Z</time>
      </trkpt>
      <trkpt lat="45.37402" lon="4.67086">
        <ele>598.40002441406</ele>
        <time>2022-03-04T14:09:32Z</time>
      </trkpt>
      <trkpt lat="45.37404" lon="4.67087">
        <ele>597.79998779297</ele>
        <time>2022-03-04T14:09:33Z</time>
      </trkpt>
      <trkpt lat="45.37407" lon="4.67087">
        <ele>597.59997558594</ele>
        <time>2022-03-04T14:09:34Z</time>
      </trkpt>
      <trkpt lat="45.37424" lon="4.67087">
        <ele>595</ele>
        <time>2022-03-04T14:09:39Z</time>
      </trkpt>
      <trkpt lat="45.37462" lon="4.67093">
        <ele>592</ele>
        <time>2022-03-04T14:09:45Z</time>
      </trkpt>
      <trkpt lat="45.37473" lon="4.67095">
        <ele>591.40002441406</ele>
        <time>2022-03-04T14:09:47Z</time>
      </trkpt>
      <trkpt lat="45.37486" lon="4.67103">
        <ele>588.20001220703</ele>
        <time>2022-03-04T14:09:51Z</time>
      </trkpt>
      <trkpt lat="45.37487" lon="4.67104">
        <ele>588</ele>
        <time>2022-03-04T14:09:52Z</time>
      </trkpt>
      <trkpt lat="45.37495" lon="4.67104">
        <ele>585.40002441406</ele>
        <time>2022-03-04T14:09:58Z</time>
      </trkpt>
      <trkpt lat="45.37498" lon="4.67103">
        <ele>583.79998779297</ele>
        <time>2022-03-04T14:10:04Z</time>
      </trkpt>
      <trkpt lat="45.375" lon="4.671">
        <ele>583.59997558594</ele>
        <time>2022-03-04T14:10:06Z</time>
      </trkpt>
      <trkpt lat="45.37532" lon="4.67079">
        <ele>580.79998779297</ele>
        <time>2022-03-04T14:10:16Z</time>
      </trkpt>
      <trkpt lat="45.37543" lon="4.67073">
        <ele>579</ele>
        <time>2022-03-04T14:10:19Z</time>
      </trkpt>
      <trkpt lat="45.37567" lon="4.67065">
        <ele>577</ele>
        <time>2022-03-04T14:10:24Z</time>
      </trkpt>
      <trkpt lat="45.37578" lon="4.67057">
        <ele>573.59997558594</ele>
        <time>2022-03-04T14:10:29Z</time>
      </trkpt>
      <trkpt lat="45.37582" lon="4.67053">
        <ele>570.20001220703</ele>
        <time>2022-03-04T14:10:35Z</time>
      </trkpt>
      <trkpt lat="45.37602" lon="4.67045">
        <ele>567.20001220703</ele>
        <time>2022-03-04T14:11:06Z</time>
      </trkpt>
      <trkpt lat="45.3761" lon="4.67043">
        <ele>566</ele>
        <time>2022-03-04T14:11:09Z</time>
      </trkpt>
      <trkpt lat="45.37614" lon="4.67044">
        <ele>565.79998779297</ele>
        <time>2022-03-04T14:11:10Z</time>
      </trkpt>
      <trkpt lat="45.37635" lon="4.67046">
        <ele>563.59997558594</ele>
        <time>2022-03-04T14:11:15Z</time>
      </trkpt>
      <trkpt lat="45.37653" lon="4.67054">
        <ele>563</ele>
        <time>2022-03-04T14:11:20Z</time>
      </trkpt>
      <trkpt lat="45.37679" lon="4.67067">
        <ele>561.79998779297</ele>
        <time>2022-03-04T14:11:25Z</time>
      </trkpt>
      <trkpt lat="45.37691" lon="4.67068">
        <ele>561</ele>
        <time>2022-03-04T14:11:30Z</time>
      </trkpt>
      <trkpt lat="45.37705" lon="4.67066">
        <ele>561.40002441406</ele>
        <time>2022-03-04T14:11:39Z</time>
      </trkpt>
      <trkpt lat="45.37718" lon="4.67075">
        <ele>562.40002441406</ele>
        <time>2022-03-04T14:11:46Z</time>
      </trkpt>
      <trkpt lat="45.37747" lon="4.67098">
        <ele>561.40002441406</ele>
        <time>2022-03-04T14:11:53Z</time>
      </trkpt>
      <trkpt lat="45.37751" lon="4.67102">
        <ele>561.20001220703</ele>
        <time>2022-03-04T14:11:54Z</time>
      </trkpt>
      <trkpt lat="45.3777" lon="4.67122">
        <ele>558</ele>
        <time>2022-03-04T14:12:01Z</time>
      </trkpt>
      <trkpt lat="45.37786" lon="4.67138">
        <ele>554.20001220703</ele>
        <time>2022-03-04T14:12:07Z</time>
      </trkpt>
      <trkpt lat="45.37791" lon="4.67139">
        <ele>553</ele>
        <time>2022-03-04T14:12:09Z</time>
      </trkpt>
      <trkpt lat="45.37794" lon="4.67141">
        <ele>552.40002441406</ele>
        <time>2022-03-04T14:12:10Z</time>
      </trkpt>
      <trkpt lat="45.37812" lon="4.67155">
        <ele>551.40002441406</ele>
        <time>2022-03-04T14:12:17Z</time>
      </trkpt>
      <trkpt lat="45.37827" lon="4.6716">
        <ele>550.79998779297</ele>
        <time>2022-03-04T14:12:21Z</time>
      </trkpt>
      <trkpt lat="45.37864" lon="4.67168">
        <ele>550</ele>
        <time>2022-03-04T14:12:31Z</time>
      </trkpt>
      <trkpt lat="45.37889" lon="4.67176">
        <ele>549.20001220703</ele>
        <time>2022-03-04T14:12:38Z</time>
      </trkpt>
      <trkpt lat="45.37913" lon="4.67175">
        <ele>548.40002441406</ele>
        <time>2022-03-04T14:12:44Z</time>
      </trkpt>
      <trkpt lat="45.37947" lon="4.67176">
        <ele>547.40002441406</ele>
        <time>2022-03-04T14:12:50Z</time>
      </trkpt>
      <trkpt lat="45.37988" lon="4.67178">
        <ele>547</ele>
        <time>2022-03-04T14:12:57Z</time>
      </trkpt>
      <trkpt lat="45.38" lon="4.67182">
        <ele>546.79998779297</ele>
        <time>2022-03-04T14:13:01Z</time>
      </trkpt>
      <trkpt lat="45.38015" lon="4.672">
        <ele>546.59997558594</ele>
        <time>2022-03-04T14:13:05Z</time>
      </trkpt>
      <trkpt lat="45.38027" lon="4.6723">
        <ele>544.59997558594</ele>
        <time>2022-03-04T14:13:12Z</time>
      </trkpt>
      <trkpt lat="45.38035" lon="4.67244">
        <ele>542.59997558594</ele>
        <time>2022-03-04T14:13:15Z</time>
      </trkpt>
      <trkpt lat="45.38037" lon="4.6725">
        <ele>542.40002441406</ele>
        <time>2022-03-04T14:13:16Z</time>
      </trkpt>
      <trkpt lat="45.38042" lon="4.67288">
        <ele>540.40002441406</ele>
        <time>2022-03-04T14:13:22Z</time>
      </trkpt>
      <trkpt lat="45.38048" lon="4.67324">
        <ele>536.59997558594</ele>
        <time>2022-03-04T14:13:27Z</time>
      </trkpt>
      <trkpt lat="45.38053" lon="4.67331">
        <ele>536.20001220703</ele>
        <time>2022-03-04T14:13:28Z</time>
      </trkpt>
      <trkpt lat="45.38057" lon="4.67343">
        <ele>535.20001220703</ele>
        <time>2022-03-04T14:13:30Z</time>
      </trkpt>
      <trkpt lat="45.38059" lon="4.67351">
        <ele>534</ele>
        <time>2022-03-04T14:13:31Z</time>
      </trkpt>
      <trkpt lat="45.38067" lon="4.67366">
        <ele>530.79998779297</ele>
        <time>2022-03-04T14:13:35Z</time>
      </trkpt>
      <trkpt lat="45.38072" lon="4.67371">
        <ele>528.79998779297</ele>
        <time>2022-03-04T14:13:37Z</time>
      </trkpt>
      <trkpt lat="45.3808" lon="4.67375">
        <ele>527.40002441406</ele>
        <time>2022-03-04T14:13:39Z</time>
      </trkpt>
      <trkpt lat="45.38093" lon="4.67387">
        <ele>525.40002441406</ele>
        <time>2022-03-04T14:13:42Z</time>
      </trkpt>
      <trkpt lat="45.38096" lon="4.67391">
        <ele>524.59997558594</ele>
        <time>2022-03-04T14:13:43Z</time>
      </trkpt>
      <trkpt lat="45.38107" lon="4.67409">
        <ele>522.59997558594</ele>
        <time>2022-03-04T14:13:46Z</time>
      </trkpt>
      <trkpt lat="45.38137" lon="4.67445">
        <ele>518.79998779297</ele>
        <time>2022-03-04T14:13:52Z</time>
      </trkpt>
      <trkpt lat="45.38155" lon="4.67477">
        <ele>516</ele>
        <time>2022-03-04T14:13:56Z</time>
      </trkpt>
      <trkpt lat="45.38157" lon="4.67507">
        <ele>512.40002441406</ele>
        <time>2022-03-04T14:14:00Z</time>
      </trkpt>
      <trkpt lat="45.38168" lon="4.67539">
        <ele>508.39999389648</ele>
        <time>2022-03-04T14:14:04Z</time>
      </trkpt>
      <trkpt lat="45.38176" lon="4.67551">
        <ele>506.20001220703</ele>
        <time>2022-03-04T14:14:06Z</time>
      </trkpt>
      <trkpt lat="45.38176" lon="4.67566">
        <ele>504.20001220703</ele>
        <time>2022-03-04T14:14:09Z</time>
      </trkpt>
      <trkpt lat="45.38174" lon="4.67572">
        <ele>502</ele>
        <time>2022-03-04T14:14:10Z</time>
      </trkpt>
      <trkpt lat="45.38159" lon="4.67613">
        <ele>498</ele>
        <time>2022-03-04T14:14:15Z</time>
      </trkpt>
      <trkpt lat="45.38152" lon="4.67636">
        <ele>496</ele>
        <time>2022-03-04T14:14:18Z</time>
      </trkpt>
      <trkpt lat="45.38156" lon="4.6765">
        <ele>493</ele>
        <time>2022-03-04T14:14:21Z</time>
      </trkpt>
      <trkpt lat="45.38162" lon="4.67653">
        <ele>491.39999389648</ele>
        <time>2022-03-04T14:14:23Z</time>
      </trkpt>
      <trkpt lat="45.38186" lon="4.67671">
        <ele>488.39999389648</ele>
        <time>2022-03-04T14:14:32Z</time>
      </trkpt>
      <trkpt lat="45.38192" lon="4.67707">
        <ele>487</ele>
        <time>2022-03-04T14:14:39Z</time>
      </trkpt>
      <trkpt lat="45.3818" lon="4.67727">
        <ele>483.60000610352</ele>
        <time>2022-03-04T14:14:45Z</time>
      </trkpt>
      <trkpt lat="45.38172" lon="4.67735">
        <ele>482.79998779297</ele>
        <time>2022-03-04T14:14:47Z</time>
      </trkpt>
      <trkpt lat="45.38147" lon="4.67753">
        <ele>479.79998779297</ele>
        <time>2022-03-04T14:14:52Z</time>
      </trkpt>
      <trkpt lat="45.38137" lon="4.67774">
        <ele>476.79998779297</ele>
        <time>2022-03-04T14:14:55Z</time>
      </trkpt>
      <trkpt lat="45.38126" lon="4.67798">
        <ele>475.60000610352</ele>
        <time>2022-03-04T14:14:58Z</time>
      </trkpt>
      <trkpt lat="45.38116" lon="4.67814">
        <ele>474.39999389648</ele>
        <time>2022-03-04T14:15:00Z</time>
      </trkpt>
      <trkpt lat="45.38101" lon="4.67826">
        <ele>472.39999389648</ele>
        <time>2022-03-04T14:15:03Z</time>
      </trkpt>
      <trkpt lat="45.38089" lon="4.67825">
        <ele>471</ele>
        <time>2022-03-04T14:15:05Z</time>
      </trkpt>
      <trkpt lat="45.38084" lon="4.67823">
        <ele>470</ele>
        <time>2022-03-04T14:15:06Z</time>
      </trkpt>
      <trkpt lat="45.38073" lon="4.67828">
        <ele>467</ele>
        <time>2022-03-04T14:15:09Z</time>
      </trkpt>
      <trkpt lat="45.38071" lon="4.67833">
        <ele>466.79998779297</ele>
        <time>2022-03-04T14:15:10Z</time>
      </trkpt>
      <trkpt lat="45.38059" lon="4.6787">
        <ele>465.60000610352</ele>
        <time>2022-03-04T14:15:15Z</time>
      </trkpt>
      <trkpt lat="45.38045" lon="4.67923">
        <ele>463.20001220703</ele>
        <time>2022-03-04T14:15:20Z</time>
      </trkpt>
      <trkpt lat="45.38039" lon="4.67943">
        <ele>461.79998779297</ele>
        <time>2022-03-04T14:15:22Z</time>
      </trkpt>
      <trkpt lat="45.38026" lon="4.67968">
        <ele>458.20001220703</ele>
        <time>2022-03-04T14:15:26Z</time>
      </trkpt>
      <trkpt lat="45.38022" lon="4.67971">
        <ele>456.39999389648</ele>
        <time>2022-03-04T14:15:27Z</time>
      </trkpt>
      <trkpt lat="45.37997" lon="4.6799">
        <ele>454.20001220703</ele>
        <time>2022-03-04T14:15:35Z</time>
      </trkpt>
      <trkpt lat="45.37948" lon="4.68028">
        <ele>453.60000610352</ele>
        <time>2022-03-04T14:15:45Z</time>
      </trkpt>
      <trkpt lat="45.37936" lon="4.68038">
        <ele>453</ele>
        <time>2022-03-04T14:15:47Z</time>
      </trkpt>
      <trkpt lat="45.37899" lon="4.68058">
        <ele>450.20001220703</ele>
        <time>2022-03-04T14:15:53Z</time>
      </trkpt>
      <trkpt lat="45.37894" lon="4.68058">
        <ele>450</ele>
        <time>2022-03-04T14:15:54Z</time>
      </trkpt>
      <trkpt lat="45.37855" lon="4.68057">
        <ele>447.39999389648</ele>
        <time>2022-03-04T14:15:59Z</time>
      </trkpt>
      <trkpt lat="45.37802" lon="4.6806">
        <ele>444.79998779297</ele>
        <time>2022-03-04T14:16:05Z</time>
      </trkpt>
      <trkpt lat="45.37735" lon="4.68074">
        <ele>441.79998779297</ele>
        <time>2022-03-04T14:16:14Z</time>
      </trkpt>
      <trkpt lat="45.37728" lon="4.68076">
        <ele>441.79998779297</ele>
        <time>2022-03-04T14:16:15Z</time>
      </trkpt>
      <trkpt lat="45.37697" lon="4.68093">
        <ele>439.79998779297</ele>
        <time>2022-03-04T14:16:20Z</time>
      </trkpt>
      <trkpt lat="45.37672" lon="4.68116">
        <ele>436.79998779297</ele>
        <time>2022-03-04T14:16:25Z</time>
      </trkpt>
      <trkpt lat="45.37664" lon="4.68124">
        <ele>433</ele>
        <time>2022-03-04T14:16:29Z</time>
      </trkpt>
      <trkpt lat="45.37642" lon="4.68161">
        <ele>430.60000610352</ele>
        <time>2022-03-04T14:16:37Z</time>
      </trkpt>
      <trkpt lat="45.37635" lon="4.68183">
        <ele>429.20001220703</ele>
        <time>2022-03-04T14:16:40Z</time>
      </trkpt>
      <trkpt lat="45.37635" lon="4.68189">
        <ele>428.39999389648</ele>
        <time>2022-03-04T14:16:41Z</time>
      </trkpt>
      <trkpt lat="45.37634" lon="4.682">
        <ele>425.79998779297</ele>
        <time>2022-03-04T14:16:49Z</time>
      </trkpt>
      <trkpt lat="45.37634" lon="4.68201">
        <ele>424.20001220703</ele>
        <time>2022-03-04T14:17:20Z</time>
      </trkpt>
      <trkpt lat="45.37645" lon="4.6821">
        <ele>424</ele>
        <time>2022-03-04T14:17:25Z</time>
      </trkpt>
      <trkpt lat="45.37716" lon="4.68241">
        <ele>422.79998779297</ele>
        <time>2022-03-04T14:17:40Z</time>
      </trkpt>
      <trkpt lat="45.37765" lon="4.68266">
        <ele>421.60000610352</ele>
        <time>2022-03-04T14:17:48Z</time>
      </trkpt>
      <trkpt lat="45.37838" lon="4.68314">
        <ele>418.20001220703</ele>
        <time>2022-03-04T14:18:00Z</time>
      </trkpt>
      <trkpt lat="45.37843" lon="4.68317">
        <ele>418</ele>
        <time>2022-03-04T14:18:01Z</time>
      </trkpt>
      <trkpt lat="45.37889" lon="4.68342">
        <ele>417.20001220703</ele>
        <time>2022-03-04T14:18:12Z</time>
      </trkpt>
      <trkpt lat="45.37907" lon="4.68374">
        <ele>417.79998779297</ele>
        <time>2022-03-04T14:18:18Z</time>
      </trkpt>
      <trkpt lat="45.37941" lon="4.68416">
        <ele>417</ele>
        <time>2022-03-04T14:18:25Z</time>
      </trkpt>
      <trkpt lat="45.37999" lon="4.68472">
        <ele>413.39999389648</ele>
        <time>2022-03-04T14:18:34Z</time>
      </trkpt>
      <trkpt lat="45.38066" lon="4.68549">
        <ele>412.39999389648</ele>
        <time>2022-03-04T14:18:47Z</time>
      </trkpt>
      <trkpt lat="45.38091" lon="4.68601">
        <ele>412.60000610352</ele>
        <time>2022-03-04T14:18:54Z</time>
      </trkpt>
      <trkpt lat="45.38167" lon="4.68686">
        <ele>408.79998779297</ele>
        <time>2022-03-04T14:19:08Z</time>
      </trkpt>
      <trkpt lat="45.38179" lon="4.68705">
        <ele>407.79998779297</ele>
        <time>2022-03-04T14:19:11Z</time>
      </trkpt>
      <trkpt lat="45.38202" lon="4.68745">
        <ele>406</ele>
        <time>2022-03-04T14:19:16Z</time>
      </trkpt>
      <trkpt lat="45.38223" lon="4.68798">
        <ele>402.60000610352</ele>
        <time>2022-03-04T14:19:21Z</time>
      </trkpt>
      <trkpt lat="45.38228" lon="4.68807">
        <ele>402.39999389648</ele>
        <time>2022-03-04T14:19:22Z</time>
      </trkpt>
      <trkpt lat="45.38254" lon="4.68828">
        <ele>399</ele>
        <time>2022-03-04T14:19:27Z</time>
      </trkpt>
      <trkpt lat="45.38265" lon="4.68846">
        <ele>396.60000610352</ele>
        <time>2022-03-04T14:19:30Z</time>
      </trkpt>
      <trkpt lat="45.38272" lon="4.68864">
        <ele>395.79998779297</ele>
        <time>2022-03-04T14:19:32Z</time>
      </trkpt>
      <trkpt lat="45.38293" lon="4.68891">
        <ele>393.60000610352</ele>
        <time>2022-03-04T14:19:36Z</time>
      </trkpt>
      <trkpt lat="45.38313" lon="4.68911">
        <ele>392.39999389648</ele>
        <time>2022-03-04T14:19:40Z</time>
      </trkpt>
      <trkpt lat="45.3839" lon="4.69011">
        <ele>391.39999389648</ele>
        <time>2022-03-04T14:19:57Z</time>
      </trkpt>
      <trkpt lat="45.38395" lon="4.69018">
        <ele>391.39999389648</ele>
        <time>2022-03-04T14:19:58Z</time>
      </trkpt>
      <trkpt lat="45.38409" lon="4.6905">
        <ele>390.39999389648</ele>
        <time>2022-03-04T14:20:02Z</time>
      </trkpt>
      <trkpt lat="45.38432" lon="4.69142">
        <ele>388.79998779297</ele>
        <time>2022-03-04T14:20:13Z</time>
      </trkpt>
      <trkpt lat="45.38473" lon="4.69244">
        <ele>389.39999389648</ele>
        <time>2022-03-04T14:20:28Z</time>
      </trkpt>
      <trkpt lat="45.38493" lon="4.69272">
        <ele>389.60000610352</ele>
        <time>2022-03-04T14:20:36Z</time>
      </trkpt>
      <trkpt lat="45.38511" lon="4.69291">
        <ele>390</ele>
        <time>2022-03-04T14:20:41Z</time>
      </trkpt>
      <trkpt lat="45.38537" lon="4.69318">
        <ele>391.39999389648</ele>
        <time>2022-03-04T14:20:48Z</time>
      </trkpt>
      <trkpt lat="45.38564" lon="4.69355">
        <ele>392.20001220703</ele>
        <time>2022-03-04T14:20:59Z</time>
      </trkpt>
      <trkpt lat="45.38599" lon="4.6941">
        <ele>393.79998779297</ele>
        <time>2022-03-04T14:21:13Z</time>
      </trkpt>
      <trkpt lat="45.38621" lon="4.69442">
        <ele>394.39999389648</ele>
        <time>2022-03-04T14:21:21Z</time>
      </trkpt>
      <trkpt lat="45.38629" lon="4.69455">
        <ele>394.79998779297</ele>
        <time>2022-03-04T14:21:25Z</time>
      </trkpt>
      <trkpt lat="45.38627" lon="4.69474">
        <ele>395.20001220703</ele>
        <time>2022-03-04T14:21:29Z</time>
      </trkpt>
      <trkpt lat="45.38624" lon="4.6949">
        <ele>395.39999389648</ele>
        <time>2022-03-04T14:21:32Z</time>
      </trkpt>
      <trkpt lat="45.38624" lon="4.69527">
        <ele>393.79998779297</ele>
        <time>2022-03-04T14:21:40Z</time>
      </trkpt>
      <trkpt lat="45.38623" lon="4.6953">
        <ele>393.39999389648</ele>
        <time>2022-03-04T14:21:43Z</time>
      </trkpt>
      <trkpt lat="45.38644" lon="4.69533">
        <ele>393.20001220703</ele>
        <time>2022-03-04T14:21:50Z</time>
      </trkpt>
      <trkpt lat="45.38656" lon="4.69575">
        <ele>393.20001220703</ele>
        <time>2022-03-04T14:22:00Z</time>
      </trkpt>
      <trkpt lat="45.38653" lon="4.69602">
        <ele>392.60000610352</ele>
        <time>2022-03-04T14:22:04Z</time>
      </trkpt>
      <trkpt lat="45.3865" lon="4.69631">
        <ele>392.20001220703</ele>
        <time>2022-03-04T14:22:08Z</time>
      </trkpt>
      <trkpt lat="45.3865" lon="4.69687">
        <ele>391</ele>
        <time>2022-03-04T14:22:14Z</time>
      </trkpt>
      <trkpt lat="45.38647" lon="4.69723">
        <ele>389.79998779297</ele>
        <time>2022-03-04T14:22:18Z</time>
      </trkpt>
      <trkpt lat="45.38639" lon="4.6975">
        <ele>388.60000610352</ele>
        <time>2022-03-04T14:22:21Z</time>
      </trkpt>
      <trkpt lat="45.38628" lon="4.69782">
        <ele>385.79998779297</ele>
        <time>2022-03-04T14:22:24Z</time>
      </trkpt>
      <trkpt lat="45.38608" lon="4.69856">
        <ele>382.79998779297</ele>
        <time>2022-03-04T14:22:30Z</time>
      </trkpt>
      <trkpt lat="45.38592" lon="4.6993">
        <ele>379.20001220703</ele>
        <time>2022-03-04T14:22:36Z</time>
      </trkpt>
      <trkpt lat="45.3858" lon="4.69987">
        <ele>376</ele>
        <time>2022-03-04T14:22:41Z</time>
      </trkpt>
      <trkpt lat="45.38574" lon="4.70017">
        <ele>374.39999389648</ele>
        <time>2022-03-04T14:22:44Z</time>
      </trkpt>
      <trkpt lat="45.3857" lon="4.70037">
        <ele>374.20001220703</ele>
        <time>2022-03-04T14:22:46Z</time>
      </trkpt>
      <trkpt lat="45.3855" lon="4.70103">
        <ele>372.39999389648</ele>
        <time>2022-03-04T14:22:56Z</time>
      </trkpt>
      <trkpt lat="45.38548" lon="4.70107">
        <ele>371.79998779297</ele>
        <time>2022-03-04T14:22:59Z</time>
      </trkpt>
      <trkpt lat="45.38572" lon="4.70123">
        <ele>370.39999389648</ele>
        <time>2022-03-04T14:23:08Z</time>
      </trkpt>
      <trkpt lat="45.38599" lon="4.7015">
        <ele>369</ele>
        <time>2022-03-04T14:23:14Z</time>
      </trkpt>
      <trkpt lat="45.38604" lon="4.70154">
        <ele>368.79998779297</ele>
        <time>2022-03-04T14:23:15Z</time>
      </trkpt>
      <trkpt lat="45.38667" lon="4.70191">
        <ele>366.60000610352</ele>
        <time>2022-03-04T14:23:26Z</time>
      </trkpt>
      <trkpt lat="45.38677" lon="4.70213">
        <ele>365.20001220703</ele>
        <time>2022-03-04T14:23:30Z</time>
      </trkpt>
      <trkpt lat="45.38694" lon="4.70255">
        <ele>363.79998779297</ele>
        <time>2022-03-04T14:23:36Z</time>
      </trkpt>
      <trkpt lat="45.38708" lon="4.70282">
        <ele>360.79998779297</ele>
        <time>2022-03-04T14:23:42Z</time>
      </trkpt>
      <trkpt lat="45.38727" lon="4.70306">
        <ele>357.20001220703</ele>
        <time>2022-03-04T14:23:48Z</time>
      </trkpt>
      <trkpt lat="45.38737" lon="4.70325">
        <ele>355.20001220703</ele>
        <time>2022-03-04T14:23:53Z</time>
      </trkpt>
      <trkpt lat="45.3875" lon="4.70344">
        <ele>352</ele>
        <time>2022-03-04T14:23:57Z</time>
      </trkpt>
      <trkpt lat="45.38753" lon="4.70349">
        <ele>351.79998779297</ele>
        <time>2022-03-04T14:23:58Z</time>
      </trkpt>
      <trkpt lat="45.38763" lon="4.70365">
        <ele>348.79998779297</ele>
        <time>2022-03-04T14:24:01Z</time>
      </trkpt>
      <trkpt lat="45.38769" lon="4.70377">
        <ele>345.20001220703</ele>
        <time>2022-03-04T14:24:04Z</time>
      </trkpt>
      <trkpt lat="45.38784" lon="4.70398">
        <ele>342.20001220703</ele>
        <time>2022-03-04T14:24:08Z</time>
      </trkpt>
      <trkpt lat="45.38795" lon="4.70421">
        <ele>338.20001220703</ele>
        <time>2022-03-04T14:24:13Z</time>
      </trkpt>
      <trkpt lat="45.38798" lon="4.70429">
        <ele>336.39999389648</ele>
        <time>2022-03-04T14:24:15Z</time>
      </trkpt>
      <trkpt lat="45.38797" lon="4.70437">
        <ele>334.39999389648</ele>
        <time>2022-03-04T14:24:17Z</time>
      </trkpt>
      <trkpt lat="45.38795" lon="4.70447">
        <ele>333.20001220703</ele>
        <time>2022-03-04T14:24:19Z</time>
      </trkpt>
      <trkpt lat="45.38791" lon="4.70478">
        <ele>329.39999389648</ele>
        <time>2022-03-04T14:24:27Z</time>
      </trkpt>
      <trkpt lat="45.38789" lon="4.70482">
        <ele>329.20001220703</ele>
        <time>2022-03-04T14:24:28Z</time>
      </trkpt>
      <trkpt lat="45.38788" lon="4.70488">
        <ele>328</ele>
        <time>2022-03-04T14:24:30Z</time>
      </trkpt>
      <trkpt lat="45.38786" lon="4.705">
        <ele>325</ele>
        <time>2022-03-04T14:24:34Z</time>
      </trkpt>
      <trkpt lat="45.38785" lon="4.70523">
        <ele>321.39999389648</ele>
        <time>2022-03-04T14:24:39Z</time>
      </trkpt>
      <trkpt lat="45.38781" lon="4.70533">
        <ele>319.79998779297</ele>
        <time>2022-03-04T14:24:42Z</time>
      </trkpt>
      <trkpt lat="45.38786" lon="4.70549">
        <ele>316.60000610352</ele>
        <time>2022-03-04T14:24:46Z</time>
      </trkpt>
      <trkpt lat="45.38782" lon="4.70559">
        <ele>315</ele>
        <time>2022-03-04T14:24:50Z</time>
      </trkpt>
      <trkpt lat="45.38776" lon="4.70573">
        <ele>312.39999389648</ele>
        <time>2022-03-04T14:24:59Z</time>
      </trkpt>
      <trkpt lat="45.38777" lon="4.7057">
        <ele>311.79998779297</ele>
        <time>2022-03-04T14:25:11Z</time>
      </trkpt>
      <trkpt lat="45.38776" lon="4.70571">
        <ele>312.20001220703</ele>
        <time>2022-03-04T14:25:21Z</time>
      </trkpt>
      <trkpt lat="45.38774" lon="4.70574">
        <ele>312.20001220703</ele>
        <time>2022-03-04T14:25:24Z</time>
      </trkpt>
      <trkpt lat="45.38773" lon="4.7058">
        <ele>312.39999389648</ele>
        <time>2022-03-04T14:25:26Z</time>
      </trkpt>
      <trkpt lat="45.38767" lon="4.70587">
        <ele>312.20001220703</ele>
        <time>2022-03-04T14:25:29Z</time>
      </trkpt>
      <trkpt lat="45.38752" lon="4.70606">
        <ele>312</ele>
        <time>2022-03-04T14:25:36Z</time>
      </trkpt>
      <trkpt lat="45.38741" lon="4.70641">
        <ele>311.39999389648</ele>
        <time>2022-03-04T14:25:44Z</time>
      </trkpt>
      <trkpt lat="45.38718" lon="4.70681">
        <ele>309.60000610352</ele>
        <time>2022-03-04T14:25:54Z</time>
      </trkpt>
      <trkpt lat="45.38715" lon="4.70692">
        <ele>309</ele>
        <time>2022-03-04T14:25:56Z</time>
      </trkpt>
      <trkpt lat="45.38714" lon="4.70697">
        <ele>308.79998779297</ele>
        <time>2022-03-04T14:25:57Z</time>
      </trkpt>
      <trkpt lat="45.38701" lon="4.70737">
        <ele>307.79998779297</ele>
        <time>2022-03-04T14:26:04Z</time>
      </trkpt>
      <trkpt lat="45.38705" lon="4.70748">
        <ele>307.60000610352</ele>
        <time>2022-03-04T14:26:06Z</time>
      </trkpt>
      <trkpt lat="45.38699" lon="4.70778">
        <ele>306.39999389648</ele>
        <time>2022-03-04T14:26:12Z</time>
      </trkpt>
      <trkpt lat="45.38698" lon="4.7079">
        <ele>306.20001220703</ele>
        <time>2022-03-04T14:26:15Z</time>
      </trkpt>
      <trkpt lat="45.38694" lon="4.70806">
        <ele>306.20001220703</ele>
        <time>2022-03-04T14:26:18Z</time>
      </trkpt>
      <trkpt lat="45.38693" lon="4.70837">
        <ele>306.20001220703</ele>
        <time>2022-03-04T14:26:22Z</time>
      </trkpt>
      <trkpt lat="45.38682" lon="4.70893">
        <ele>305.20001220703</ele>
        <time>2022-03-04T14:26:28Z</time>
      </trkpt>
      <trkpt lat="45.38637" lon="4.70962">
        <ele>302.39999389648</ele>
        <time>2022-03-04T14:26:36Z</time>
      </trkpt>
      <trkpt lat="45.38617" lon="4.70995">
        <ele>300</ele>
        <time>2022-03-04T14:26:42Z</time>
      </trkpt>
      <trkpt lat="45.38616" lon="4.70998">
        <ele>299.60000610352</ele>
        <time>2022-03-04T14:26:43Z</time>
      </trkpt>
      <trkpt lat="45.38615" lon="4.71002">
        <ele>299.20001220703</ele>
        <time>2022-03-04T14:26:45Z</time>
      </trkpt>
      <trkpt lat="45.38613" lon="4.71003">
        <ele>298.60000610352</ele>
        <time>2022-03-04T14:26:49Z</time>
      </trkpt>
      <trkpt lat="45.38605" lon="4.7105">
        <ele>297.79998779297</ele>
        <time>2022-03-04T14:26:59Z</time>
      </trkpt>
      <trkpt lat="45.38604" lon="4.71066">
        <ele>296.60000610352</ele>
        <time>2022-03-04T14:27:03Z</time>
      </trkpt>
      <trkpt lat="45.38602" lon="4.71073">
        <ele>295.79998779297</ele>
        <time>2022-03-04T14:27:08Z</time>
      </trkpt>
      <trkpt lat="45.38603" lon="4.71084">
        <ele>295.39999389648</ele>
        <time>2022-03-04T14:27:11Z</time>
      </trkpt>
      <trkpt lat="45.38601" lon="4.71089">
        <ele>294.60000610352</ele>
        <time>2022-03-04T14:27:25Z</time>
      </trkpt>
      <trkpt lat="45.38601" lon="4.71089">
        <ele>294.39999389648</ele>
        <time>2022-03-04T14:27:49Z</time>
      </trkpt>
      <trkpt lat="45.38598" lon="4.71117">
        <ele>294.39999389648</ele>
        <time>2022-03-04T14:27:55Z</time>
      </trkpt>
      <trkpt lat="45.38608" lon="4.71138">
        <ele>294.20001220703</ele>
        <time>2022-03-04T14:27:59Z</time>
      </trkpt>
      <trkpt lat="45.38611" lon="4.71143">
        <ele>294</ele>
        <time>2022-03-04T14:28:00Z</time>
      </trkpt>
      <trkpt lat="45.38621" lon="4.71177">
        <ele>293.60000610352</ele>
        <time>2022-03-04T14:28:06Z</time>
      </trkpt>
      <trkpt lat="45.3863" lon="4.71191">
        <ele>293.60000610352</ele>
        <time>2022-03-04T14:28:08Z</time>
      </trkpt>
      <trkpt lat="45.38644" lon="4.71214">
        <ele>293.20001220703</ele>
        <time>2022-03-04T14:28:11Z</time>
      </trkpt>
      <trkpt lat="45.38658" lon="4.71228">
        <ele>292</ele>
        <time>2022-03-04T14:28:14Z</time>
      </trkpt>
      <trkpt lat="45.38668" lon="4.71249">
        <ele>291.39999389648</ele>
        <time>2022-03-04T14:28:18Z</time>
      </trkpt>
      <trkpt lat="45.38674" lon="4.71265">
        <ele>291</ele>
        <time>2022-03-04T14:28:22Z</time>
      </trkpt>
      <trkpt lat="45.3866" lon="4.71293">
        <ele>290.79998779297</ele>
        <time>2022-03-04T14:28:28Z</time>
      </trkpt>
      <trkpt lat="45.38655" lon="4.71298">
        <ele>290.79998779297</ele>
        <time>2022-03-04T14:28:29Z</time>
      </trkpt>
      <trkpt lat="45.3865" lon="4.71302">
        <ele>290.60000610352</ele>
        <time>2022-03-04T14:28:30Z</time>
      </trkpt>
      <trkpt lat="45.38644" lon="4.71319">
        <ele>289.79998779297</ele>
        <time>2022-03-04T14:28:33Z</time>
      </trkpt>
      <trkpt lat="45.38617" lon="4.71359">
        <ele>288</ele>
        <time>2022-03-04T14:28:39Z</time>
      </trkpt>
      <trkpt lat="45.3862" lon="4.71392">
        <ele>287.39999389648</ele>
        <time>2022-03-04T14:28:43Z</time>
      </trkpt>
      <trkpt lat="45.38626" lon="4.71407">
        <ele>287.20001220703</ele>
        <time>2022-03-04T14:28:45Z</time>
      </trkpt>
      <trkpt lat="45.38639" lon="4.71441">
        <ele>287.20001220703</ele>
        <time>2022-03-04T14:28:48Z</time>
      </trkpt>
      <trkpt lat="45.38636" lon="4.71481">
        <ele>287.60000610352</ele>
        <time>2022-03-04T14:28:53Z</time>
      </trkpt>
      <trkpt lat="45.38609" lon="4.71511">
        <ele>287.60000610352</ele>
        <time>2022-03-04T14:28:58Z</time>
      </trkpt>
      <trkpt lat="45.38589" lon="4.71532">
        <ele>286.60000610352</ele>
        <time>2022-03-04T14:29:04Z</time>
      </trkpt>
      <trkpt lat="45.38557" lon="4.71591">
        <ele>285.39999389648</ele>
        <time>2022-03-04T14:29:15Z</time>
      </trkpt>
      <trkpt lat="45.38553" lon="4.71598">
        <ele>285.39999389648</ele>
        <time>2022-03-04T14:29:16Z</time>
      </trkpt>
      <trkpt lat="45.38544" lon="4.71614">
        <ele>285.20001220703</ele>
        <time>2022-03-04T14:29:18Z</time>
      </trkpt>
      <trkpt lat="45.38548" lon="4.71658">
        <ele>284.79998779297</ele>
        <time>2022-03-04T14:29:24Z</time>
      </trkpt>
      <trkpt lat="45.38557" lon="4.71702">
        <ele>284.20001220703</ele>
        <time>2022-03-04T14:29:29Z</time>
      </trkpt>
      <trkpt lat="45.38569" lon="4.71749">
        <ele>284.20001220703</ele>
        <time>2022-03-04T14:29:34Z</time>
      </trkpt>
      <trkpt lat="45.38563" lon="4.71809">
        <ele>283.79998779297</ele>
        <time>2022-03-04T14:29:40Z</time>
      </trkpt>
      <trkpt lat="45.3856" lon="4.71839">
        <ele>284</ele>
        <time>2022-03-04T14:29:45Z</time>
      </trkpt>
      <trkpt lat="45.38551" lon="4.71867">
        <ele>284.20001220703</ele>
        <time>2022-03-04T14:29:51Z</time>
      </trkpt>
      <trkpt lat="45.38547" lon="4.71872">
        <ele>284.20001220703</ele>
        <time>2022-03-04T14:29:52Z</time>
      </trkpt>
      <trkpt lat="45.38538" lon="4.71903">
        <ele>284.20001220703</ele>
        <time>2022-03-04T14:29:57Z</time>
      </trkpt>
      <trkpt lat="45.3854" lon="4.71926">
        <ele>284</ele>
        <time>2022-03-04T14:30:00Z</time>
      </trkpt>
      <trkpt lat="45.38534" lon="4.71978">
        <ele>283.20001220703</ele>
        <time>2022-03-04T14:30:05Z</time>
      </trkpt>
      <trkpt lat="45.38531" lon="4.72001">
        <ele>282.60000610352</ele>
        <time>2022-03-04T14:30:07Z</time>
      </trkpt>
      <trkpt lat="45.38521" lon="4.72075">
        <ele>279.39999389648</ele>
        <time>2022-03-04T14:30:13Z</time>
      </trkpt>
      <trkpt lat="45.38515" lon="4.72115">
        <ele>276.39999389648</ele>
        <time>2022-03-04T14:30:17Z</time>
      </trkpt>
      <trkpt lat="45.38509" lon="4.72145">
        <ele>272.79998779297</ele>
        <time>2022-03-04T14:30:21Z</time>
      </trkpt>
      <trkpt lat="45.38508" lon="4.7216">
        <ele>271.79998779297</ele>
        <time>2022-03-04T14:30:23Z</time>
      </trkpt>
      <trkpt lat="45.38511" lon="4.72172">
        <ele>270.39999389648</ele>
        <time>2022-03-04T14:30:25Z</time>
      </trkpt>
      <trkpt lat="45.38518" lon="4.72187">
        <ele>269.20001220703</ele>
        <time>2022-03-04T14:30:27Z</time>
      </trkpt>
      <trkpt lat="45.38521" lon="4.72196">
        <ele>268.20001220703</ele>
        <time>2022-03-04T14:30:28Z</time>
      </trkpt>
      <trkpt lat="45.38532" lon="4.72252">
        <ele>264.79998779297</ele>
        <time>2022-03-04T14:30:34Z</time>
      </trkpt>
      <trkpt lat="45.38535" lon="4.72309">
        <ele>261.79998779297</ele>
        <time>2022-03-04T14:30:39Z</time>
      </trkpt>
      <trkpt lat="45.38537" lon="4.72334">
        <ele>260.39999389648</ele>
        <time>2022-03-04T14:30:41Z</time>
      </trkpt>
      <trkpt lat="45.38526" lon="4.72397">
        <ele>257.79998779297</ele>
        <time>2022-03-04T14:30:46Z</time>
      </trkpt>
      <trkpt lat="45.38512" lon="4.72432">
        <ele>256</ele>
        <time>2022-03-04T14:30:49Z</time>
      </trkpt>
      <trkpt lat="45.38506" lon="4.7249">
        <ele>253.19999694824</ele>
        <time>2022-03-04T14:30:53Z</time>
      </trkpt>
      <trkpt lat="45.38502" lon="4.72515">
        <ele>252</ele>
        <time>2022-03-04T14:30:55Z</time>
      </trkpt>
      <trkpt lat="45.38509" lon="4.7255">
        <ele>249.60000610352</ele>
        <time>2022-03-04T14:31:00Z</time>
      </trkpt>
      <trkpt lat="45.38508" lon="4.72559">
        <ele>248.80000305176</ele>
        <time>2022-03-04T14:31:02Z</time>
      </trkpt>
      <trkpt lat="45.38503" lon="4.72569">
        <ele>247.39999389648</ele>
        <time>2022-03-04T14:31:05Z</time>
      </trkpt>
      <trkpt lat="45.38479" lon="4.72583">
        <ele>246.80000305176</ele>
        <time>2022-03-04T14:31:10Z</time>
      </trkpt>
      <trkpt lat="45.38457" lon="4.72608">
        <ele>246.80000305176</ele>
        <time>2022-03-04T14:31:16Z</time>
      </trkpt>
      <trkpt lat="45.38427" lon="4.72631">
        <ele>246.80000305176</ele>
        <time>2022-03-04T14:31:21Z</time>
      </trkpt>
      <trkpt lat="45.38416" lon="4.72636">
        <ele>246.39999389648</ele>
        <time>2022-03-04T14:31:23Z</time>
      </trkpt>
      <trkpt lat="45.38406" lon="4.72646">
        <ele>245.60000610352</ele>
        <time>2022-03-04T14:31:26Z</time>
      </trkpt>
      <trkpt lat="45.38385" lon="4.72656">
        <ele>245.60000610352</ele>
        <time>2022-03-04T14:31:30Z</time>
      </trkpt>
      <trkpt lat="45.38372" lon="4.72674">
        <ele>246</ele>
        <time>2022-03-04T14:31:36Z</time>
      </trkpt>
      <trkpt lat="45.38366" lon="4.72678">
        <ele>246</ele>
        <time>2022-03-04T14:31:38Z</time>
      </trkpt>
      <trkpt lat="45.3836" lon="4.72682">
        <ele>246.19999694824</ele>
        <time>2022-03-04T14:31:40Z</time>
      </trkpt>
      <trkpt lat="45.38351" lon="4.72705">
        <ele>247.19999694824</ele>
        <time>2022-03-04T14:31:47Z</time>
      </trkpt>
      <trkpt lat="45.3834" lon="4.72722">
        <ele>248.60000610352</ele>
        <time>2022-03-04T14:31:52Z</time>
      </trkpt>
      <trkpt lat="45.38322" lon="4.7273">
        <ele>249.60000610352</ele>
        <time>2022-03-04T14:31:58Z</time>
      </trkpt>
      <trkpt lat="45.38309" lon="4.7274">
        <ele>249.19999694824</ele>
        <time>2022-03-04T14:32:02Z</time>
      </trkpt>
      <trkpt lat="45.38301" lon="4.72761">
        <ele>247.39999389648</ele>
        <time>2022-03-04T14:32:07Z</time>
      </trkpt>
      <trkpt lat="45.38297" lon="4.7278">
        <ele>244.80000305176</ele>
        <time>2022-03-04T14:32:11Z</time>
      </trkpt>
      <trkpt lat="45.38299" lon="4.72793">
        <ele>241.80000305176</ele>
        <time>2022-03-04T14:32:16Z</time>
      </trkpt>
      <trkpt lat="45.38293" lon="4.72803">
        <ele>241</ele>
        <time>2022-03-04T14:32:19Z</time>
      </trkpt>
      <trkpt lat="45.38288" lon="4.72812">
        <ele>240.19999694824</ele>
        <time>2022-03-04T14:32:22Z</time>
      </trkpt>
      <trkpt lat="45.38289" lon="4.72816">
        <ele>238.80000305176</ele>
        <time>2022-03-04T14:32:25Z</time>
      </trkpt>
      <trkpt lat="45.38289" lon="4.72818">
        <ele>236.80000305176</ele>
        <time>2022-03-04T14:32:33Z</time>
      </trkpt>
      <trkpt lat="45.38293" lon="4.72827">
        <ele>233.60000610352</ele>
        <time>2022-03-04T14:32:52Z</time>
      </trkpt>
      <trkpt lat="45.38302" lon="4.72838">
        <ele>232.19999694824</ele>
        <time>2022-03-04T14:32:56Z</time>
      </trkpt>
      <trkpt lat="45.38309" lon="4.72844">
        <ele>231</ele>
        <time>2022-03-04T14:32:59Z</time>
      </trkpt>
      <trkpt lat="45.3832" lon="4.72844">
        <ele>227.80000305176</ele>
        <time>2022-03-04T14:33:05Z</time>
      </trkpt>
      <trkpt lat="45.3832" lon="4.72844">
        <ele>227</ele>
        <time>2022-03-04T14:33:06Z</time>
      </trkpt>
      <trkpt lat="45.38333" lon="4.72854">
        <ele>225.39999389648</ele>
        <time>2022-03-04T14:33:11Z</time>
      </trkpt>
      <trkpt lat="45.38339" lon="4.72855">
        <ele>223.80000305176</ele>
        <time>2022-03-04T14:33:15Z</time>
      </trkpt>
      <trkpt lat="45.3834" lon="4.72855">
        <ele>223.19999694824</ele>
        <time>2022-03-04T14:33:19Z</time>
      </trkpt>
      <trkpt lat="45.38345" lon="4.72853">
        <ele>223.19999694824</ele>
        <time>2022-03-04T14:33:22Z</time>
      </trkpt>
      <trkpt lat="45.38356" lon="4.72856">
        <ele>222.80000305176</ele>
        <time>2022-03-04T14:33:26Z</time>
      </trkpt>
      <trkpt lat="45.38362" lon="4.72874">
        <ele>222.19999694824</ele>
        <time>2022-03-04T14:33:35Z</time>
      </trkpt>
      <trkpt lat="45.38373" lon="4.7291">
        <ele>223.80000305176</ele>
        <time>2022-03-04T14:33:44Z</time>
      </trkpt>
      <trkpt lat="45.38384" lon="4.72924">
        <ele>226.19999694824</ele>
        <time>2022-03-04T14:33:51Z</time>
      </trkpt>
      <trkpt lat="45.38389" lon="4.72933">
        <ele>227.39999389648</ele>
        <time>2022-03-04T14:33:55Z</time>
      </trkpt>
      <trkpt lat="45.38393" lon="4.72936">
        <ele>228</ele>
        <time>2022-03-04T14:33:57Z</time>
      </trkpt>
      <trkpt lat="45.38391" lon="4.7295">
        <ele>230.19999694824</ele>
        <time>2022-03-04T14:34:06Z</time>
      </trkpt>
      <trkpt lat="45.38387" lon="4.72964">
        <ele>232</ele>
        <time>2022-03-04T14:34:12Z</time>
      </trkpt>
      <trkpt lat="45.38387" lon="4.72965">
        <ele>232.19999694824</ele>
        <time>2022-03-04T14:34:13Z</time>
      </trkpt>
      <trkpt lat="45.38385" lon="4.72975">
        <ele>232.80000305176</ele>
        <time>2022-03-04T14:34:17Z</time>
      </trkpt>
      <trkpt lat="45.38382" lon="4.73004">
        <ele>234.80000305176</ele>
        <time>2022-03-04T14:34:29Z</time>
      </trkpt>
      <trkpt lat="45.38381" lon="4.73023">
        <ele>236.80000305176</ele>
        <time>2022-03-04T14:34:38Z</time>
      </trkpt>
      <trkpt lat="45.38379" lon="4.73029">
        <ele>237.60000610352</ele>
        <time>2022-03-04T14:34:41Z</time>
      </trkpt>
      <trkpt lat="45.38374" lon="4.73033">
        <ele>238.39999389648</ele>
        <time>2022-03-04T14:34:45Z</time>
      </trkpt>
      <trkpt lat="45.38372" lon="4.73036">
        <ele>238.60000610352</ele>
        <time>2022-03-04T14:34:47Z</time>
      </trkpt>
      <trkpt lat="45.38369" lon="4.73041">
        <ele>239</ele>
        <time>2022-03-04T14:34:51Z</time>
      </trkpt>
      <trkpt lat="45.38366" lon="4.73049">
        <ele>239.19999694824</ele>
        <time>2022-03-04T14:34:55Z</time>
      </trkpt>
      <trkpt lat="45.38365" lon="4.73063">
        <ele>240</ele>
        <time>2022-03-04T14:35:00Z</time>
      </trkpt>
      <trkpt lat="45.38364" lon="4.73067">
        <ele>241</ele>
        <time>2022-03-04T14:35:03Z</time>
      </trkpt>
      <trkpt lat="45.38363" lon="4.73085">
        <ele>241.80000305176</ele>
        <time>2022-03-04T14:35:10Z</time>
      </trkpt>
      <trkpt lat="45.38364" lon="4.73097">
        <ele>244.39999389648</ele>
        <time>2022-03-04T14:35:16Z</time>
      </trkpt>
      <trkpt lat="45.38363" lon="4.731">
        <ele>244.60000610352</ele>
        <time>2022-03-04T14:35:18Z</time>
      </trkpt>
      <trkpt lat="45.38364" lon="4.73111">
        <ele>245.19999694824</ele>
        <time>2022-03-04T14:35:22Z</time>
      </trkpt>
      <trkpt lat="45.38368" lon="4.73124">
        <ele>245.60000610352</ele>
        <time>2022-03-04T14:35:26Z</time>
      </trkpt>
      <trkpt lat="45.38375" lon="4.73145">
        <ele>245.39999389648</ele>
        <time>2022-03-04T14:35:30Z</time>
      </trkpt>
      <trkpt lat="45.38382" lon="4.7316">
        <ele>243.19999694824</ele>
        <time>2022-03-04T14:35:34Z</time>
      </trkpt>
      <trkpt lat="45.38392" lon="4.73187">
        <ele>241.60000610352</ele>
        <time>2022-03-04T14:35:38Z</time>
      </trkpt>
      <trkpt lat="45.38393" lon="4.73192">
        <ele>241.19999694824</ele>
        <time>2022-03-04T14:35:40Z</time>
      </trkpt>
      <trkpt lat="45.38396" lon="4.732">
        <ele>240.80000305176</ele>
        <time>2022-03-04T14:35:42Z</time>
      </trkpt>
      <trkpt lat="45.38409" lon="4.73218">
        <ele>239.39999389648</ele>
        <time>2022-03-04T14:35:48Z</time>
      </trkpt>
      <trkpt lat="45.38422" lon="4.73251">
        <ele>236.19999694824</ele>
        <time>2022-03-04T14:35:58Z</time>
      </trkpt>
      <trkpt lat="45.38422" lon="4.73253">
        <ele>235.80000305176</ele>
        <time>2022-03-04T14:35:59Z</time>
      </trkpt>
      <trkpt lat="45.38423" lon="4.73262">
        <ele>234.60000610352</ele>
        <time>2022-03-04T14:36:03Z</time>
      </trkpt>
      <trkpt lat="45.38432" lon="4.73281">
        <ele>231.39999389648</ele>
        <time>2022-03-04T14:36:08Z</time>
      </trkpt>
      <trkpt lat="45.3844" lon="4.7329">
        <ele>230.39999389648</ele>
        <time>2022-03-04T14:36:12Z</time>
      </trkpt>
      <trkpt lat="45.38445" lon="4.73295">
        <ele>228.39999389648</ele>
        <time>2022-03-04T14:36:16Z</time>
      </trkpt>
      <trkpt lat="45.38452" lon="4.73306">
        <ele>226.39999389648</ele>
        <time>2022-03-04T14:36:20Z</time>
      </trkpt>
      <trkpt lat="45.38452" lon="4.73306">
        <ele>225.80000305176</ele>
        <time>2022-03-04T14:36:21Z</time>
      </trkpt>
      <trkpt lat="45.38452" lon="4.73311">
        <ele>225</ele>
        <time>2022-03-04T14:36:23Z</time>
      </trkpt>
      <trkpt lat="45.38453" lon="4.73331">
        <ele>222.60000610352</ele>
        <time>2022-03-04T14:36:28Z</time>
      </trkpt>
      <trkpt lat="45.38453" lon="4.73333">
        <ele>221.39999389648</ele>
        <time>2022-03-04T14:36:30Z</time>
      </trkpt>
      <trkpt lat="45.38455" lon="4.73354">
        <ele>218.80000305176</ele>
        <time>2022-03-04T14:36:35Z</time>
      </trkpt>
      <trkpt lat="45.38455" lon="4.7336">
        <ele>216.80000305176</ele>
        <time>2022-03-04T14:36:47Z</time>
      </trkpt>
      <trkpt lat="45.38455" lon="4.73366">
        <ele>216.80000305176</ele>
        <time>2022-03-04T14:36:50Z</time>
      </trkpt>
      <trkpt lat="45.38455" lon="4.73379">
        <ele>216</ele>
        <time>2022-03-04T14:37:12Z</time>
      </trkpt>
      <trkpt lat="45.38458" lon="4.73409">
        <ele>216.60000610352</ele>
        <time>2022-03-04T14:37:29Z</time>
      </trkpt>
      <trkpt lat="45.38451" lon="4.7345">
        <ele>218</ele>
        <time>2022-03-04T14:37:41Z</time>
      </trkpt>
      <trkpt lat="45.38426" lon="4.73491">
        <ele>219</ele>
        <time>2022-03-04T14:37:54Z</time>
      </trkpt>
      <trkpt lat="45.38413" lon="4.73503">
        <ele>217</ele>
        <time>2022-03-04T14:38:00Z</time>
      </trkpt>
      <trkpt lat="45.38413" lon="4.73503">
        <ele>216.39999389648</ele>
        <time>2022-03-04T14:38:01Z</time>
      </trkpt>
      <trkpt lat="45.38404" lon="4.73505">
        <ele>216</ele>
        <time>2022-03-04T14:38:03Z</time>
      </trkpt>
      <trkpt lat="45.38396" lon="4.73507">
        <ele>214.80000305176</ele>
        <time>2022-03-04T14:38:06Z</time>
      </trkpt>
      <trkpt lat="45.3839" lon="4.73525">
        <ele>211.80000305176</ele>
        <time>2022-03-04T14:38:12Z</time>
      </trkpt>
      <trkpt lat="45.38389" lon="4.73529">
        <ele>210.80000305176</ele>
        <time>2022-03-04T14:38:13Z</time>
      </trkpt>
      <trkpt lat="45.38393" lon="4.73557">
        <ele>207.60000610352</ele>
        <time>2022-03-04T14:38:19Z</time>
      </trkpt>
      <trkpt lat="45.38393" lon="4.73557">
        <ele>206.39999389648</ele>
        <time>2022-03-04T14:38:20Z</time>
      </trkpt>
      <trkpt lat="45.38393" lon="4.7358">
        <ele>202.80000305176</ele>
        <time>2022-03-04T14:38:25Z</time>
      </trkpt>
      <trkpt lat="45.3839" lon="4.73591">
        <ele>199.60000610352</ele>
        <time>2022-03-04T14:38:28Z</time>
      </trkpt>
      <trkpt lat="45.3839" lon="4.73609">
        <ele>196.39999389648</ele>
        <time>2022-03-04T14:38:33Z</time>
      </trkpt>
      <trkpt lat="45.3839" lon="4.73622">
        <ele>193.39999389648</ele>
        <time>2022-03-04T14:38:38Z</time>
      </trkpt>
      <trkpt lat="45.3839" lon="4.73625">
        <ele>192.80000305176</ele>
        <time>2022-03-04T14:38:39Z</time>
      </trkpt>
      <trkpt lat="45.38394" lon="4.73645">
        <ele>190</ele>
        <time>2022-03-04T14:38:44Z</time>
      </trkpt>
      <trkpt lat="45.38397" lon="4.73667">
        <ele>186.19999694824</ele>
        <time>2022-03-04T14:38:50Z</time>
      </trkpt>
      <trkpt lat="45.38395" lon="4.73679">
        <ele>183</ele>
        <time>2022-03-04T14:38:54Z</time>
      </trkpt>
      <trkpt lat="45.38405" lon="4.73702">
        <ele>180.80000305176</ele>
        <time>2022-03-04T14:38:58Z</time>
      </trkpt>
      <trkpt lat="45.38418" lon="4.73705">
        <ele>177.19999694824</ele>
        <time>2022-03-04T14:39:03Z</time>
      </trkpt>
      <trkpt lat="45.38425" lon="4.73709">
        <ele>174.80000305176</ele>
        <time>2022-03-04T14:39:06Z</time>
      </trkpt>
      <trkpt lat="45.38433" lon="4.73716">
        <ele>171.60000610352</ele>
        <time>2022-03-04T14:39:10Z</time>
      </trkpt>
      <trkpt lat="45.38436" lon="4.73717">
        <ele>171</ele>
        <time>2022-03-04T14:39:11Z</time>
      </trkpt>
      <trkpt lat="45.3845" lon="4.73728">
        <ele>168.80000305176</ele>
        <time>2022-03-04T14:39:17Z</time>
      </trkpt>
      <trkpt lat="45.38475" lon="4.73734">
        <ele>167.80000305176</ele>
        <time>2022-03-04T14:39:24Z</time>
      </trkpt>
      <trkpt lat="45.38484" lon="4.73741">
        <ele>168</ele>
        <time>2022-03-04T14:39:29Z</time>
      </trkpt>
      <trkpt lat="45.38494" lon="4.73743">
        <ele>168.19999694824</ele>
        <time>2022-03-04T14:39:33Z</time>
      </trkpt>
      <trkpt lat="45.38506" lon="4.73743">
        <ele>169.19999694824</ele>
        <time>2022-03-04T14:39:38Z</time>
      </trkpt>
      <trkpt lat="45.38507" lon="4.73742">
        <ele>169.39999389648</ele>
        <time>2022-03-04T14:39:39Z</time>
      </trkpt>
      <trkpt lat="45.38517" lon="4.73744">
        <ele>170</ele>
        <time>2022-03-04T14:39:44Z</time>
      </trkpt>
      <trkpt lat="45.38532" lon="4.73771">
        <ele>171</ele>
        <time>2022-03-04T14:39:54Z</time>
      </trkpt>
      <trkpt lat="45.38533" lon="4.73774">
        <ele>171.19999694824</ele>
        <time>2022-03-04T14:39:55Z</time>
      </trkpt>
      <trkpt lat="45.38534" lon="4.73793">
        <ele>172.60000610352</ele>
        <time>2022-03-04T14:40:02Z</time>
      </trkpt>
      <trkpt lat="45.38536" lon="4.73805">
        <ele>173</ele>
        <time>2022-03-04T14:40:05Z</time>
      </trkpt>
      <trkpt lat="45.38535" lon="4.73815">
        <ele>173.19999694824</ele>
        <time>2022-03-04T14:40:08Z</time>
      </trkpt>
      <trkpt lat="45.38523" lon="4.7383">
        <ele>174.19999694824</ele>
        <time>2022-03-04T14:40:14Z</time>
      </trkpt>
      <trkpt lat="45.38522" lon="4.73835">
        <ele>174.39999389648</ele>
        <time>2022-03-04T14:40:16Z</time>
      </trkpt>
      <trkpt lat="45.38518" lon="4.73847">
        <ele>174.80000305176</ele>
        <time>2022-03-04T14:40:20Z</time>
      </trkpt>
      <trkpt lat="45.38528" lon="4.73897">
        <ele>174.39999389648</ele>
        <time>2022-03-04T14:40:28Z</time>
      </trkpt>
      <trkpt lat="45.38538" lon="4.73965">
        <ele>172.39999389648</ele>
        <time>2022-03-04T14:40:38Z</time>
      </trkpt>
      <trkpt lat="45.38541" lon="4.7398">
        <ele>172</ele>
        <time>2022-03-04T14:40:40Z</time>
      </trkpt>
      <trkpt lat="45.38558" lon="4.74113">
        <ele>168.60000610352</ele>
        <time>2022-03-04T14:40:55Z</time>
      </trkpt>
      <trkpt lat="45.3856" lon="4.74121">
        <ele>168.39999389648</ele>
        <time>2022-03-04T14:40:56Z</time>
      </trkpt>
      <trkpt lat="45.38572" lon="4.7421">
        <ele>165.80000305176</ele>
        <time>2022-03-04T14:41:05Z</time>
      </trkpt>
      <trkpt lat="45.38578" lon="4.74243">
        <ele>165.19999694824</ele>
        <time>2022-03-04T14:41:09Z</time>
      </trkpt>
      <trkpt lat="45.38582" lon="4.74258">
        <ele>164.19999694824</ele>
        <time>2022-03-04T14:41:11Z</time>
      </trkpt>
      <trkpt lat="45.38615" lon="4.7432">
        <ele>161.39999389648</ele>
        <time>2022-03-04T14:41:20Z</time>
      </trkpt>
      <trkpt lat="45.38647" lon="4.74366">
        <ele>160.19999694824</ele>
        <time>2022-03-04T14:41:27Z</time>
      </trkpt>
      <trkpt lat="45.38655" lon="4.74379">
        <ele>159.80000305176</ele>
        <time>2022-03-04T14:41:29Z</time>
      </trkpt>
      <trkpt lat="45.38668" lon="4.74406">
        <ele>158.80000305176</ele>
        <time>2022-03-04T14:41:34Z</time>
      </trkpt>
      <trkpt lat="45.38671" lon="4.74412">
        <ele>158.60000610352</ele>
        <time>2022-03-04T14:41:35Z</time>
      </trkpt>
      <trkpt lat="45.38693" lon="4.74442">
        <ele>157.39999389648</ele>
        <time>2022-03-04T14:41:41Z</time>
      </trkpt>
      <trkpt lat="45.38724" lon="4.7449">
        <ele>156.19999694824</ele>
        <time>2022-03-04T14:41:50Z</time>
      </trkpt>
      <trkpt lat="45.38749" lon="4.74497">
        <ele>155.39999389648</ele>
        <time>2022-03-04T14:41:58Z</time>
      </trkpt>
      <trkpt lat="45.38746" lon="4.7449">
        <ele>154</ele>
        <time>2022-03-04T14:42:06Z</time>
      </trkpt>
      <trkpt lat="45.38747" lon="4.74491">
        <ele>152.80000305176</ele>
        <time>2022-03-04T14:43:00Z</time>
      </trkpt>
      <trkpt lat="45.38758" lon="4.74515">
        <ele>152.80000305176</ele>
        <time>2022-03-04T14:43:09Z</time>
      </trkpt>
      <trkpt lat="45.38762" lon="4.74521">
        <ele>152.80000305176</ele>
        <time>2022-03-04T14:43:11Z</time>
      </trkpt>
      <trkpt lat="45.3878" lon="4.74552">
        <ele>153.19999694824</ele>
        <time>2022-03-04T14:43:17Z</time>
      </trkpt>
      <trkpt lat="45.38784" lon="4.74558">
        <ele>153.19999694824</ele>
        <time>2022-03-04T14:43:18Z</time>
      </trkpt>
      <trkpt lat="45.38795" lon="4.74583">
        <ele>153.39999389648</ele>
        <time>2022-03-04T14:43:22Z</time>
      </trkpt>
      <trkpt lat="45.38837" lon="4.74655">
        <ele>152</ele>
        <time>2022-03-04T14:43:35Z</time>
      </trkpt>
      <trkpt lat="45.38847" lon="4.74673">
        <ele>152.19999694824</ele>
        <time>2022-03-04T14:43:45Z</time>
      </trkpt>
      <trkpt lat="45.38847" lon="4.74686">
        <ele>151.39999389648</ele>
        <time>2022-03-04T14:44:03Z</time>
      </trkpt>
      <trkpt lat="45.38847" lon="4.74687">
        <ele>151.39999389648</ele>
        <time>2022-03-04T14:44:08Z</time>
      </trkpt>
      <trkpt lat="45.38827" lon="4.74723">
        <ele>151.60000610352</ele>
        <time>2022-03-04T14:44:22Z</time>
      </trkpt>
      <trkpt lat="45.38823" lon="4.74724">
        <ele>151.39999389648</ele>
        <time>2022-03-04T14:44:23Z</time>
      </trkpt>
      <trkpt lat="45.38802" lon="4.7473">
        <ele>150.80000305176</ele>
        <time>2022-03-04T14:44:28Z</time>
      </trkpt>
      <trkpt lat="45.38721" lon="4.74774">
        <ele>149.39999389648</ele>
        <time>2022-03-04T14:44:42Z</time>
      </trkpt>
      <trkpt lat="45.38652" lon="4.74797">
        <ele>148.80000305176</ele>
        <time>2022-03-04T14:44:53Z</time>
      </trkpt>
      <trkpt lat="45.38632" lon="4.74801">
        <ele>149</ele>
        <time>2022-03-04T14:44:57Z</time>
      </trkpt>
      <trkpt lat="45.38621" lon="4.74812">
        <ele>149.60000610352</ele>
        <time>2022-03-04T14:45:01Z</time>
      </trkpt>
      <trkpt lat="45.38603" lon="4.74878">
        <ele>150.39999389648</ele>
        <time>2022-03-04T14:45:10Z</time>
      </trkpt>
      <trkpt lat="45.3855" lon="4.74931">
        <ele>149.80000305176</ele>
        <time>2022-03-04T14:45:20Z</time>
      </trkpt>
      <trkpt lat="45.38503" lon="4.74944">
        <ele>148.39999389648</ele>
        <time>2022-03-04T14:45:28Z</time>
      </trkpt>
      <trkpt lat="45.38483" lon="4.74961">
        <ele>148</ele>
        <time>2022-03-04T14:45:32Z</time>
      </trkpt>
      <trkpt lat="45.38468" lon="4.74977">
        <ele>147.60000610352</ele>
        <time>2022-03-04T14:45:35Z</time>
      </trkpt>
      <trkpt lat="45.38431" lon="4.74995">
        <ele>147.39999389648</ele>
        <time>2022-03-04T14:45:41Z</time>
      </trkpt>
      <trkpt lat="45.38424" lon="4.74997">
        <ele>147.39999389648</ele>
        <time>2022-03-04T14:45:42Z</time>
      </trkpt>
      <trkpt lat="45.38394" lon="4.75024">
        <ele>147.19999694824</ele>
        <time>2022-03-04T14:45:48Z</time>
      </trkpt>
      <trkpt lat="45.3839" lon="4.7503">
        <ele>147.19999694824</ele>
        <time>2022-03-04T14:45:49Z</time>
      </trkpt>
      <trkpt lat="45.38373" lon="4.75052">
        <ele>147</ele>
        <time>2022-03-04T14:45:53Z</time>
      </trkpt>
      <trkpt lat="45.38348" lon="4.75077">
        <ele>146.80000305176</ele>
        <time>2022-03-04T14:45:59Z</time>
      </trkpt>
      <trkpt lat="45.38343" lon="4.75088">
        <ele>146.80000305176</ele>
        <time>2022-03-04T14:46:01Z</time>
      </trkpt>
      <trkpt lat="45.38332" lon="4.75112">
        <ele>146.80000305176</ele>
        <time>2022-03-04T14:46:05Z</time>
      </trkpt>
      <trkpt lat="45.38306" lon="4.75143">
        <ele>146.60000610352</ele>
        <time>2022-03-04T14:46:13Z</time>
      </trkpt>
      <trkpt lat="45.38248" lon="4.75173">
        <ele>147.19999694824</ele>
        <time>2022-03-04T14:46:23Z</time>
      </trkpt>
      <trkpt lat="45.38242" lon="4.75175">
        <ele>147.19999694824</ele>
        <time>2022-03-04T14:46:24Z</time>
      </trkpt>
      <trkpt lat="45.38186" lon="4.752">
        <ele>146.19999694824</ele>
        <time>2022-03-04T14:46:34Z</time>
      </trkpt>
      <trkpt lat="45.38137" lon="4.75216">
        <ele>145.39999389648</ele>
        <time>2022-03-04T14:46:45Z</time>
      </trkpt>
      <trkpt lat="45.38131" lon="4.75218">
        <ele>145.39999389648</ele>
        <time>2022-03-04T14:46:46Z</time>
      </trkpt>
      <trkpt lat="45.38103" lon="4.75219">
        <ele>145.60000610352</ele>
        <time>2022-03-04T14:46:51Z</time>
      </trkpt>
      <trkpt lat="45.38095" lon="4.75218">
        <ele>145.60000610352</ele>
        <time>2022-03-04T14:46:52Z</time>
      </trkpt>
      <trkpt lat="45.3804" lon="4.75196">
        <ele>146</ele>
        <time>2022-03-04T14:47:02Z</time>
      </trkpt>
      <trkpt lat="45.3803" lon="4.7519">
        <ele>146</ele>
        <time>2022-03-04T14:47:04Z</time>
      </trkpt>
      <trkpt lat="45.38009" lon="4.75169">
        <ele>146.19999694824</ele>
        <time>2022-03-04T14:47:10Z</time>
      </trkpt>
      <trkpt lat="45.37959" lon="4.75155">
        <ele>146.39999389648</ele>
        <time>2022-03-04T14:47:19Z</time>
      </trkpt>
      <trkpt lat="45.37911" lon="4.75145">
        <ele>146.39999389648</ele>
        <time>2022-03-04T14:47:27Z</time>
      </trkpt>
      <trkpt lat="45.379" lon="4.75141">
        <ele>146.39999389648</ele>
        <time>2022-03-04T14:47:29Z</time>
      </trkpt>
      <trkpt lat="45.37843" lon="4.7513">
        <ele>146.19999694824</ele>
        <time>2022-03-04T14:47:38Z</time>
      </trkpt>
      <trkpt lat="45.37765" lon="4.75112">
        <ele>146.60000610352</ele>
        <time>2022-03-04T14:47:50Z</time>
      </trkpt>
      <trkpt lat="45.37729" lon="4.75101">
        <ele>146.39999389648</ele>
        <time>2022-03-04T14:47:56Z</time>
      </trkpt>
      <trkpt lat="45.37621" lon="4.75056">
        <ele>146.39999389648</ele>
        <time>2022-03-04T14:48:13Z</time>
      </trkpt>
      <trkpt lat="45.37541" lon="4.75028">
        <ele>146.19999694824</ele>
        <time>2022-03-04T14:48:25Z</time>
      </trkpt>
      <trkpt lat="45.37437" lon="4.75005">
        <ele>146.19999694824</ele>
        <time>2022-03-04T14:48:39Z</time>
      </trkpt>
      <trkpt lat="45.3743" lon="4.75004">
        <ele>146.19999694824</ele>
        <time>2022-03-04T14:48:40Z</time>
      </trkpt>
      <trkpt lat="45.37395" lon="4.75004">
        <ele>146.39999389648</ele>
        <time>2022-03-04T14:48:45Z</time>
      </trkpt>
      <trkpt lat="45.37367" lon="4.7501">
        <ele>146.39999389648</ele>
        <time>2022-03-04T14:48:49Z</time>
      </trkpt>
      <trkpt lat="45.37349" lon="4.75016">
        <ele>146.60000610352</ele>
        <time>2022-03-04T14:48:52Z</time>
      </trkpt>
      <trkpt lat="45.37319" lon="4.7503">
        <ele>146.80000305176</ele>
        <time>2022-03-04T14:48:57Z</time>
      </trkpt>
      <trkpt lat="45.37263" lon="4.75059">
        <ele>148.39999389648</ele>
        <time>2022-03-04T14:49:08Z</time>
      </trkpt>
      <trkpt lat="45.3722" lon="4.75088">
        <ele>150.80000305176</ele>
        <time>2022-03-04T14:49:19Z</time>
      </trkpt>
      <trkpt lat="45.37213" lon="4.75094">
        <ele>151.19999694824</ele>
        <time>2022-03-04T14:49:21Z</time>
      </trkpt>
      <trkpt lat="45.37184" lon="4.75112">
        <ele>152.19999694824</ele>
        <time>2022-03-04T14:49:29Z</time>
      </trkpt>
      <trkpt lat="45.37163" lon="4.75125">
        <ele>154.39999389648</ele>
        <time>2022-03-04T14:49:39Z</time>
      </trkpt>
      <trkpt lat="45.37154" lon="4.75134">
        <ele>154.80000305176</ele>
        <time>2022-03-04T14:49:42Z</time>
      </trkpt>
      <trkpt lat="45.37125" lon="4.75155">
        <ele>154.60000610352</ele>
        <time>2022-03-04T14:49:47Z</time>
      </trkpt>
      <trkpt lat="45.37108" lon="4.75167">
        <ele>152.80000305176</ele>
        <time>2022-03-04T14:49:50Z</time>
      </trkpt>
      <trkpt lat="45.37097" lon="4.75174">
        <ele>151.39999389648</ele>
        <time>2022-03-04T14:49:52Z</time>
      </trkpt>
      <trkpt lat="45.37082" lon="4.7519">
        <ele>150.19999694824</ele>
        <time>2022-03-04T14:49:55Z</time>
      </trkpt>
      <trkpt lat="45.37071" lon="4.75196">
        <ele>149</ele>
        <time>2022-03-04T14:49:57Z</time>
      </trkpt>
      <trkpt lat="45.37059" lon="4.75199">
        <ele>147.80000305176</ele>
        <time>2022-03-04T14:49:59Z</time>
      </trkpt>
      <trkpt lat="45.37025" lon="4.75212">
        <ele>147</ele>
        <time>2022-03-04T14:50:05Z</time>
      </trkpt>
      <trkpt lat="45.37013" lon="4.75215">
        <ele>147</ele>
        <time>2022-03-04T14:50:07Z</time>
      </trkpt>
      <trkpt lat="45.3698" lon="4.75229">
        <ele>147</ele>
        <time>2022-03-04T14:50:13Z</time>
      </trkpt>
      <trkpt lat="45.36886" lon="4.75248">
        <ele>147</ele>
        <time>2022-03-04T14:50:29Z</time>
      </trkpt>
      <trkpt lat="45.36866" lon="4.75254">
        <ele>146.39999389648</ele>
        <time>2022-03-04T14:50:33Z</time>
      </trkpt>
      <trkpt lat="45.36777" lon="4.75283">
        <ele>147.19999694824</ele>
        <time>2022-03-04T14:50:50Z</time>
      </trkpt>
      <trkpt lat="45.36771" lon="4.75284">
        <ele>147.19999694824</ele>
        <time>2022-03-04T14:50:51Z</time>
      </trkpt>
      <trkpt lat="45.36709" lon="4.75299">
        <ele>147.19999694824</ele>
        <time>2022-03-04T14:51:02Z</time>
      </trkpt>
      <trkpt lat="45.36699" lon="4.753">
        <ele>147</ele>
        <time>2022-03-04T14:51:04Z</time>
      </trkpt>
      <trkpt lat="45.36647" lon="4.75324">
        <ele>146.80000305176</ele>
        <time>2022-03-04T14:51:14Z</time>
      </trkpt>
      <trkpt lat="45.36636" lon="4.75331">
        <ele>147.19999694824</ele>
        <time>2022-03-04T14:51:16Z</time>
      </trkpt>
      <trkpt lat="45.36605" lon="4.75351">
        <ele>147</ele>
        <time>2022-03-04T14:51:22Z</time>
      </trkpt>
      <trkpt lat="45.36561" lon="4.75374">
        <ele>146.39999389648</ele>
        <time>2022-03-04T14:51:30Z</time>
      </trkpt>
      <trkpt lat="45.36487" lon="4.75422">
        <ele>146.60000610352</ele>
        <time>2022-03-04T14:51:44Z</time>
      </trkpt>
      <trkpt lat="45.3645" lon="4.75443">
        <ele>147</ele>
        <time>2022-03-04T14:51:52Z</time>
      </trkpt>
      <trkpt lat="45.36432" lon="4.75463">
        <ele>146.80000305176</ele>
        <time>2022-03-04T14:51:57Z</time>
      </trkpt>
      <trkpt lat="45.36425" lon="4.75469">
        <ele>147</ele>
        <time>2022-03-04T14:51:59Z</time>
      </trkpt>
      <trkpt lat="45.36406" lon="4.75494">
        <ele>148.19999694824</ele>
        <time>2022-03-04T14:52:07Z</time>
      </trkpt>
      <trkpt lat="45.3639" lon="4.75504">
        <ele>148.60000610352</ele>
        <time>2022-03-04T14:52:11Z</time>
      </trkpt>
      <trkpt lat="45.3637" lon="4.75511">
        <ele>148.80000305176</ele>
        <time>2022-03-04T14:52:15Z</time>
      </trkpt>
      <trkpt lat="45.36339" lon="4.75537">
        <ele>148.80000305176</ele>
        <time>2022-03-04T14:52:23Z</time>
      </trkpt>
      <trkpt lat="45.36321" lon="4.75547">
        <ele>149.19999694824</ele>
        <time>2022-03-04T14:52:27Z</time>
      </trkpt>
      <trkpt lat="45.3631" lon="4.75548">
        <ele>149.39999389648</ele>
        <time>2022-03-04T14:52:29Z</time>
      </trkpt>
      <trkpt lat="45.36278" lon="4.75553">
        <ele>149</ele>
        <time>2022-03-04T14:52:34Z</time>
      </trkpt>
      <trkpt lat="45.36222" lon="4.75588">
        <ele>148.39999389648</ele>
        <time>2022-03-04T14:52:44Z</time>
      </trkpt>
      <trkpt lat="45.3615" lon="4.75634">
        <ele>147.80000305176</ele>
        <time>2022-03-04T14:52:56Z</time>
      </trkpt>
      <trkpt lat="45.3605" lon="4.75699">
        <ele>147.60000610352</ele>
        <time>2022-03-04T14:53:11Z</time>
      </trkpt>
      <trkpt lat="45.35999" lon="4.75733">
        <ele>147.19999694824</ele>
        <time>2022-03-04T14:53:18Z</time>
      </trkpt>
      <trkpt lat="45.35796" lon="4.75858">
        <ele>146.60000610352</ele>
        <time>2022-03-04T14:53:46Z</time>
      </trkpt>
      <trkpt lat="45.35767" lon="4.75875">
        <ele>146.39999389648</ele>
        <time>2022-03-04T14:53:50Z</time>
      </trkpt>
      <trkpt lat="45.3576" lon="4.7588">
        <ele>146.39999389648</ele>
        <time>2022-03-04T14:53:51Z</time>
      </trkpt>
      <trkpt lat="45.35732" lon="4.75901">
        <ele>146.19999694824</ele>
        <time>2022-03-04T14:53:55Z</time>
      </trkpt>
      <trkpt lat="45.35636" lon="4.75956">
        <ele>146.60000610352</ele>
        <time>2022-03-04T14:54:09Z</time>
      </trkpt>
      <trkpt lat="45.35617" lon="4.75968">
        <ele>146.80000305176</ele>
        <time>2022-03-04T14:54:12Z</time>
      </trkpt>
      <trkpt lat="45.35532" lon="4.7601">
        <ele>148</ele>
        <time>2022-03-04T14:54:26Z</time>
      </trkpt>
      <trkpt lat="45.35503" lon="4.76023">
        <ele>147</ele>
        <time>2022-03-04T14:54:33Z</time>
      </trkpt>
      <trkpt lat="45.35482" lon="4.76026">
        <ele>146.80000305176</ele>
        <time>2022-03-04T14:54:46Z</time>
      </trkpt>
      <trkpt lat="45.35417" lon="4.76033">
        <ele>147.60000610352</ele>
        <time>2022-03-04T14:55:04Z</time>
      </trkpt>
      <trkpt lat="45.35367" lon="4.7604">
        <ele>147.80000305176</ele>
        <time>2022-03-04T14:55:14Z</time>
      </trkpt>
      <trkpt lat="45.3535" lon="4.76038">
        <ele>147.80000305176</ele>
        <time>2022-03-04T14:55:17Z</time>
      </trkpt>
      <trkpt lat="45.35226" lon="4.7602">
        <ele>146.39999389648</ele>
        <time>2022-03-04T14:55:37Z</time>
      </trkpt>
      <trkpt lat="45.35204" lon="4.76008">
        <ele>146.39999389648</ele>
        <time>2022-03-04T14:55:41Z</time>
      </trkpt>
      <trkpt lat="45.3517" lon="4.75999">
        <ele>145.80000305176</ele>
        <time>2022-03-04T14:55:46Z</time>
      </trkpt>
      <trkpt lat="45.3512" lon="4.75975">
        <ele>145.60000610352</ele>
        <time>2022-03-04T14:55:53Z</time>
      </trkpt>
      <trkpt lat="45.35014" lon="4.75917">
        <ele>145.60000610352</ele>
        <time>2022-03-04T14:56:08Z</time>
      </trkpt>
      <trkpt lat="45.34944" lon="4.75897">
        <ele>145.60000610352</ele>
        <time>2022-03-04T14:56:18Z</time>
      </trkpt>
      <trkpt lat="45.34887" lon="4.75909">
        <ele>145.60000610352</ele>
        <time>2022-03-04T14:56:26Z</time>
      </trkpt>
      <trkpt lat="45.34873" lon="4.75913">
        <ele>145.80000305176</ele>
        <time>2022-03-04T14:56:28Z</time>
      </trkpt>
      <trkpt lat="45.34752" lon="4.75943">
        <ele>145.60000610352</ele>
        <time>2022-03-04T14:56:46Z</time>
      </trkpt>
      <trkpt lat="45.34589" lon="4.75966">
        <ele>145.19999694824</ele>
        <time>2022-03-04T14:57:11Z</time>
      </trkpt>
      <trkpt lat="45.3457" lon="4.75966">
        <ele>145.19999694824</ele>
        <time>2022-03-04T14:57:14Z</time>
      </trkpt>
      <trkpt lat="45.34541" lon="4.75966">
        <ele>145</ele>
        <time>2022-03-04T14:57:19Z</time>
      </trkpt>
      <trkpt lat="45.34484" lon="4.75979">
        <ele>144.80000305176</ele>
        <time>2022-03-04T14:57:30Z</time>
      </trkpt>
      <trkpt lat="45.34458" lon="4.75957">
        <ele>145</ele>
        <time>2022-03-04T14:57:37Z</time>
      </trkpt>
      <trkpt lat="45.34449" lon="4.75942">
        <ele>145</ele>
        <time>2022-03-04T14:57:40Z</time>
      </trkpt>
      <trkpt lat="45.34434" lon="4.7596">
        <ele>145</ele>
        <time>2022-03-04T14:57:46Z</time>
      </trkpt>
      <trkpt lat="45.34412" lon="4.75982">
        <ele>143.80000305176</ele>
        <time>2022-03-04T14:57:52Z</time>
      </trkpt>
      <trkpt lat="45.34399" lon="4.75987">
        <ele>143.60000610352</ele>
        <time>2022-03-04T14:57:55Z</time>
      </trkpt>
      <trkpt lat="45.3439" lon="4.75988">
        <ele>143.60000610352</ele>
        <time>2022-03-04T14:57:57Z</time>
      </trkpt>
      <trkpt lat="45.3437" lon="4.75988">
        <ele>143.80000305176</ele>
        <time>2022-03-04T14:58:01Z</time>
      </trkpt>
      <trkpt lat="45.34349" lon="4.75983">
        <ele>144</ele>
        <time>2022-03-04T14:58:05Z</time>
      </trkpt>
      <trkpt lat="45.34325" lon="4.7598">
        <ele>143.80000305176</ele>
        <time>2022-03-04T14:58:10Z</time>
      </trkpt>
      <trkpt lat="45.34251" lon="4.75971">
        <ele>143.80000305176</ele>
        <time>2022-03-04T14:58:26Z</time>
      </trkpt>
      <trkpt lat="45.34192" lon="4.75966">
        <ele>143.80000305176</ele>
        <time>2022-03-04T14:58:40Z</time>
      </trkpt>
      <trkpt lat="45.34129" lon="4.75964">
        <ele>144.19999694824</ele>
        <time>2022-03-04T14:58:55Z</time>
      </trkpt>
      <trkpt lat="45.34108" lon="4.75958">
        <ele>144.60000610352</ele>
        <time>2022-03-04T14:59:02Z</time>
      </trkpt>
      <trkpt lat="45.34101" lon="4.75955">
        <ele>144.39999389648</ele>
        <time>2022-03-04T14:59:04Z</time>
      </trkpt>
      <trkpt lat="45.34075" lon="4.75947">
        <ele>143.80000305176</ele>
        <time>2022-03-04T14:59:10Z</time>
      </trkpt>
      <trkpt lat="45.34064" lon="4.75941">
        <ele>143.80000305176</ele>
        <time>2022-03-04T14:59:12Z</time>
      </trkpt>
      <trkpt lat="45.34015" lon="4.7595">
        <ele>144.39999389648</ele>
        <time>2022-03-04T14:59:22Z</time>
      </trkpt>
      <trkpt lat="45.33977" lon="4.75963">
        <ele>144.60000610352</ele>
        <time>2022-03-04T14:59:32Z</time>
      </trkpt>
      <trkpt lat="45.33908" lon="4.75967">
        <ele>144.80000305176</ele>
        <time>2022-03-04T14:59:48Z</time>
      </trkpt>
      <trkpt lat="45.33856" lon="4.75967">
        <ele>144.19999694824</ele>
        <time>2022-03-04T15:00:03Z</time>
      </trkpt>
      <trkpt lat="45.33822" lon="4.75956">
        <ele>144.39999389648</ele>
        <time>2022-03-04T15:00:12Z</time>
      </trkpt>
      <trkpt lat="45.33773" lon="4.75933">
        <ele>143.80000305176</ele>
        <time>2022-03-04T15:00:23Z</time>
      </trkpt>
      <trkpt lat="45.33754" lon="4.75933">
        <ele>143.60000610352</ele>
        <time>2022-03-04T15:00:28Z</time>
      </trkpt>
      <trkpt lat="45.33751" lon="4.75933">
        <ele>143.60000610352</ele>
        <time>2022-03-04T15:00:29Z</time>
      </trkpt>
      <trkpt lat="45.33729" lon="4.75914">
        <ele>143.39999389648</ele>
        <time>2022-03-04T15:00:35Z</time>
      </trkpt>
      <trkpt lat="45.33716" lon="4.75893">
        <ele>143.19999694824</ele>
        <time>2022-03-04T15:00:40Z</time>
      </trkpt>
      <trkpt lat="45.33695" lon="4.75876">
        <ele>143.80000305176</ele>
        <time>2022-03-04T15:00:47Z</time>
      </trkpt>
      <trkpt lat="45.33677" lon="4.75859">
        <ele>144</ele>
        <time>2022-03-04T15:00:55Z</time>
      </trkpt>
      <trkpt lat="45.33647" lon="4.75842">
        <ele>145.19999694824</ele>
        <time>2022-03-04T15:01:05Z</time>
      </trkpt>
      <trkpt lat="45.33621" lon="4.75844">
        <ele>145.39999389648</ele>
        <time>2022-03-04T15:01:15Z</time>
      </trkpt>
      <trkpt lat="45.33619" lon="4.75843">
        <ele>144.80000305176</ele>
        <time>2022-03-04T15:01:30Z</time>
      </trkpt>
      <trkpt lat="45.33605" lon="4.75837">
        <ele>145</ele>
        <time>2022-03-04T15:02:26Z</time>
      </trkpt>
      <trkpt lat="45.33585" lon="4.75831">
        <ele>144.80000305176</ele>
        <time>2022-03-04T15:02:31Z</time>
      </trkpt>
      <trkpt lat="45.33533" lon="4.75811">
        <ele>144.80000305176</ele>
        <time>2022-03-04T15:02:44Z</time>
      </trkpt>
      <trkpt lat="45.33527" lon="4.75783">
        <ele>144.80000305176</ele>
        <time>2022-03-04T15:02:52Z</time>
      </trkpt>
      <trkpt lat="45.33527" lon="4.75779">
        <ele>144.80000305176</ele>
        <time>2022-03-04T15:02:54Z</time>
      </trkpt>
      <trkpt lat="45.33528" lon="4.75772">
        <ele>144.80000305176</ele>
        <time>2022-03-04T15:02:58Z</time>
      </trkpt>
      <trkpt lat="45.33521" lon="4.75752">
        <ele>146.19999694824</ele>
        <time>2022-03-04T15:03:12Z</time>
      </trkpt>
      <trkpt lat="45.33515" lon="4.75748">
        <ele>146.80000305176</ele>
        <time>2022-03-04T15:03:21Z</time>
      </trkpt>
      <trkpt lat="45.33504" lon="4.75743">
        <ele>147</ele>
        <time>2022-03-04T15:03:26Z</time>
      </trkpt>
      <trkpt lat="45.33458" lon="4.7574">
        <ele>146.80000305176</ele>
        <time>2022-03-04T15:03:39Z</time>
      </trkpt>
      <trkpt lat="45.33362" lon="4.7574">
        <ele>147.39999389648</ele>
        <time>2022-03-04T15:04:00Z</time>
      </trkpt>
      <trkpt lat="45.33215" lon="4.75738">
        <ele>149</ele>
        <time>2022-03-04T15:04:27Z</time>
      </trkpt>
      <trkpt lat="45.32982" lon="4.75725">
        <ele>148.19999694824</ele>
        <time>2022-03-04T15:05:01Z</time>
      </trkpt>
      <trkpt lat="45.32779" lon="4.75713">
        <ele>148.80000305176</ele>
        <time>2022-03-04T15:05:29Z</time>
      </trkpt>
      <trkpt lat="45.32713" lon="4.75745">
        <ele>148.80000305176</ele>
        <time>2022-03-04T15:05:39Z</time>
      </trkpt>
      <trkpt lat="45.32675" lon="4.75768">
        <ele>149</ele>
        <time>2022-03-04T15:05:45Z</time>
      </trkpt>
      <trkpt lat="45.32516" lon="4.75905">
        <ele>149.19999694824</ele>
        <time>2022-03-04T15:06:10Z</time>
      </trkpt>
      <trkpt lat="45.32509" lon="4.75911">
        <ele>149.19999694824</ele>
        <time>2022-03-04T15:06:11Z</time>
      </trkpt>
      <trkpt lat="45.32417" lon="4.75964">
        <ele>148.80000305176</ele>
        <time>2022-03-04T15:06:22Z</time>
      </trkpt>
      <trkpt lat="45.32229" lon="4.76066">
        <ele>146.39999389648</ele>
        <time>2022-03-04T15:06:45Z</time>
      </trkpt>
      <trkpt lat="45.3217" lon="4.76097">
        <ele>146</ele>
        <time>2022-03-04T15:06:53Z</time>
      </trkpt>
      <trkpt lat="45.32122" lon="4.76125">
        <ele>146</ele>
        <time>2022-03-04T15:07:00Z</time>
      </trkpt>
      <trkpt lat="45.32071" lon="4.76191">
        <ele>145.80000305176</ele>
        <time>2022-03-04T15:07:09Z</time>
      </trkpt>
      <trkpt lat="45.32034" lon="4.76292">
        <ele>145.39999389648</ele>
        <time>2022-03-04T15:07:21Z</time>
      </trkpt>
      <trkpt lat="45.32032" lon="4.76299">
        <ele>145.39999389648</ele>
        <time>2022-03-04T15:07:22Z</time>
      </trkpt>
      <trkpt lat="45.32018" lon="4.7633">
        <ele>145.39999389648</ele>
        <time>2022-03-04T15:07:27Z</time>
      </trkpt>
      <trkpt lat="45.31993" lon="4.76359">
        <ele>145.60000610352</ele>
        <time>2022-03-04T15:07:37Z</time>
      </trkpt>
      <trkpt lat="45.31992" lon="4.76361">
        <ele>145.60000610352</ele>
        <time>2022-03-04T15:07:38Z</time>
      </trkpt>
      <trkpt lat="45.3199" lon="4.76371">
        <ele>145.80000305176</ele>
        <time>2022-03-04T15:07:42Z</time>
      </trkpt>
      <trkpt lat="45.31986" lon="4.76373">
        <ele>145.39999389648</ele>
        <time>2022-03-04T15:08:00Z</time>
      </trkpt>
      <trkpt lat="45.31987" lon="4.76373">
        <ele>145.19999694824</ele>
        <time>2022-03-04T15:09:35Z</time>
      </trkpt>
      <trkpt lat="45.31961" lon="4.7639">
        <ele>145.19999694824</ele>
        <time>2022-03-04T15:09:46Z</time>
      </trkpt>
      <trkpt lat="45.31906" lon="4.76443">
        <ele>145.19999694824</ele>
        <time>2022-03-04T15:10:03Z</time>
      </trkpt>
      <trkpt lat="45.31898" lon="4.76421">
        <ele>144.80000305176</ele>
        <time>2022-03-04T15:10:09Z</time>
      </trkpt>
      <trkpt lat="45.319" lon="4.76406">
        <ele>144.80000305176</ele>
        <time>2022-03-04T15:10:12Z</time>
      </trkpt>
      <trkpt lat="45.31904" lon="4.76368">
        <ele>146</ele>
        <time>2022-03-04T15:10:22Z</time>
      </trkpt>
      <trkpt lat="45.31902" lon="4.76358">
        <ele>146.80000305176</ele>
        <time>2022-03-04T15:10:25Z</time>
      </trkpt>
      <trkpt lat="45.31898" lon="4.76323">
        <ele>148.80000305176</ele>
        <time>2022-03-04T15:10:34Z</time>
      </trkpt>
      <trkpt lat="45.3189" lon="4.76309">
        <ele>149.19999694824</ele>
        <time>2022-03-04T15:10:37Z</time>
      </trkpt>
      <trkpt lat="45.31888" lon="4.76307">
        <ele>149.19999694824</ele>
        <time>2022-03-04T15:10:38Z</time>
      </trkpt>
      <trkpt lat="45.31874" lon="4.76285">
        <ele>149.60000610352</ele>
        <time>2022-03-04T15:10:45Z</time>
      </trkpt>
      <trkpt lat="45.3187" lon="4.76276">
        <ele>150</ele>
        <time>2022-03-04T15:10:49Z</time>
      </trkpt>
      <trkpt lat="45.31866" lon="4.76249">
        <ele>151.60000610352</ele>
        <time>2022-03-04T15:10:58Z</time>
      </trkpt>
      <trkpt lat="45.31857" lon="4.76232">
        <ele>152.80000305176</ele>
        <time>2022-03-04T15:11:07Z</time>
      </trkpt>
      <trkpt lat="45.31854" lon="4.76219">
        <ele>153.60000610352</ele>
        <time>2022-03-04T15:11:12Z</time>
      </trkpt>
      <trkpt lat="45.31854" lon="4.76218">
        <ele>153.60000610352</ele>
        <time>2022-03-04T15:11:13Z</time>
      </trkpt>
      <trkpt lat="45.3185" lon="4.76209">
        <ele>155.19999694824</ele>
        <time>2022-03-04T15:11:19Z</time>
      </trkpt>
      <trkpt lat="45.31845" lon="4.76214">
        <ele>156.19999694824</ele>
        <time>2022-03-04T15:11:22Z</time>
      </trkpt>
      <trkpt lat="45.31836" lon="4.76228">
        <ele>157.60000610352</ele>
        <time>2022-03-04T15:11:29Z</time>
      </trkpt>
      <trkpt lat="45.31835" lon="4.7623">
        <ele>157.80000305176</ele>
        <time>2022-03-04T15:11:30Z</time>
      </trkpt>
      <trkpt lat="45.31814" lon="4.76264">
        <ele>158.19999694824</ele>
        <time>2022-03-04T15:11:40Z</time>
      </trkpt>
      <trkpt lat="45.31811" lon="4.76269">
        <ele>158</ele>
        <time>2022-03-04T15:11:41Z</time>
      </trkpt>
      <trkpt lat="45.31776" lon="4.76323">
        <ele>156.60000610352</ele>
        <time>2022-03-04T15:11:48Z</time>
      </trkpt>
      <trkpt lat="45.31744" lon="4.76359">
        <ele>154.60000610352</ele>
        <time>2022-03-04T15:11:53Z</time>
      </trkpt>
      <trkpt lat="45.31735" lon="4.76374">
        <ele>153.80000305176</ele>
        <time>2022-03-04T15:11:55Z</time>
      </trkpt>
      <trkpt lat="45.31724" lon="4.76399">
        <ele>153.39999389648</ele>
        <time>2022-03-04T15:11:59Z</time>
      </trkpt>
      <trkpt lat="45.31705" lon="4.76431">
        <ele>154.60000610352</ele>
        <time>2022-03-04T15:12:08Z</time>
      </trkpt>
      <trkpt lat="45.31691" lon="4.76455">
        <ele>155.80000305176</ele>
        <time>2022-03-04T15:12:15Z</time>
      </trkpt>
      <trkpt lat="45.3168" lon="4.76453">
        <ele>156.39999389648</ele>
        <time>2022-03-04T15:12:22Z</time>
      </trkpt>
      <trkpt lat="45.31681" lon="4.76447">
        <ele>156.60000610352</ele>
        <time>2022-03-04T15:12:25Z</time>
      </trkpt>
      <trkpt lat="45.31686" lon="4.76422">
        <ele>158.39999389648</ele>
        <time>2022-03-04T15:12:35Z</time>
      </trkpt>
      <trkpt lat="45.31695" lon="4.76397">
        <ele>160</ele>
        <time>2022-03-04T15:12:45Z</time>
      </trkpt>
      <trkpt lat="45.31707" lon="4.76377">
        <ele>161</ele>
        <time>2022-03-04T15:12:55Z</time>
      </trkpt>
      <trkpt lat="45.31723" lon="4.76344">
        <ele>163</ele>
        <time>2022-03-04T15:13:10Z</time>
      </trkpt>
      <trkpt lat="45.3173" lon="4.76316">
        <ele>165</ele>
        <time>2022-03-04T15:13:21Z</time>
      </trkpt>
      <trkpt lat="45.31738" lon="4.76281">
        <ele>167.80000305176</ele>
        <time>2022-03-04T15:13:35Z</time>
      </trkpt>
      <trkpt lat="45.31746" lon="4.76252">
        <ele>170.80000305176</ele>
        <time>2022-03-04T15:13:47Z</time>
      </trkpt>
      <trkpt lat="45.31753" lon="4.76225">
        <ele>173.80000305176</ele>
        <time>2022-03-04T15:13:59Z</time>
      </trkpt>
      <trkpt lat="45.31759" lon="4.76194">
        <ele>176.60000610352</ele>
        <time>2022-03-04T15:14:13Z</time>
      </trkpt>
      <trkpt lat="45.31762" lon="4.76166">
        <ele>179.80000305176</ele>
        <time>2022-03-04T15:14:25Z</time>
      </trkpt>
      <trkpt lat="45.31753" lon="4.76137">
        <ele>182.80000305176</ele>
        <time>2022-03-04T15:14:38Z</time>
      </trkpt>
      <trkpt lat="45.31738" lon="4.76109">
        <ele>184.80000305176</ele>
        <time>2022-03-04T15:14:52Z</time>
      </trkpt>
      <trkpt lat="45.31723" lon="4.76086">
        <ele>186.60000610352</ele>
        <time>2022-03-04T15:15:02Z</time>
      </trkpt>
      <trkpt lat="45.31721" lon="4.76077">
        <ele>187.19999694824</ele>
        <time>2022-03-04T15:15:06Z</time>
      </trkpt>
      <trkpt lat="45.31721" lon="4.76074">
        <ele>187.60000610352</ele>
        <time>2022-03-04T15:15:07Z</time>
      </trkpt>
      <trkpt lat="45.31715" lon="4.76068">
        <ele>188.19999694824</ele>
        <time>2022-03-04T15:15:11Z</time>
      </trkpt>
      <trkpt lat="45.31709" lon="4.76078">
        <ele>189.80000305176</ele>
        <time>2022-03-04T15:15:17Z</time>
      </trkpt>
      <trkpt lat="45.31708" lon="4.76111">
        <ele>192.80000305176</ele>
        <time>2022-03-04T15:15:30Z</time>
      </trkpt>
      <trkpt lat="45.31711" lon="4.76124">
        <ele>194</ele>
        <time>2022-03-04T15:15:35Z</time>
      </trkpt>
      <trkpt lat="45.31724" lon="4.76146">
        <ele>196.19999694824</ele>
        <time>2022-03-04T15:15:45Z</time>
      </trkpt>
      <trkpt lat="45.31726" lon="4.76181">
        <ele>199.19999694824</ele>
        <time>2022-03-04T15:15:58Z</time>
      </trkpt>
      <trkpt lat="45.31705" lon="4.76206">
        <ele>202.19999694824</ele>
        <time>2022-03-04T15:16:11Z</time>
      </trkpt>
      <trkpt lat="45.3168" lon="4.76228">
        <ele>204.80000305176</ele>
        <time>2022-03-04T15:16:26Z</time>
      </trkpt>
      <trkpt lat="45.31652" lon="4.76254">
        <ele>206.80000305176</ele>
        <time>2022-03-04T15:16:41Z</time>
      </trkpt>
      <trkpt lat="45.31624" lon="4.76255">
        <ele>209</ele>
        <time>2022-03-04T15:16:56Z</time>
      </trkpt>
      <trkpt lat="45.31607" lon="4.76248">
        <ele>210.60000610352</ele>
        <time>2022-03-04T15:17:07Z</time>
      </trkpt>
      <trkpt lat="45.31579" lon="4.7624">
        <ele>212.39999389648</ele>
        <time>2022-03-04T15:17:18Z</time>
      </trkpt>
      <trkpt lat="45.31561" lon="4.76259">
        <ele>213.60000610352</ele>
        <time>2022-03-04T15:17:27Z</time>
      </trkpt>
      <trkpt lat="45.31555" lon="4.76278">
        <ele>214.60000610352</ele>
        <time>2022-03-04T15:17:35Z</time>
      </trkpt>
      <trkpt lat="45.31537" lon="4.76303">
        <ele>217.19999694824</ele>
        <time>2022-03-04T15:17:48Z</time>
      </trkpt>
      <trkpt lat="45.31528" lon="4.76333">
        <ele>218.60000610352</ele>
        <time>2022-03-04T15:17:59Z</time>
      </trkpt>
      <trkpt lat="45.31539" lon="4.7635">
        <ele>219.60000610352</ele>
        <time>2022-03-04T15:18:06Z</time>
      </trkpt>
      <trkpt lat="45.31544" lon="4.76356">
        <ele>220</ele>
        <time>2022-03-04T15:18:09Z</time>
      </trkpt>
      <trkpt lat="45.31552" lon="4.7637">
        <ele>220.80000305176</ele>
        <time>2022-03-04T15:18:14Z</time>
      </trkpt>
      <trkpt lat="45.31556" lon="4.76401">
        <ele>222</ele>
        <time>2022-03-04T15:18:24Z</time>
      </trkpt>
      <trkpt lat="45.31538" lon="4.76423">
        <ele>224</ele>
        <time>2022-03-04T15:18:36Z</time>
      </trkpt>
      <trkpt lat="45.31513" lon="4.76446">
        <ele>226.39999389648</ele>
        <time>2022-03-04T15:18:49Z</time>
      </trkpt>
      <trkpt lat="45.31501" lon="4.7648">
        <ele>229.60000610352</ele>
        <time>2022-03-04T15:19:02Z</time>
      </trkpt>
      <trkpt lat="45.31515" lon="4.7652">
        <ele>231.60000610352</ele>
        <time>2022-03-04T15:19:16Z</time>
      </trkpt>
      <trkpt lat="45.31515" lon="4.76524">
        <ele>231.80000305176</ele>
        <time>2022-03-04T15:19:17Z</time>
      </trkpt>
      <trkpt lat="45.31503" lon="4.76555">
        <ele>233.80000305176</ele>
        <time>2022-03-04T15:19:29Z</time>
      </trkpt>
      <trkpt lat="45.31483" lon="4.76601">
        <ele>236.60000610352</ele>
        <time>2022-03-04T15:19:45Z</time>
      </trkpt>
      <trkpt lat="45.31472" lon="4.76642">
        <ele>239</ele>
        <time>2022-03-04T15:19:58Z</time>
      </trkpt>
      <trkpt lat="45.31456" lon="4.76679">
        <ele>241.39999389648</ele>
        <time>2022-03-04T15:20:11Z</time>
      </trkpt>
      <trkpt lat="45.31425" lon="4.76696">
        <ele>244</ele>
        <time>2022-03-04T15:20:26Z</time>
      </trkpt>
      <trkpt lat="45.31412" lon="4.76665">
        <ele>245</ele>
        <time>2022-03-04T15:20:37Z</time>
      </trkpt>
      <trkpt lat="45.31432" lon="4.76624">
        <ele>247.60000610352</ele>
        <time>2022-03-04T15:20:51Z</time>
      </trkpt>
      <trkpt lat="45.31447" lon="4.76587">
        <ele>250.19999694824</ele>
        <time>2022-03-04T15:21:04Z</time>
      </trkpt>
      <trkpt lat="45.31451" lon="4.7653">
        <ele>252.80000305176</ele>
        <time>2022-03-04T15:21:21Z</time>
      </trkpt>
      <trkpt lat="45.31438" lon="4.76485">
        <ele>255.80000305176</ele>
        <time>2022-03-04T15:21:36Z</time>
      </trkpt>
      <trkpt lat="45.31434" lon="4.76449">
        <ele>258.20001220703</ele>
        <time>2022-03-04T15:21:49Z</time>
      </trkpt>
      <trkpt lat="45.31452" lon="4.76416">
        <ele>261</ele>
        <time>2022-03-04T15:22:02Z</time>
      </trkpt>
      <trkpt lat="45.31447" lon="4.76378">
        <ele>263.39999389648</ele>
        <time>2022-03-04T15:22:15Z</time>
      </trkpt>
      <trkpt lat="45.31416" lon="4.76359">
        <ele>266.39999389648</ele>
        <time>2022-03-04T15:22:31Z</time>
      </trkpt>
      <trkpt lat="45.314" lon="4.76332">
        <ele>269.39999389648</ele>
        <time>2022-03-04T15:22:43Z</time>
      </trkpt>
      <trkpt lat="45.31391" lon="4.76295">
        <ele>270.60000610352</ele>
        <time>2022-03-04T15:22:56Z</time>
      </trkpt>
      <trkpt lat="45.31399" lon="4.7627">
        <ele>273.60000610352</ele>
        <time>2022-03-04T15:23:05Z</time>
      </trkpt>
      <trkpt lat="45.31413" lon="4.76237">
        <ele>276.20001220703</ele>
        <time>2022-03-04T15:23:19Z</time>
      </trkpt>
      <trkpt lat="45.3142" lon="4.762">
        <ele>279</ele>
        <time>2022-03-04T15:23:34Z</time>
      </trkpt>
      <trkpt lat="45.31424" lon="4.76167">
        <ele>281.39999389648</ele>
        <time>2022-03-04T15:23:48Z</time>
      </trkpt>
      <trkpt lat="45.31424" lon="4.76154">
        <ele>282.60000610352</ele>
        <time>2022-03-04T15:23:54Z</time>
      </trkpt>
      <trkpt lat="45.31426" lon="4.76141">
        <ele>283.39999389648</ele>
        <time>2022-03-04T15:24:01Z</time>
      </trkpt>
      <trkpt lat="45.31426" lon="4.76139">
        <ele>283.60000610352</ele>
        <time>2022-03-04T15:24:02Z</time>
      </trkpt>
      <trkpt lat="45.31424" lon="4.76123">
        <ele>285.20001220703</ele>
        <time>2022-03-04T15:24:12Z</time>
      </trkpt>
      <trkpt lat="45.31419" lon="4.76113">
        <ele>286</ele>
        <time>2022-03-04T15:24:18Z</time>
      </trkpt>
      <trkpt lat="45.31414" lon="4.76099">
        <ele>286.79998779297</ele>
        <time>2022-03-04T15:24:25Z</time>
      </trkpt>
      <trkpt lat="45.31409" lon="4.76087">
        <ele>287.39999389648</ele>
        <time>2022-03-04T15:24:30Z</time>
      </trkpt>
      <trkpt lat="45.31401" lon="4.76065">
        <ele>289</ele>
        <time>2022-03-04T15:24:41Z</time>
      </trkpt>
      <trkpt lat="45.31393" lon="4.76043">
        <ele>290.60000610352</ele>
        <time>2022-03-04T15:24:51Z</time>
      </trkpt>
      <trkpt lat="45.31385" lon="4.76012">
        <ele>293.20001220703</ele>
        <time>2022-03-04T15:25:04Z</time>
      </trkpt>
      <trkpt lat="45.31368" lon="4.75986">
        <ele>295.20001220703</ele>
        <time>2022-03-04T15:25:17Z</time>
      </trkpt>
      <trkpt lat="45.31353" lon="4.75961">
        <ele>296.60000610352</ele>
        <time>2022-03-04T15:25:30Z</time>
      </trkpt>
      <trkpt lat="45.31341" lon="4.75925">
        <ele>299.60000610352</ele>
        <time>2022-03-04T15:25:45Z</time>
      </trkpt>
      <trkpt lat="45.31329" lon="4.75889">
        <ele>302.39999389648</ele>
        <time>2022-03-04T15:26:01Z</time>
      </trkpt>
      <trkpt lat="45.31323" lon="4.75854">
        <ele>304.79998779297</ele>
        <time>2022-03-04T15:26:14Z</time>
      </trkpt>
      <trkpt lat="45.31318" lon="4.75821">
        <ele>306</ele>
        <time>2022-03-04T15:26:27Z</time>
      </trkpt>
      <trkpt lat="45.31315" lon="4.75794">
        <ele>309</ele>
        <time>2022-03-04T15:26:36Z</time>
      </trkpt>
      <trkpt lat="45.31313" lon="4.75752">
        <ele>310.20001220703</ele>
        <time>2022-03-04T15:26:48Z</time>
      </trkpt>
      <trkpt lat="45.31298" lon="4.75697">
        <ele>312.20001220703</ele>
        <time>2022-03-04T15:27:03Z</time>
      </trkpt>
      <trkpt lat="45.31281" lon="4.75643">
        <ele>313.60000610352</ele>
        <time>2022-03-04T15:27:18Z</time>
      </trkpt>
      <trkpt lat="45.31271" lon="4.75601">
        <ele>315.60000610352</ele>
        <time>2022-03-04T15:27:33Z</time>
      </trkpt>
      <trkpt lat="45.31262" lon="4.7557">
        <ele>318.60000610352</ele>
        <time>2022-03-04T15:27:46Z</time>
      </trkpt>
      <trkpt lat="45.31256" lon="4.75539">
        <ele>321.20001220703</ele>
        <time>2022-03-04T15:27:59Z</time>
      </trkpt>
      <trkpt lat="45.31248" lon="4.75504">
        <ele>324.20001220703</ele>
        <time>2022-03-04T15:28:13Z</time>
      </trkpt>
      <trkpt lat="45.31237" lon="4.75473">
        <ele>326.60000610352</ele>
        <time>2022-03-04T15:28:27Z</time>
      </trkpt>
      <trkpt lat="45.31224" lon="4.75435">
        <ele>329.79998779297</ele>
        <time>2022-03-04T15:28:44Z</time>
      </trkpt>
      <trkpt lat="45.3122" lon="4.75421">
        <ele>331.79998779297</ele>
        <time>2022-03-04T15:28:50Z</time>
      </trkpt>
      <trkpt lat="45.31212" lon="4.75393">
        <ele>334.79998779297</ele>
        <time>2022-03-04T15:29:00Z</time>
      </trkpt>
      <trkpt lat="45.31198" lon="4.75344">
        <ele>336</ele>
        <time>2022-03-04T15:29:12Z</time>
      </trkpt>
      <trkpt lat="45.31181" lon="4.75283">
        <ele>336.79998779297</ele>
        <time>2022-03-04T15:29:26Z</time>
      </trkpt>
      <trkpt lat="45.31157" lon="4.75227">
        <ele>336.60000610352</ele>
        <time>2022-03-04T15:29:40Z</time>
      </trkpt>
      <trkpt lat="45.31121" lon="4.75137">
        <ele>339.60000610352</ele>
        <time>2022-03-04T15:30:03Z</time>
      </trkpt>
      <trkpt lat="45.31108" lon="4.75096">
        <ele>342</ele>
        <time>2022-03-04T15:30:15Z</time>
      </trkpt>
      <trkpt lat="45.31103" lon="4.75037">
        <ele>343.39999389648</ele>
        <time>2022-03-04T15:30:28Z</time>
      </trkpt>
      <trkpt lat="45.3111" lon="4.74948">
        <ele>342.79998779297</ele>
        <time>2022-03-04T15:30:43Z</time>
      </trkpt>
      <trkpt lat="45.31131" lon="4.74792">
        <ele>341.60000610352</ele>
        <time>2022-03-04T15:31:04Z</time>
      </trkpt>
      <trkpt lat="45.31126" lon="4.74757">
        <ele>341.60000610352</ele>
        <time>2022-03-04T15:31:09Z</time>
      </trkpt>
      <trkpt lat="45.31107" lon="4.74695">
        <ele>343.60000610352</ele>
        <time>2022-03-04T15:31:22Z</time>
      </trkpt>
      <trkpt lat="45.31087" lon="4.74618">
        <ele>345.39999389648</ele>
        <time>2022-03-04T15:31:38Z</time>
      </trkpt>
      <trkpt lat="45.31077" lon="4.7455">
        <ele>346.39999389648</ele>
        <time>2022-03-04T15:31:50Z</time>
      </trkpt>
      <trkpt lat="45.3105" lon="4.74464">
        <ele>348</ele>
        <time>2022-03-04T15:32:10Z</time>
      </trkpt>
      <trkpt lat="45.31047" lon="4.74453">
        <ele>348.20001220703</ele>
        <time>2022-03-04T15:32:12Z</time>
      </trkpt>
      <trkpt lat="45.31029" lon="4.74402">
        <ele>348.39999389648</ele>
        <time>2022-03-04T15:32:21Z</time>
      </trkpt>
      <trkpt lat="45.3099" lon="4.74274">
        <ele>348.39999389648</ele>
        <time>2022-03-04T15:32:41Z</time>
      </trkpt>
      <trkpt lat="45.30957" lon="4.74203">
        <ele>348.60000610352</ele>
        <time>2022-03-04T15:32:55Z</time>
      </trkpt>
      <trkpt lat="45.30927" lon="4.74164">
        <ele>349</ele>
        <time>2022-03-04T15:33:08Z</time>
      </trkpt>
      <trkpt lat="45.30896" lon="4.74125">
        <ele>349.39999389648</ele>
        <time>2022-03-04T15:33:22Z</time>
      </trkpt>
      <trkpt lat="45.30889" lon="4.74113">
        <ele>350</ele>
        <time>2022-03-04T15:33:27Z</time>
      </trkpt>
      <trkpt lat="45.30877" lon="4.74108">
        <ele>350.39999389648</ele>
        <time>2022-03-04T15:33:33Z</time>
      </trkpt>
      <trkpt lat="45.3087" lon="4.74106">
        <ele>351.79998779297</ele>
        <time>2022-03-04T15:33:52Z</time>
      </trkpt>
      <trkpt lat="45.3086" lon="4.7411">
        <ele>351.60000610352</ele>
        <time>2022-03-04T15:34:02Z</time>
      </trkpt>
      <trkpt lat="45.30856" lon="4.74115">
        <ele>351.60000610352</ele>
        <time>2022-03-04T15:34:04Z</time>
      </trkpt>
      <trkpt lat="45.3083" lon="4.74117">
        <ele>351.60000610352</ele>
        <time>2022-03-04T15:34:12Z</time>
      </trkpt>
      <trkpt lat="45.30799" lon="4.74097">
        <ele>351</ele>
        <time>2022-03-04T15:34:21Z</time>
      </trkpt>
      <trkpt lat="45.30766" lon="4.74077">
        <ele>354</ele>
        <time>2022-03-04T15:34:35Z</time>
      </trkpt>
      <trkpt lat="45.30731" lon="4.74061">
        <ele>357</ele>
        <time>2022-03-04T15:34:49Z</time>
      </trkpt>
      <trkpt lat="45.30695" lon="4.74042">
        <ele>360</ele>
        <time>2022-03-04T15:35:03Z</time>
      </trkpt>
      <trkpt lat="45.30649" lon="4.74008">
        <ele>360.20001220703</ele>
        <time>2022-03-04T15:35:18Z</time>
      </trkpt>
      <trkpt lat="45.3059" lon="4.73965">
        <ele>361.39999389648</ele>
        <time>2022-03-04T15:35:36Z</time>
      </trkpt>
      <trkpt lat="45.30546" lon="4.73936">
        <ele>363.20001220703</ele>
        <time>2022-03-04T15:35:52Z</time>
      </trkpt>
      <trkpt lat="45.30529" lon="4.73924">
        <ele>366.20001220703</ele>
        <time>2022-03-04T15:36:01Z</time>
      </trkpt>
      <trkpt lat="45.30513" lon="4.73911">
        <ele>369.39999389648</ele>
        <time>2022-03-04T15:36:10Z</time>
      </trkpt>
      <trkpt lat="45.3049" lon="4.73888">
        <ele>372.39999389648</ele>
        <time>2022-03-04T15:36:21Z</time>
      </trkpt>
      <trkpt lat="45.30447" lon="4.7384">
        <ele>372.60000610352</ele>
        <time>2022-03-04T15:36:32Z</time>
      </trkpt>
      <trkpt lat="45.30409" lon="4.73808">
        <ele>372.20001220703</ele>
        <time>2022-03-04T15:36:44Z</time>
      </trkpt>
      <trkpt lat="45.30374" lon="4.7376">
        <ele>375.39999389648</ele>
        <time>2022-03-04T15:36:58Z</time>
      </trkpt>
      <trkpt lat="45.30373" lon="4.73756">
        <ele>375.60000610352</ele>
        <time>2022-03-04T15:36:59Z</time>
      </trkpt>
      <trkpt lat="45.30371" lon="4.7375">
        <ele>375.79998779297</ele>
        <time>2022-03-04T15:37:00Z</time>
      </trkpt>
      <trkpt lat="45.30336" lon="4.7369">
        <ele>376.20001220703</ele>
        <time>2022-03-04T15:37:07Z</time>
      </trkpt>
      <trkpt lat="45.30293" lon="4.73639">
        <ele>373</ele>
        <time>2022-03-04T15:37:12Z</time>
      </trkpt>
      <trkpt lat="45.30277" lon="4.73625">
        <ele>372</ele>
        <time>2022-03-04T15:37:14Z</time>
      </trkpt>
      <trkpt lat="45.30243" lon="4.73604">
        <ele>370.60000610352</ele>
        <time>2022-03-04T15:37:19Z</time>
      </trkpt>
      <trkpt lat="45.3019" lon="4.73578">
        <ele>373.60000610352</ele>
        <time>2022-03-04T15:37:30Z</time>
      </trkpt>
      <trkpt lat="45.30143" lon="4.73569">
        <ele>376.60000610352</ele>
        <time>2022-03-04T15:37:43Z</time>
      </trkpt>
      <trkpt lat="45.30082" lon="4.73562">
        <ele>378</ele>
        <time>2022-03-04T15:37:57Z</time>
      </trkpt>
      <trkpt lat="45.30057" lon="4.73563">
        <ele>377.20001220703</ele>
        <time>2022-03-04T15:38:01Z</time>
      </trkpt>
      <trkpt lat="45.30032" lon="4.73567">
        <ele>376.60000610352</ele>
        <time>2022-03-04T15:38:05Z</time>
      </trkpt>
      <trkpt lat="45.30026" lon="4.73568">
        <ele>376.39999389648</ele>
        <time>2022-03-04T15:38:06Z</time>
      </trkpt>
      <trkpt lat="45.29967" lon="4.73584">
        <ele>376.79998779297</ele>
        <time>2022-03-04T15:38:17Z</time>
      </trkpt>
      <trkpt lat="45.2995" lon="4.73592">
        <ele>377</ele>
        <time>2022-03-04T15:38:20Z</time>
      </trkpt>
      <trkpt lat="45.29892" lon="4.73618">
        <ele>377</ele>
        <time>2022-03-04T15:38:31Z</time>
      </trkpt>
      <trkpt lat="45.29902" lon="4.73559">
        <ele>376.20001220703</ele>
        <time>2022-03-04T15:38:46Z</time>
      </trkpt>
      <trkpt lat="45.29914" lon="4.73528">
        <ele>376.20001220703</ele>
        <time>2022-03-04T15:38:53Z</time>
      </trkpt>
      <trkpt lat="45.29928" lon="4.73495">
        <ele>377.20001220703</ele>
        <time>2022-03-04T15:39:03Z</time>
      </trkpt>
      <trkpt lat="45.29913" lon="4.73491">
        <ele>378.60000610352</ele>
        <time>2022-03-04T15:39:09Z</time>
      </trkpt>
      <trkpt lat="45.29872" lon="4.73514">
        <ele>380.60000610352</ele>
        <time>2022-03-04T15:39:22Z</time>
      </trkpt>
      <trkpt lat="45.29829" lon="4.73547">
        <ele>380.60000610352</ele>
        <time>2022-03-04T15:39:34Z</time>
      </trkpt>
      <trkpt lat="45.2974" lon="4.73601">
        <ele>381.20001220703</ele>
        <time>2022-03-04T15:39:58Z</time>
      </trkpt>
      <trkpt lat="45.29658" lon="4.73627">
        <ele>384.20001220703</ele>
        <time>2022-03-04T15:40:19Z</time>
      </trkpt>
      <trkpt lat="45.29655" lon="4.73627">
        <ele>384.39999389648</ele>
        <time>2022-03-04T15:40:20Z</time>
      </trkpt>
      <trkpt lat="45.29625" lon="4.73631">
        <ele>387.20001220703</ele>
        <time>2022-03-04T15:40:32Z</time>
      </trkpt>
      <trkpt lat="45.29593" lon="4.73631">
        <ele>389.39999389648</ele>
        <time>2022-03-04T15:40:43Z</time>
      </trkpt>
      <trkpt lat="45.29562" lon="4.73632">
        <ele>390.20001220703</ele>
        <time>2022-03-04T15:40:53Z</time>
      </trkpt>
      <trkpt lat="45.29513" lon="4.73627">
        <ele>391</ele>
        <time>2022-03-04T15:41:05Z</time>
      </trkpt>
      <trkpt lat="45.29498" lon="4.73625">
        <ele>390.79998779297</ele>
        <time>2022-03-04T15:41:08Z</time>
      </trkpt>
      <trkpt lat="45.29463" lon="4.73601">
        <ele>390.39999389648</ele>
        <time>2022-03-04T15:41:17Z</time>
      </trkpt>
      <trkpt lat="45.29462" lon="4.73595">
        <ele>390.60000610352</ele>
        <time>2022-03-04T15:41:18Z</time>
      </trkpt>
      <trkpt lat="45.29457" lon="4.73529">
        <ele>392</ele>
        <time>2022-03-04T15:41:30Z</time>
      </trkpt>
      <trkpt lat="45.29449" lon="4.73464">
        <ele>393.60000610352</ele>
        <time>2022-03-04T15:41:41Z</time>
      </trkpt>
      <trkpt lat="45.29446" lon="4.73429">
        <ele>393.79998779297</ele>
        <time>2022-03-04T15:41:47Z</time>
      </trkpt>
      <trkpt lat="45.29444" lon="4.73412">
        <ele>393.60000610352</ele>
        <time>2022-03-04T15:41:50Z</time>
      </trkpt>
      <trkpt lat="45.29439" lon="4.73385">
        <ele>393.79998779297</ele>
        <time>2022-03-04T15:41:55Z</time>
      </trkpt>
      <trkpt lat="45.29427" lon="4.73315">
        <ele>396</ele>
        <time>2022-03-04T15:42:09Z</time>
      </trkpt>
      <trkpt lat="45.29419" lon="4.73272">
        <ele>398.20001220703</ele>
        <time>2022-03-04T15:42:21Z</time>
      </trkpt>
      <trkpt lat="45.29414" lon="4.73231">
        <ele>399.20001220703</ele>
        <time>2022-03-04T15:42:32Z</time>
      </trkpt>
      <trkpt lat="45.29404" lon="4.73183">
        <ele>401</ele>
        <time>2022-03-04T15:42:47Z</time>
      </trkpt>
      <trkpt lat="45.294" lon="4.73181">
        <ele>401</ele>
        <time>2022-03-04T15:42:49Z</time>
      </trkpt>
      <trkpt lat="45.29385" lon="4.73195">
        <ele>401</ele>
        <time>2022-03-04T15:42:54Z</time>
      </trkpt>
      <trkpt lat="45.29325" lon="4.73272">
        <ele>399</ele>
        <time>2022-03-04T15:43:07Z</time>
      </trkpt>
      <trkpt lat="45.29291" lon="4.73312">
        <ele>397.20001220703</ele>
        <time>2022-03-04T15:43:13Z</time>
      </trkpt>
      <trkpt lat="45.29241" lon="4.73376">
        <ele>395.39999389648</ele>
        <time>2022-03-04T15:43:23Z</time>
      </trkpt>
      <trkpt lat="45.29239" lon="4.73392">
        <ele>393.79998779297</ele>
        <time>2022-03-04T15:43:29Z</time>
      </trkpt>
      <trkpt lat="45.29241" lon="4.73395">
        <ele>393</ele>
        <time>2022-03-04T15:43:37Z</time>
      </trkpt>
      <trkpt lat="45.29253" lon="4.73427">
        <ele>393</ele>
        <time>2022-03-04T15:43:49Z</time>
      </trkpt>
      <trkpt lat="45.29256" lon="4.73431">
        <ele>392.79998779297</ele>
        <time>2022-03-04T15:44:01Z</time>
      </trkpt>
      <trkpt lat="45.29257" lon="4.73431">
        <ele>393.20001220703</ele>
        <time>2022-03-04T15:44:06Z</time>
      </trkpt>
    </trkseg>
  </trk>
</gpx>